sim
Sign-in with your pilot id or email,
or register
Callsign
Passwort

LiveFlight Tracker

Flight Info OEO0021

Flight: OEO0021 PIC: FS Ikarus
Departure: ENTC Arrival: HESH
Registration: D-AIPB
Current Alt: 3070 FT GS: 171 KT
Last Info: 2019-09-23 09:27:09
Distance: 10 NM Status: Approaching

ACARS Info OEO0021

Pilot Flight Time ALT GS Latitude Longitude
OEO0538 OEO0021 2019-09-23 09:27:09 3070 171 27.836379454702 34.276777027931
OEO0538 OEO0021 2019-09-23 09:26:54 3070 171 27.836379454702 34.276777027931
OEO0538 OEO0021 2019-09-23 09:26:39 3070 171 27.836379454702 34.276777027931
OEO0538 OEO0021 2019-09-23 09:26:24 3070 171 27.836379454702 34.276777027931
OEO0538 OEO0021 2019-09-23 09:26:09 3070 171 27.836379454702 34.276777027931
OEO0538 OEO0021 2019-09-23 09:25:54 3070 171 27.836379454702 34.276777027931
OEO0538 OEO0021 2019-09-23 09:25:39 3070 171 27.836379454702 34.276777027931
OEO0538 OEO0021 2019-09-23 09:25:24 3070 171 27.836379454702 34.276777027931
OEO0538 OEO0021 2019-09-23 09:25:09 3070 171 27.836379454702 34.276777027931
OEO0538 OEO0021 2019-09-23 09:24:54 3070 171 27.836379454702 34.276777027931
OEO0538 OEO0021 2019-09-23 09:24:39 3070 171 27.836379454702 34.276777027931
OEO0538 OEO0021 2019-09-23 09:24:24 3070 171 27.836379454702 34.276777027931
OEO0538 OEO0021 2019-09-23 09:24:09 3070 171 27.836379454702 34.276777027931
OEO0538 OEO0021 2019-09-23 09:23:54 3070 171 27.836379454702 34.276777027931
OEO0538 OEO0021 2019-09-23 09:23:39 3070 171 27.836379454702 34.276777027931
OEO0538 OEO0021 2019-09-23 09:23:24 3070 171 27.836379454702 34.276777027931
OEO0538 OEO0021 2019-09-23 09:23:09 3070 171 27.836379454702 34.276777027931
OEO0538 OEO0021 2019-09-23 09:22:54 3070 171 27.836379454702 34.276777027931
OEO0538 OEO0021 2019-09-23 09:22:39 3070 171 27.836379454702 34.276777027931
OEO0538 OEO0021 2019-09-23 09:22:24 3070 171 27.836379454702 34.276777027931
OEO0538 OEO0021 2019-09-23 09:22:09 3113 173 27.83335552987 34.278593388315
OEO0538 OEO0021 2019-09-23 09:21:54 3268 180 27.822527969755 34.285181602338
OEO0538 OEO0021 2019-09-23 09:21:38 3432 182 27.81135939378 34.29204164161
OEO0538 OEO0021 2019-09-23 09:21:24 3606 190 27.800045020178 34.299132519388
OEO0538 OEO0021 2019-09-23 09:21:09 3774 192 27.788300815232 34.306614321174
OEO0538 OEO0021 2019-09-23 09:20:54 3936 194 27.77659765429 34.314233054729
OEO0538 OEO0021 2019-09-23 09:20:39 4028 194 27.765050444924 34.322035505762
OEO0538 OEO0021 2019-09-23 09:20:24 4058 194 27.753851319686 34.330708440187
OEO0538 OEO0021 2019-09-23 09:20:09 4086 194 27.746857588193 34.343521770367
OEO0538 OEO0021 2019-09-23 09:19:54 4129 196 27.747388358772 34.358680180585
OEO0538 OEO0021 2019-09-23 09:19:39 4179 198 27.755009793301 34.371419135835
OEO0538 OEO0021 2019-09-23 09:19:24 4243 213 27.767481752168 34.379324313616
OEO0538 OEO0021 2019-09-23 09:19:09 4444 215 27.782045793783 34.383230301826
OEO0538 OEO0021 2019-09-23 09:18:54 4647 215 27.796745002923 34.387227284676
OEO0538 OEO0021 2019-09-23 09:18:39 4814 217 27.811368144276 34.391804167719
OEO0538 OEO0021 2019-09-23 09:18:24 4988 221 27.825964496008 34.396499277789
OEO0538 OEO0021 2019-09-23 09:18:09 5331 227 27.841088292518 34.401148884641
OEO0538 OEO0021 2019-09-23 09:17:54 5559 235 27.856852446217 34.405016467481
OEO0538 OEO0021 2019-09-23 09:17:38 5824 248 27.873632250234 34.408224198463
OEO0538 OEO0021 2019-09-23 09:17:24 6267 252 27.890917177499 34.411065433876
OEO0538 OEO0021 2019-09-23 09:17:09 6385 264 27.908837553222 34.412581557182
OEO0538 OEO0021 2019-09-23 09:16:54 6615 276 27.927755179986 34.412820768442
OEO0538 OEO0021 2019-09-23 09:16:39 7273 277 27.947098610814 34.412627809124
OEO0538 OEO0021 2019-09-23 09:16:24 7908 279 27.966471156306 34.412126621435
OEO0538 OEO0021 2019-09-23 09:16:09 8570 281 27.986127968678 34.411894342415
OEO0538 OEO0021 2019-09-23 09:15:54 9072 279 28.005486441416 34.415078026258
OEO0538 OEO0021 2019-09-23 09:15:39 9218 279 28.024473932399 34.419632107374
OEO0538 OEO0021 2019-09-23 09:15:24 9366 281 28.043698519388 34.424235780705
OEO0538 OEO0021 2019-09-23 09:15:09 9529 281 28.062880340318 34.42883088554
OEO0538 OEO0021 2019-09-23 09:14:54 9679 281 28.08212798526 34.433443511441
OEO0538 OEO0021 2019-09-23 09:14:39 9839 283 28.101343663105 34.438050145601
OEO0538 OEO0021 2019-09-23 09:14:24 9995 283 28.120730437284 34.442699643185
OEO0538 OEO0021 2019-09-23 09:14:09 10151 283 28.140074345728 34.447340567333
OEO0538 OEO0021 2019-09-23 09:13:54 10308 285 28.159457811845 34.451992966528
OEO0538 OEO0021 2019-09-23 09:13:39 10463 285 28.178932216163 34.456669279406
OEO0538 OEO0021 2019-09-23 09:13:24 10619 287 28.198532736335 34.461377594953
OEO0538 OEO0021 2019-09-23 09:13:09 10757 289 28.218059808669 34.466069364922
OEO0538 OEO0021 2019-09-23 09:12:54 10929 301 28.238247564644 34.470921255077
OEO0538 OEO0021 2019-09-23 09:12:39 11072 309 28.259203331071 34.475960850265
OEO0538 OEO0021 2019-09-23 09:12:24 11247 311 28.280423368332 34.48106604236
OEO0538 OEO0021 2019-09-23 09:12:09 11424 311 28.301495372688 34.486137680247
OEO0538 OEO0021 2019-09-23 09:11:54 11597 312 28.322769141349 34.491259820736
OEO0538 OEO0021 2019-09-23 09:11:39 11777 312 28.344014294085 34.496376874049
OEO0538 OEO0021 2019-09-23 09:11:24 11954 312 28.36535481656 34.501518516195
OEO0538 OEO0021 2019-09-23 09:11:09 12132 314 28.386798874256 34.506685952826
OEO0538 OEO0021 2019-09-23 09:10:54 12311 314 28.408187743605 34.511840019123
OEO0538 OEO0021 2019-09-23 09:10:39 12491 316 28.429821937481 34.517051481639
OEO0538 OEO0021 2019-09-23 09:10:24 12669 316 28.451341640308 34.522231479096
OEO0538 OEO0021 2019-09-23 09:10:09 12849 316 28.472967535283 34.527432273038
OEO0538 OEO0021 2019-09-23 09:09:54 13027 318 28.494558796066 34.532632567406
OEO0538 OEO0021 2019-09-23 09:09:39 13208 316 28.516212638843 34.537950069954
OEO0538 OEO0021 2019-09-23 09:09:24 13627 318 28.537792555497 34.543485781842
OEO0538 OEO0021 2019-09-23 09:09:09 14155 320 28.55953672058 34.549073458845
OEO0538 OEO0021 2019-09-23 09:08:54 14669 322 28.581423684605 34.554700272804
OEO0538 OEO0021 2019-09-23 09:08:39 15178 324 28.603453045245 34.560366249185
OEO0538 OEO0021 2019-09-23 09:08:24 15697 328 28.625657126757 34.566079704263
OEO0538 OEO0021 2019-09-23 09:08:09 16221 328 28.64794264377 34.571816731972
OEO0538 OEO0021 2019-09-23 09:07:54 16736 332 28.670292922328 34.577573010894
OEO0538 OEO0021 2019-09-23 09:07:39 17283 334 28.693034737491 34.58343285071
OEO0538 OEO0021 2019-09-23 09:07:23 17798 336 28.715713647987 34.58927927945
OEO0538 OEO0021 2019-09-23 09:07:08 18359 338 28.738714298824 34.595211629925
OEO0538 OEO0021 2019-09-23 09:06:53 18900 342 28.761905409937 34.601196555874
OEO0538 OEO0021 2019-09-23 09:06:38 19438 346 28.785154449455 34.607200053629
OEO0538 OEO0021 2019-09-23 09:06:23 20016 347 28.808758452674 34.61329956586
OEO0538 OEO0021 2019-09-23 09:06:09 20578 351 28.832647213532 34.619477943093
OEO0538 OEO0021 2019-09-23 09:05:54 21170 355 28.856688971313 34.625702511783
OEO0538 OEO0021 2019-09-23 09:05:38 21760 359 28.881135583943 34.632040631539
OEO0538 OEO0021 2019-09-23 09:05:24 22359 363 28.905571044151 34.638387308594
OEO0538 OEO0021 2019-09-23 09:05:08 22973 367 28.930279910157 34.644819991007
OEO0538 OEO0021 2019-09-23 09:04:54 23585 371 28.955308292185 34.651353882779
OEO0538 OEO0021 2019-09-23 09:04:38 24217 375 28.980754504276 34.658009455471
OEO0538 OEO0021 2019-09-23 09:04:24 24835 380 29.006439001569 34.664694313318
OEO0538 OEO0021 2019-09-23 09:04:09 25457 384 29.032416298227 34.671130713042
OEO0538 OEO0021 2019-09-23 09:03:54 26092 390 29.058988012962 34.67701321486
OEO0538 OEO0021 2019-09-23 09:03:38 26727 394 29.085908049614 34.682934765432
OEO0538 OEO0021 2019-09-23 09:03:24 27376 400 29.113096172438 34.688923390241
OEO0538 OEO0021 2019-09-23 09:03:09 28031 404 29.140466766314 34.694960789583
OEO0538 OEO0021 2019-09-23 09:02:54 28688 408 29.168276932387 34.701104361851
OEO0538 OEO0021 2019-09-23 09:02:39 29355 412 29.196429097564 34.707333407374
OEO0538 OEO0021 2019-09-23 09:02:23 30034 415 29.224878543719 34.713640213958
OEO0538 OEO0021 2019-09-23 09:02:09 30677 417 29.253274283574 34.719950433121
OEO0538 OEO0021 2019-09-23 09:01:54 30928 419 29.282064630459 34.726364631761
OEO0538 OEO0021 2019-09-23 09:01:39 31178 421 29.310830807267 34.732789232313
OEO0538 OEO0021 2019-09-23 09:01:24 31427 423 29.339615461877 34.739224502724
OEO0538 OEO0021 2019-09-23 09:01:09 31677 425 29.368639581949 34.745662128715
OEO0538 OEO0021 2019-09-23 09:00:53 31926 427 29.397862828367 34.751706532112
OEO0538 OEO0021 2019-09-23 09:00:39 32174 427 29.427511955089 34.752771464799
OEO0538 OEO0021 2019-09-23 09:00:23 32424 427 29.456128978496 34.743560688251
OEO0538 OEO0021 2019-09-23 09:00:14 32676 427 29.481154221573 34.725309972179
OEO0538 OEO0021 2019-09-23 08:59:53 32927 427 29.504287128621 34.703600485824
OEO0538 OEO0021 2019-09-23 08:59:38 33176 427 29.527214081271 34.682062170319
OEO0538 OEO0021 2019-09-23 08:59:23 33427 425 29.550218201704 34.660376381497
OEO0538 OEO0021 2019-09-23 08:59:08 33675 425 29.572823384325 34.638472252833
OEO0538 OEO0021 2019-09-23 08:58:53 33923 425 29.592119457967 34.612839578208
OEO0538 OEO0021 2019-09-23 08:58:38 34174 425 29.603718631163 34.581611672416
OEO0538 OEO0021 2019-09-23 08:58:23 34427 423 29.606907052835 34.547878138597
OEO0538 OEO0021 2019-09-23 08:58:08 34677 423 29.606834812221 34.514074384801
OEO0538 OEO0021 2019-09-23 08:57:53 34926 423 29.606740287117 34.480262207859
OEO0538 OEO0021 2019-09-23 08:57:38 35177 423 29.606624320309 34.446349624245
OEO0538 OEO0021 2019-09-23 08:57:23 35426 421 29.606485006455 34.412600165436
OEO0538 OEO0021 2019-09-23 08:57:08 35675 421 29.606322209627 34.378974226825
OEO0538 OEO0021 2019-09-23 08:56:53 35925 421 29.60615387772 34.345273515233
OEO0538 OEO0021 2019-09-23 08:56:38 36175 421 29.606098275088 34.311603307249
OEO0538 OEO0021 2019-09-23 08:56:23 36422 421 29.607778291638 34.277948765851
OEO0538 OEO0021 2019-09-23 08:56:08 36672 419 29.617385943865 34.24620631212
OEO0538 OEO0021 2019-09-23 08:55:53 36921 408 29.635260110037 34.220286990056
OEO0538 OEO0021 2019-09-23 08:55:38 36999 402 29.658533665955 34.202461967274
OEO0538 OEO0021 2019-09-23 08:55:23 36999 402 29.683343891445 34.18736930442
OEO0538 OEO0021 2019-09-23 08:55:08 36999 402 29.707968871883 34.172382950202
OEO0538 OEO0021 2019-09-23 08:54:53 36999 402 29.713846750062 34.168804585085
OEO0538 OEO0021 2019-09-23 08:54:38 36999 402 29.713846750062 34.168804585085
OEO0538 OEO0021 2019-09-23 08:54:23 36999 402 29.713846750062 34.168804585085
OEO0538 OEO0021 2019-09-23 08:54:08 36999 402 29.713846750062 34.168804585085
OEO0538 OEO0021 2019-09-23 08:53:53 36999 402 29.713846750062 34.168804585085
OEO0538 OEO0021 2019-09-23 08:53:38 36999 402 29.713846750062 34.168804585085
OEO0538 OEO0021 2019-09-23 08:53:23 36999 402 29.713846750062 34.168804585085
OEO0538 OEO0021 2019-09-23 08:53:08 36999 402 29.713846750062 34.168804585085
OEO0538 OEO0021 2019-09-23 08:52:53 36999 402 29.713846750062 34.168804585085
OEO0538 OEO0021 2019-09-23 08:52:38 36999 402 29.713846750062 34.168804585085
OEO0538 OEO0021 2019-09-23 08:52:23 36999 402 29.713846750062 34.168804585085
OEO0538 OEO0021 2019-09-23 08:52:08 36999 402 29.713846750062 34.168804585085
OEO0538 OEO0021 2019-09-23 08:51:53 36999 402 29.713846750062 34.168804585085
OEO0538 OEO0021 2019-09-23 08:51:38 36999 402 29.713846750062 34.168804585085
OEO0538 OEO0021 2019-09-23 08:51:23 36999 402 29.713846750062 34.168804585085
OEO0538 OEO0021 2019-09-23 08:51:08 36999 402 29.713846750062 34.168804585085
OEO0538 OEO0021 2019-09-23 08:50:53 36999 402 29.713846750062 34.168804585085
OEO0538 OEO0021 2019-09-23 08:50:38 36999 402 29.713846750062 34.168804585085
OEO0538 OEO0021 2019-09-23 08:50:23 36999 402 29.713846750062 34.168804585085
OEO0538 OEO0021 2019-09-23 08:50:08 36999 402 29.713846750062 34.168804585085
OEO0538 OEO0021 2019-09-23 08:49:53 36999 402 29.713846750062 34.168804585085
OEO0538 OEO0021 2019-09-23 08:49:38 36999 402 29.713846750062 34.168804585085
OEO0538 OEO0021 2019-09-23 08:49:23 36999 402 29.713846750062 34.168804585085
OEO0538 OEO0021 2019-09-23 08:49:08 36999 402 29.713846750062 34.168804585085
OEO0538 OEO0021 2019-09-23 08:48:53 36999 402 29.713846750062 34.168804585085
OEO0538 OEO0021 2019-09-23 08:48:38 36999 402 29.713846750062 34.168804585085
OEO0538 OEO0021 2019-09-23 08:48:23 36999 402 29.713846750062 34.168804585085
OEO0538 OEO0021 2019-09-23 08:48:08 36999 402 29.713846750062 34.168804585085
OEO0538 OEO0021 2019-09-23 08:47:53 36999 402 29.713846750062 34.168804585085
OEO0538 OEO0021 2019-09-23 08:47:38 36999 402 29.713846750062 34.168804585085
OEO0538 OEO0021 2019-09-23 08:47:23 36999 402 29.713846750062 34.168804585085
OEO0538 OEO0021 2019-09-23 08:47:08 36999 402 29.713846750062 34.168804585085
OEO0538 OEO0021 2019-09-23 08:46:53 36999 402 29.713846750062 34.168804585085
OEO0538 OEO0021 2019-09-23 08:46:38 36999 402 29.713846750062 34.168804585085
OEO0538 OEO0021 2019-09-23 08:46:23 36999 402 29.713846750062 34.168804585085
OEO0538 OEO0021 2019-09-23 08:46:08 36999 402 29.713846750062 34.168804585085
OEO0538 OEO0021 2019-09-23 08:45:53 36999 402 29.713846750062 34.168804585085
OEO0538 OEO0021 2019-09-23 08:45:38 36999 402 29.713846750062 34.168804585085
OEO0538 OEO0021 2019-09-23 08:45:23 36999 402 29.713846750062 34.168804585085
OEO0538 OEO0021 2019-09-23 08:45:08 36999 402 29.713846750062 34.168804585085
OEO0538 OEO0021 2019-09-23 08:44:53 36999 402 29.713846750062 34.168804585085
OEO0538 OEO0021 2019-09-23 08:44:38 36999 402 29.713846750062 34.168804585085
OEO0538 OEO0021 2019-09-23 08:44:23 36999 402 29.713846750062 34.168804585085
OEO0538 OEO0021 2019-09-23 08:44:08 36999 402 29.713846750062 34.168804585085
OEO0538 OEO0021 2019-09-23 08:43:53 36999 402 29.713846750062 34.168804585085
OEO0538 OEO0021 2019-09-23 08:43:38 36999 402 29.713846750062 34.168804585085
OEO0538 OEO0021 2019-09-23 08:43:23 36999 402 29.713846750062 34.168804585085
OEO0538 OEO0021 2019-09-23 08:43:08 36999 402 29.713846750062 34.168804585085
OEO0538 OEO0021 2019-09-23 08:42:53 36999 402 29.713846750062 34.168804585085
OEO0538 OEO0021 2019-09-23 08:42:38 36999 402 29.713846750062 34.168804585085
OEO0538 OEO0021 2019-09-23 08:42:23 36999 402 29.713846750062 34.168804585085
OEO0538 OEO0021 2019-09-23 08:42:08 36999 402 29.713846750062 34.168804585085
OEO0538 OEO0021 2019-09-23 08:41:53 36999 402 29.713846750062 34.168804585085
OEO0538 OEO0021 2019-09-23 08:41:38 36999 402 29.713846750062 34.168804585085
OEO0538 OEO0021 2019-09-23 08:41:23 36999 402 29.713846750062 34.168804585085
OEO0538 OEO0021 2019-09-23 08:41:08 36999 402 29.713846750062 34.168804585085
OEO0538 OEO0021 2019-09-23 08:40:53 36999 402 29.713846750062 34.168804585085
OEO0538 OEO0021 2019-09-23 08:40:38 36999 402 29.713846750062 34.168804585085
OEO0538 OEO0021 2019-09-23 08:40:23 36999 402 29.713846750062 34.168804585085
OEO0538 OEO0021 2019-09-23 08:40:08 36999 402 29.713846750062 34.168804585085
OEO0538 OEO0021 2019-09-23 08:39:53 36999 402 29.713846750062 34.168804585085
OEO0538 OEO0021 2019-09-23 08:39:38 36999 402 29.713846750062 34.168804585085
OEO0538 OEO0021 2019-09-23 08:39:23 36999 402 29.713846750062 34.168804585085
OEO0538 OEO0021 2019-09-23 08:39:08 36999 402 29.713846750062 34.168804585085
OEO0538 OEO0021 2019-09-23 08:38:53 36999 402 29.713846750062 34.168804585085
OEO0538 OEO0021 2019-09-23 08:38:38 36999 402 29.713846750062 34.168804585085
OEO0538 OEO0021 2019-09-23 08:38:23 36999 402 29.713846750062 34.168804585085
OEO0538 OEO0021 2019-09-23 08:38:08 36999 402 29.713846750062 34.168804585085
OEO0538 OEO0021 2019-09-23 08:37:53 36999 402 29.713846750062 34.168804585085
OEO0538 OEO0021 2019-09-23 08:37:38 36999 402 29.713846750062 34.168804585085
OEO0538 OEO0021 2019-09-23 08:37:23 36999 402 29.713846750062 34.168804585085
OEO0538 OEO0021 2019-09-23 08:37:08 36999 402 29.713846750062 34.168804585085
OEO0538 OEO0021 2019-09-23 08:36:53 36999 402 29.713846750062 34.168804585085
OEO0538 OEO0021 2019-09-23 08:36:38 36999 402 29.713846750062 34.168804585085
OEO0538 OEO0021 2019-09-23 08:36:23 36999 402 29.713846750062 34.168804585085
OEO0538 OEO0021 2019-09-23 08:36:08 36999 402 29.713846750062 34.168804585085
OEO0538 OEO0021 2019-09-23 08:35:53 36999 402 29.713846750062 34.168804585085
OEO0538 OEO0021 2019-09-23 08:35:38 36999 402 29.713846750062 34.168804585085
OEO0538 OEO0021 2019-09-23 08:35:23 36999 402 29.713846750062 34.168804585085
OEO0538 OEO0021 2019-09-23 08:35:08 36999 402 29.713846750062 34.168804585085
OEO0538 OEO0021 2019-09-23 08:34:53 36999 402 29.713846750062 34.168804585085
OEO0538 OEO0021 2019-09-23 08:34:38 36999 402 29.713846750062 34.168804585085
OEO0538 OEO0021 2019-09-23 08:34:23 36999 402 29.713846750062 34.168804585085
OEO0538 OEO0021 2019-09-23 08:34:08 36999 402 29.713846750062 34.168804585085
OEO0538 OEO0021 2019-09-23 08:33:53 36999 402 29.713846750062 34.168804585085
OEO0538 OEO0021 2019-09-23 08:33:38 36999 402 29.713846750062 34.168804585085
OEO0538 OEO0021 2019-09-23 08:33:23 36999 402 29.713846750062 34.168804585085
OEO0538 OEO0021 2019-09-23 08:33:08 36999 402 29.713846750062 34.168804585085
OEO0538 OEO0021 2019-09-23 08:32:53 36999 402 29.713846750062 34.168804585085
OEO0538 OEO0021 2019-09-23 08:32:38 36999 402 29.713846750062 34.168804585085
OEO0538 OEO0021 2019-09-23 08:32:23 36999 402 29.713846750062 34.168804585085
OEO0538 OEO0021 2019-09-23 08:32:08 36999 402 29.713846750062 34.168804585085
OEO0538 OEO0021 2019-09-23 08:31:53 36999 402 29.713846750062 34.168804585085
OEO0538 OEO0021 2019-09-23 08:31:38 36999 402 29.713846750062 34.168804585085
OEO0538 OEO0021 2019-09-23 08:31:23 36999 402 29.713846750062 34.168804585085
OEO0538 OEO0021 2019-09-23 08:31:08 36999 402 29.713846750062 34.168804585085
OEO0538 OEO0021 2019-09-23 08:30:53 36999 402 29.713846750062 34.168804585085
OEO0538 OEO0021 2019-09-23 08:30:38 36999 402 29.713846750062 34.168804585085
OEO0538 OEO0021 2019-09-23 08:30:23 36999 402 29.713846750062 34.168804585085
OEO0538 OEO0021 2019-09-23 08:30:08 36999 402 29.713846750062 34.168804585085
OEO0538 OEO0021 2019-09-23 08:29:53 36999 402 29.713846750062 34.168804585085
OEO0538 OEO0021 2019-09-23 08:29:38 36999 402 29.713846750062 34.168804585085
OEO0538 OEO0021 2019-09-23 08:29:23 36999 402 29.713846750062 34.168804585085
OEO0538 OEO0021 2019-09-23 08:29:08 36999 402 29.713846750062 34.168804585085
OEO0538 OEO0021 2019-09-23 08:28:53 36999 402 29.713846750062 34.168804585085
OEO0538 OEO0021 2019-09-23 08:28:38 36999 402 29.713846750062 34.168804585085
OEO0538 OEO0021 2019-09-23 08:28:23 36999 402 29.713846750062 34.168804585085
OEO0538 OEO0021 2019-09-23 08:28:08 36999 402 29.713846750062 34.168804585085
OEO0538 OEO0021 2019-09-23 08:27:53 36999 402 29.713846750062 34.168804585085
OEO0538 OEO0021 2019-09-23 08:27:38 36999 402 29.713846750062 34.168804585085
OEO0538 OEO0021 2019-09-23 08:27:23 36999 402 29.713846750062 34.168804585085
OEO0538 OEO0021 2019-09-23 08:27:08 36999 402 29.713846750062 34.168804585085
OEO0538 OEO0021 2019-09-23 08:26:53 36999 402 29.713846750062 34.168804585085
OEO0538 OEO0021 2019-09-23 08:26:38 36999 402 29.713846750062 34.168804585085
OEO0538 OEO0021 2019-09-23 08:26:23 36999 402 29.713846750062 34.168804585085
OEO0538 OEO0021 2019-09-23 08:26:08 36999 402 29.713846750062 34.168804585085
OEO0538 OEO0021 2019-09-23 08:25:53 36999 402 29.713846750062 34.168804585085
OEO0538 OEO0021 2019-09-23 08:25:38 36999 402 29.713846750062 34.168804585085
OEO0538 OEO0021 2019-09-23 08:25:23 36999 402 29.713846750062 34.168804585085
OEO0538 OEO0021 2019-09-23 08:25:08 36999 402 29.713846750062 34.168804585085
OEO0538 OEO0021 2019-09-23 08:24:53 36999 402 29.713846750062 34.168804585085
OEO0538 OEO0021 2019-09-23 08:24:38 36999 402 29.713846750062 34.168804585085
OEO0538 OEO0021 2019-09-23 08:24:23 36999 402 29.713846750062 34.168804585085
OEO0538 OEO0021 2019-09-23 08:24:08 36999 402 29.713846750062 34.168804585085
OEO0538 OEO0021 2019-09-23 08:23:53 36999 402 29.713846750062 34.168804585085
OEO0538 OEO0021 2019-09-23 08:23:38 36999 402 29.713846750062 34.168804585085
OEO0538 OEO0021 2019-09-23 08:23:23 36999 402 29.713846750062 34.168804585085
OEO0538 OEO0021 2019-09-23 08:23:08 36999 402 29.713846750062 34.168804585085
OEO0538 OEO0021 2019-09-23 08:22:53 36999 402 29.713846750062 34.168804585085
OEO0538 OEO0021 2019-09-23 08:22:38 36999 402 29.713846750062 34.168804585085
OEO0538 OEO0021 2019-09-23 08:22:23 36999 402 29.713846750062 34.168804585085
OEO0538 OEO0021 2019-09-23 08:22:08 36999 402 29.713846750062 34.168804585085
OEO0538 OEO0021 2019-09-23 08:21:53 36999 402 29.713846750062 34.168804585085
OEO0538 OEO0021 2019-09-23 08:21:38 36999 402 29.713846750062 34.168804585085
OEO0538 OEO0021 2019-09-23 08:21:23 36999 402 29.713846750062 34.168804585085
OEO0538 OEO0021 2019-09-23 08:21:08 36999 402 29.713846750062 34.168804585085
OEO0538 OEO0021 2019-09-23 08:20:53 36999 402 29.713846750062 34.168804585085
OEO0538 OEO0021 2019-09-23 08:20:38 36999 402 29.713846750062 34.168804585085
OEO0538 OEO0021 2019-09-23 08:20:23 36999 402 29.713846750062 34.168804585085
OEO0538 OEO0021 2019-09-23 08:20:08 36999 402 29.713846750062 34.168804585085
OEO0538 OEO0021 2019-09-23 08:19:53 36999 402 29.713846750062 34.168804585085
OEO0538 OEO0021 2019-09-23 08:19:38 36999 402 29.713846750062 34.168804585085
OEO0538 OEO0021 2019-09-23 08:19:23 36999 402 29.713846750062 34.168804585085
OEO0538 OEO0021 2019-09-23 08:19:08 36999 402 29.713846750062 34.168804585085
OEO0538 OEO0021 2019-09-23 08:18:53 36999 402 29.713846750062 34.168804585085
OEO0538 OEO0021 2019-09-23 08:18:38 36999 402 29.713846750062 34.168804585085
OEO0538 OEO0021 2019-09-23 08:18:23 36999 402 29.713846750062 34.168804585085
OEO0538 OEO0021 2019-09-23 08:18:08 36999 402 29.713846750062 34.168804585085
OEO0538 OEO0021 2019-09-23 08:17:53 36999 402 29.713846750062 34.168804585085
OEO0538 OEO0021 2019-09-23 08:17:38 36999 402 29.713846750062 34.168804585085
OEO0538 OEO0021 2019-09-23 08:17:23 36999 402 29.713846750062 34.168804585085
OEO0538 OEO0021 2019-09-23 08:17:08 36999 402 29.713846750062 34.168804585085
OEO0538 OEO0021 2019-09-23 08:16:53 36999 402 29.713846750062 34.168804585085
OEO0538 OEO0021 2019-09-23 08:16:38 36999 402 29.713846750062 34.168804585085
OEO0538 OEO0021 2019-09-23 08:16:23 36999 402 29.713846750062 34.168804585085
OEO0538 OEO0021 2019-09-23 08:16:08 36999 402 29.713846750062 34.168804585085
OEO0538 OEO0021 2019-09-23 08:15:53 36999 402 29.713846750062 34.168804585085
OEO0538 OEO0021 2019-09-23 08:15:38 36999 402 29.713846750062 34.168804585085
OEO0538 OEO0021 2019-09-23 08:15:23 36999 402 29.713846750062 34.168804585085
OEO0538 OEO0021 2019-09-23 08:15:08 36999 402 29.713846750062 34.168804585085
OEO0538 OEO0021 2019-09-23 08:14:53 36999 402 29.713846750062 34.168804585085
OEO0538 OEO0021 2019-09-23 08:14:38 36999 402 29.713846750062 34.168804585085
OEO0538 OEO0021 2019-09-23 08:14:23 36999 402 29.713846750062 34.168804585085
OEO0538 OEO0021 2019-09-23 08:14:08 36999 402 29.713846750062 34.168804585085
OEO0538 OEO0021 2019-09-23 08:13:53 36999 402 29.713846750062 34.168804585085
OEO0538 OEO0021 2019-09-23 08:13:38 36999 402 29.713846750062 34.168804585085
OEO0538 OEO0021 2019-09-23 08:13:23 36999 402 29.713846750062 34.168804585085
OEO0538 OEO0021 2019-09-23 08:13:08 36999 402 29.713846750062 34.168804585085
OEO0538 OEO0021 2019-09-23 08:12:53 36999 402 29.713846750062 34.168804585085
OEO0538 OEO0021 2019-09-23 08:12:38 36999 402 29.713846750062 34.168804585085
OEO0538 OEO0021 2019-09-23 08:12:23 36999 402 29.713846750062 34.168804585085
OEO0538 OEO0021 2019-09-23 08:12:08 36999 402 29.713846750062 34.168804585085
OEO0538 OEO0021 2019-09-23 08:11:53 36999 402 29.713846750062 34.168804585085
OEO0538 OEO0021 2019-09-23 08:11:38 36999 402 29.713846750062 34.168804585085
OEO0538 OEO0021 2019-09-23 08:11:23 36999 402 29.713846750062 34.168804585085
OEO0538 OEO0021 2019-09-23 08:11:08 36999 402 29.713846750062 34.168804585085
OEO0538 OEO0021 2019-09-23 08:10:53 36999 402 29.713846750062 34.168804585085
OEO0538 OEO0021 2019-09-23 08:10:38 36999 402 29.713846750062 34.168804585085
OEO0538 OEO0021 2019-09-23 08:10:23 36999 402 29.713846750062 34.168804585085
OEO0538 OEO0021 2019-09-23 08:10:08 36999 402 29.713846750062 34.168804585085
OEO0538 OEO0021 2019-09-23 08:09:53 36999 402 29.713846750062 34.168804585085
OEO0538 OEO0021 2019-09-23 08:09:38 36999 402 29.713846750062 34.168804585085
OEO0538 OEO0021 2019-09-23 08:09:23 36999 402 29.713846750062 34.168804585085
OEO0538 OEO0021 2019-09-23 08:09:08 36999 402 29.713846750062 34.168804585085
OEO0538 OEO0021 2019-09-23 08:08:53 36999 402 29.713846750062 34.168804585085
OEO0538 OEO0021 2019-09-23 08:08:38 36999 402 29.713846750062 34.168804585085
OEO0538 OEO0021 2019-09-23 08:08:23 36999 402 29.713846750062 34.168804585085
OEO0538 OEO0021 2019-09-23 08:08:08 36999 402 29.713846750062 34.168804585085
OEO0538 OEO0021 2019-09-23 08:07:53 36999 402 29.713846750062 34.168804585085
OEO0538 OEO0021 2019-09-23 08:07:38 36999 402 29.713846750062 34.168804585085
OEO0538 OEO0021 2019-09-23 08:07:23 36999 402 29.713846750062 34.168804585085
OEO0538 OEO0021 2019-09-23 08:07:08 36999 402 29.713846750062 34.168804585085
OEO0538 OEO0021 2019-09-23 08:06:53 36999 402 29.713846750062 34.168804585085
OEO0538 OEO0021 2019-09-23 08:06:38 36999 402 29.713846750062 34.168804585085
OEO0538 OEO0021 2019-09-23 08:06:23 36999 402 29.713846750062 34.168804585085
OEO0538 OEO0021 2019-09-23 08:06:08 36999 402 29.713846750062 34.168804585085
OEO0538 OEO0021 2019-09-23 08:05:53 36999 402 29.713846750062 34.168804585085
OEO0538 OEO0021 2019-09-23 08:05:38 36999 402 29.713846750062 34.168804585085
OEO0538 OEO0021 2019-09-23 08:05:23 36999 402 29.713846750062 34.168804585085
OEO0538 OEO0021 2019-09-23 08:05:08 36999 402 29.713846750062 34.168804585085
OEO0538 OEO0021 2019-09-23 08:04:53 36999 402 29.713846750062 34.168804585085
OEO0538 OEO0021 2019-09-23 08:04:38 36999 402 29.713846750062 34.168804585085
OEO0538 OEO0021 2019-09-23 08:04:23 36999 402 29.713846750062 34.168804585085
OEO0538 OEO0021 2019-09-23 08:04:08 36999 402 29.713846750062 34.168804585085
OEO0538 OEO0021 2019-09-23 08:03:53 36999 402 29.713846750062 34.168804585085
OEO0538 OEO0021 2019-09-23 08:03:38 36999 402 29.713846750062 34.168804585085
OEO0538 OEO0021 2019-09-23 08:03:23 36999 402 29.713846750062 34.168804585085
OEO0538 OEO0021 2019-09-23 08:03:08 36999 402 29.713846750062 34.168804585085
OEO0538 OEO0021 2019-09-23 08:02:53 36999 402 29.713846750062 34.168804585085
OEO0538 OEO0021 2019-09-23 08:02:38 36999 402 29.713846750062 34.168804585085
OEO0538 OEO0021 2019-09-23 08:02:23 36999 402 29.713846750062 34.168804585085
OEO0538 OEO0021 2019-09-23 08:02:08 36999 402 29.713846750062 34.168804585085
OEO0538 OEO0021 2019-09-23 08:01:53 36999 402 29.713846750062 34.168804585085
OEO0538 OEO0021 2019-09-23 08:01:38 36999 402 29.713846750062 34.168804585085
OEO0538 OEO0021 2019-09-23 08:01:23 36999 402 29.713846750062 34.168804585085
OEO0538 OEO0021 2019-09-23 08:01:08 36999 402 29.713846750062 34.168804585085
OEO0538 OEO0021 2019-09-23 08:00:53 36999 402 29.713846750062 34.168804585085
OEO0538 OEO0021 2019-09-23 08:00:38 36999 402 29.713846750062 34.168804585085
OEO0538 OEO0021 2019-09-23 08:00:23 36999 402 29.713846750062 34.168804585085
OEO0538 OEO0021 2019-09-23 08:00:08 36999 402 29.713846750062 34.168804585085
OEO0538 OEO0021 2019-09-23 07:59:53 36999 402 29.713846750062 34.168804585085
OEO0538 OEO0021 2019-09-23 07:59:38 36999 402 29.713846750062 34.168804585085
OEO0538 OEO0021 2019-09-23 07:59:23 36999 402 29.713846750062 34.168804585085
OEO0538 OEO0021 2019-09-23 07:59:08 36999 402 29.713846750062 34.168804585085
OEO0538 OEO0021 2019-09-23 07:58:53 36999 402 29.713846750062 34.168804585085
OEO0538 OEO0021 2019-09-23 07:58:38 36999 402 29.713846750062 34.168804585085
OEO0538 OEO0021 2019-09-23 07:58:23 36999 402 29.713846750062 34.168804585085
OEO0538 OEO0021 2019-09-23 07:58:08 36999 402 29.713846750062 34.168804585085
OEO0538 OEO0021 2019-09-23 07:57:53 36999 402 29.713846750062 34.168804585085
OEO0538 OEO0021 2019-09-23 07:57:38 36999 402 29.713846750062 34.168804585085
OEO0538 OEO0021 2019-09-23 07:57:23 36999 402 29.713846750062 34.168804585085
OEO0538 OEO0021 2019-09-23 07:57:08 36999 402 29.713846750062 34.168804585085
OEO0538 OEO0021 2019-09-23 07:56:53 36999 402 29.713846750062 34.168804585085
OEO0538 OEO0021 2019-09-23 07:56:38 36999 402 29.713846750062 34.168804585085
OEO0538 OEO0021 2019-09-23 07:56:23 36999 402 29.713846750062 34.168804585085
OEO0538 OEO0021 2019-09-23 07:56:08 36999 402 29.713846750062 34.168804585085
OEO0538 OEO0021 2019-09-23 07:55:53 36999 402 29.713846750062 34.168804585085
OEO0538 OEO0021 2019-09-23 07:55:38 36999 402 29.713846750062 34.168804585085
OEO0538 OEO0021 2019-09-23 07:55:23 36999 402 29.713846750062 34.168804585085
OEO0538 OEO0021 2019-09-23 07:55:08 36999 402 29.713846750062 34.168804585085
OEO0538 OEO0021 2019-09-23 07:54:53 36999 402 29.713846750062 34.168804585085
OEO0538 OEO0021 2019-09-23 07:54:38 36999 402 29.713846750062 34.168804585085
OEO0538 OEO0021 2019-09-23 07:54:23 36999 402 29.713846750062 34.168804585085
OEO0538 OEO0021 2019-09-23 07:54:08 36999 402 29.713846750062 34.168804585085
OEO0538 OEO0021 2019-09-23 07:53:53 36999 402 29.713846750062 34.168804585085
OEO0538 OEO0021 2019-09-23 07:53:38 36999 402 29.713846750062 34.168804585085
OEO0538 OEO0021 2019-09-23 07:53:23 36999 402 29.713846750062 34.168804585085
OEO0538 OEO0021 2019-09-23 07:53:08 36999 402 29.713846750062 34.168804585085
OEO0538 OEO0021 2019-09-23 07:52:53 36999 402 29.713846750062 34.168804585085
OEO0538 OEO0021 2019-09-23 07:52:38 36999 402 29.713846750062 34.168804585085
OEO0538 OEO0021 2019-09-23 07:52:23 36999 402 29.713846750062 34.168804585085
OEO0538 OEO0021 2019-09-23 07:52:08 36999 402 29.713846750062 34.168804585085
OEO0538 OEO0021 2019-09-23 07:51:53 36999 402 29.713846750062 34.168804585085
OEO0538 OEO0021 2019-09-23 07:51:38 36999 402 29.713846750062 34.168804585085
OEO0538 OEO0021 2019-09-23 07:51:23 36999 402 29.713846750062 34.168804585085
OEO0538 OEO0021 2019-09-23 07:51:08 36999 402 29.713846750062 34.168804585085
OEO0538 OEO0021 2019-09-23 07:50:53 36999 402 29.713846750062 34.168804585085
OEO0538 OEO0021 2019-09-23 07:50:38 36999 402 29.713846750062 34.168804585085
OEO0538 OEO0021 2019-09-23 07:50:23 36999 402 29.713846750062 34.168804585085
OEO0538 OEO0021 2019-09-23 07:50:08 36999 402 29.713846750062 34.168804585085
OEO0538 OEO0021 2019-09-23 07:49:53 36999 402 29.713846750062 34.168804585085
OEO0538 OEO0021 2019-09-23 07:49:38 36999 402 29.713846750062 34.168804585085
OEO0538 OEO0021 2019-09-23 07:49:23 36999 402 29.713846750062 34.168804585085
OEO0538 OEO0021 2019-09-23 07:49:08 36999 402 29.713846750062 34.168804585085
OEO0538 OEO0021 2019-09-23 07:48:53 36999 402 29.713846750062 34.168804585085
OEO0538 OEO0021 2019-09-23 07:48:38 36999 402 29.713846750062 34.168804585085
OEO0538 OEO0021 2019-09-23 07:48:23 36999 402 29.713846750062 34.168804585085
OEO0538 OEO0021 2019-09-23 07:48:08 36999 402 29.713846750062 34.168804585085
OEO0538 OEO0021 2019-09-23 07:47:53 36999 402 29.713846750062 34.168804585085
OEO0538 OEO0021 2019-09-23 07:47:38 36999 402 29.713846750062 34.168804585085
OEO0538 OEO0021 2019-09-23 07:47:23 36999 402 29.713846750062 34.168804585085
OEO0538 OEO0021 2019-09-23 07:47:08 36999 402 29.713846750062 34.168804585085
OEO0538 OEO0021 2019-09-23 07:46:53 36999 402 29.713846750062 34.168804585085
OEO0538 OEO0021 2019-09-23 07:46:38 36999 402 29.713846750062 34.168804585085
OEO0538 OEO0021 2019-09-23 07:46:23 36999 402 29.713846750062 34.168804585085
OEO0538 OEO0021 2019-09-23 07:46:08 36999 402 29.713846750062 34.168804585085
OEO0538 OEO0021 2019-09-23 07:45:53 36999 402 29.713846750062 34.168804585085
OEO0538 OEO0021 2019-09-23 07:45:38 36999 402 29.713846750062 34.168804585085
OEO0538 OEO0021 2019-09-23 07:45:23 36999 402 29.713846750062 34.168804585085
OEO0538 OEO0021 2019-09-23 07:45:08 36999 402 29.713846750062 34.168804585085
OEO0538 OEO0021 2019-09-23 07:44:53 36999 402 29.713846750062 34.168804585085
OEO0538 OEO0021 2019-09-23 07:44:38 36999 402 29.713846750062 34.168804585085
OEO0538 OEO0021 2019-09-23 07:44:23 36999 402 29.713846750062 34.168804585085
OEO0538 OEO0021 2019-09-23 07:44:08 36999 402 29.713846750062 34.168804585085
OEO0538 OEO0021 2019-09-23 07:43:53 36999 402 29.713846750062 34.168804585085
OEO0538 OEO0021 2019-09-23 07:43:38 36999 402 29.713846750062 34.168804585085
OEO0538 OEO0021 2019-09-23 07:43:23 36999 402 29.713846750062 34.168804585085
OEO0538 OEO0021 2019-09-23 07:43:08 36999 402 29.713846750062 34.168804585085
OEO0538 OEO0021 2019-09-23 07:42:53 36999 402 29.713846750062 34.168804585085
OEO0538 OEO0021 2019-09-23 07:42:38 36999 402 29.713846750062 34.168804585085
OEO0538 OEO0021 2019-09-23 07:42:23 36999 402 29.713846750062 34.168804585085
OEO0538 OEO0021 2019-09-23 07:42:08 36999 402 29.713846750062 34.168804585085
OEO0538 OEO0021 2019-09-23 07:41:53 36999 402 29.713846750062 34.168804585085
OEO0538 OEO0021 2019-09-23 07:41:38 36999 402 29.713846750062 34.168804585085
OEO0538 OEO0021 2019-09-23 07:41:23 36999 402 29.713846750062 34.168804585085
OEO0538 OEO0021 2019-09-23 07:41:08 36999 402 29.713846750062 34.168804585085
OEO0538 OEO0021 2019-09-23 07:40:53 36999 402 29.713846750062 34.168804585085
OEO0538 OEO0021 2019-09-23 07:40:38 36999 402 29.713846750062 34.168804585085
OEO0538 OEO0021 2019-09-23 07:40:23 36999 402 29.713846750062 34.168804585085
OEO0538 OEO0021 2019-09-23 07:40:08 36999 402 29.713846750062 34.168804585085
OEO0538 OEO0021 2019-09-23 07:39:53 36999 402 29.713846750062 34.168804585085
OEO0538 OEO0021 2019-09-23 07:39:38 36999 402 29.713846750062 34.168804585085
OEO0538 OEO0021 2019-09-23 07:39:23 36999 402 29.713846750062 34.168804585085
OEO0538 OEO0021 2019-09-23 07:39:08 36999 402 29.713846750062 34.168804585085
OEO0538 OEO0021 2019-09-23 07:38:53 36999 402 29.713846750062 34.168804585085
OEO0538 OEO0021 2019-09-23 07:38:38 36999 402 29.713846750062 34.168804585085
OEO0538 OEO0021 2019-09-23 07:38:23 36999 402 29.713846750062 34.168804585085
OEO0538 OEO0021 2019-09-23 07:38:08 36999 402 29.713846750062 34.168804585085
OEO0538 OEO0021 2019-09-23 07:37:53 36999 402 29.713846750062 34.168804585085
OEO0538 OEO0021 2019-09-23 07:37:38 36999 402 29.713846750062 34.168804585085
OEO0538 OEO0021 2019-09-23 07:37:23 36999 402 29.713846750062 34.168804585085
OEO0538 OEO0021 2019-09-23 07:37:08 36999 402 29.713846750062 34.168804585085
OEO0538 OEO0021 2019-09-23 07:36:53 36999 402 29.713846750062 34.168804585085
OEO0538 OEO0021 2019-09-23 07:36:38 36999 402 29.713846750062 34.168804585085
OEO0538 OEO0021 2019-09-23 07:36:23 36999 402 29.713846750062 34.168804585085
OEO0538 OEO0021 2019-09-23 07:36:08 36999 402 29.713846750062 34.168804585085
OEO0538 OEO0021 2019-09-23 07:35:53 36999 402 29.713846750062 34.168804585085
OEO0538 OEO0021 2019-09-23 07:35:38 36999 402 29.713846750062 34.168804585085
OEO0538 OEO0021 2019-09-23 07:35:23 36999 402 29.713846750062 34.168804585085
OEO0538 OEO0021 2019-09-23 07:35:08 36999 402 29.713846750062 34.168804585085
OEO0538 OEO0021 2019-09-23 07:34:53 36999 402 29.713846750062 34.168804585085
OEO0538 OEO0021 2019-09-23 07:34:38 36999 402 29.713846750062 34.168804585085
OEO0538 OEO0021 2019-09-23 07:34:23 36999 402 29.713846750062 34.168804585085
OEO0538 OEO0021 2019-09-23 07:34:08 36999 402 29.713846750062 34.168804585085
OEO0538 OEO0021 2019-09-23 07:33:53 36999 402 29.713846750062 34.168804585085
OEO0538 OEO0021 2019-09-23 07:33:38 36999 402 29.713846750062 34.168804585085
OEO0538 OEO0021 2019-09-23 07:33:23 36999 402 29.713846750062 34.168804585085
OEO0538 OEO0021 2019-09-23 07:33:08 36999 402 29.713846750062 34.168804585085
OEO0538 OEO0021 2019-09-23 07:32:53 36999 402 29.713846750062 34.168804585085
OEO0538 OEO0021 2019-09-23 07:32:38 36999 402 29.713846750062 34.168804585085
OEO0538 OEO0021 2019-09-23 07:32:23 36999 402 29.713846750062 34.168804585085
OEO0538 OEO0021 2019-09-23 07:32:08 36999 402 29.713846750062 34.168804585085
OEO0538 OEO0021 2019-09-23 07:31:53 36999 402 29.713846750062 34.168804585085
OEO0538 OEO0021 2019-09-23 07:31:38 36999 402 29.713846750062 34.168804585085
OEO0538 OEO0021 2019-09-23 07:31:23 36999 402 29.713846750062 34.168804585085
OEO0538 OEO0021 2019-09-23 07:31:08 36999 402 29.713846750062 34.168804585085
OEO0538 OEO0021 2019-09-23 07:30:53 36999 402 29.713846750062 34.168804585085
OEO0538 OEO0021 2019-09-23 07:30:38 36999 402 29.713846750062 34.168804585085
OEO0538 OEO0021 2019-09-23 07:30:23 36999 402 29.713846750062 34.168804585085
OEO0538 OEO0021 2019-09-23 07:30:08 36999 402 29.713846750062 34.168804585085
OEO0538 OEO0021 2019-09-23 07:29:53 36999 402 29.713846750062 34.168804585085
OEO0538 OEO0021 2019-09-23 07:29:38 36999 402 29.713846750062 34.168804585085
OEO0538 OEO0021 2019-09-23 07:29:23 36999 402 29.713846750062 34.168804585085
OEO0538 OEO0021 2019-09-23 07:29:08 36999 402 29.713846750062 34.168804585085
OEO0538 OEO0021 2019-09-23 07:28:53 36999 402 29.713846750062 34.168804585085
OEO0538 OEO0021 2019-09-23 07:28:38 36999 402 29.713846750062 34.168804585085
OEO0538 OEO0021 2019-09-23 07:28:23 36999 402 29.713846750062 34.168804585085
OEO0538 OEO0021 2019-09-23 07:28:08 36999 402 29.713846750062 34.168804585085
OEO0538 OEO0021 2019-09-23 07:27:53 36999 402 29.713846750062 34.168804585085
OEO0538 OEO0021 2019-09-23 07:27:38 36999 402 29.713846750062 34.168804585085
OEO0538 OEO0021 2019-09-23 07:27:23 36999 402 29.713846750062 34.168804585085
OEO0538 OEO0021 2019-09-23 07:27:08 36999 402 29.713846750062 34.168804585085
OEO0538 OEO0021 2019-09-23 07:26:53 36999 402 29.713846750062 34.168804585085
OEO0538 OEO0021 2019-09-23 07:26:38 36999 402 29.713846750062 34.168804585085
OEO0538 OEO0021 2019-09-23 07:26:23 36999 402 29.713846750062 34.168804585085
OEO0538 OEO0021 2019-09-23 07:26:08 36999 402 29.713846750062 34.168804585085
OEO0538 OEO0021 2019-09-23 07:25:53 36999 402 29.713846750062 34.168804585085
OEO0538 OEO0021 2019-09-23 07:25:38 36999 402 29.713846750062 34.168804585085
OEO0538 OEO0021 2019-09-23 07:25:23 36999 402 29.713846750062 34.168804585085
OEO0538 OEO0021 2019-09-23 07:25:08 36999 402 29.713846750062 34.168804585085
OEO0538 OEO0021 2019-09-23 07:24:53 36999 402 29.713846750062 34.168804585085
OEO0538 OEO0021 2019-09-23 07:24:38 36999 402 29.713846750062 34.168804585085
OEO0538 OEO0021 2019-09-23 07:24:23 36999 402 29.713846750062 34.168804585085
OEO0538 OEO0021 2019-09-23 07:24:08 36999 402 29.713846750062 34.168804585085
OEO0538 OEO0021 2019-09-23 07:23:53 36999 402 29.713846750062 34.168804585085
OEO0538 OEO0021 2019-09-23 07:23:38 36999 402 29.713846750062 34.168804585085
OEO0538 OEO0021 2019-09-23 07:23:23 36999 402 29.713846750062 34.168804585085
OEO0538 OEO0021 2019-09-23 07:23:08 36999 402 29.713846750062 34.168804585085
OEO0538 OEO0021 2019-09-23 07:22:53 36999 402 29.713846750062 34.168804585085
OEO0538 OEO0021 2019-09-23 07:22:38 36999 402 29.713846750062 34.168804585085
OEO0538 OEO0021 2019-09-23 07:22:23 36999 402 29.713846750062 34.168804585085
OEO0538 OEO0021 2019-09-23 07:22:08 36999 402 29.713846750062 34.168804585085
OEO0538 OEO0021 2019-09-23 07:21:53 36999 402 29.713846750062 34.168804585085
OEO0538 OEO0021 2019-09-23 07:21:38 36999 402 29.713846750062 34.168804585085
OEO0538 OEO0021 2019-09-23 07:21:23 36999 402 29.713846750062 34.168804585085
OEO0538 OEO0021 2019-09-23 07:21:08 36999 402 29.713846750062 34.168804585085
OEO0538 OEO0021 2019-09-23 07:20:53 36999 402 29.713846750062 34.168804585085
OEO0538 OEO0021 2019-09-23 07:20:38 36999 402 29.713846750062 34.168804585085
OEO0538 OEO0021 2019-09-23 07:20:23 36999 402 29.713846750062 34.168804585085
OEO0538 OEO0021 2019-09-23 07:20:08 36999 402 29.713846750062 34.168804585085
OEO0538 OEO0021 2019-09-23 07:19:53 36999 402 29.713846750062 34.168804585085
OEO0538 OEO0021 2019-09-23 07:19:38 36999 402 29.713846750062 34.168804585085
OEO0538 OEO0021 2019-09-23 07:19:23 36999 402 29.713846750062 34.168804585085
OEO0538 OEO0021 2019-09-23 07:19:08 36999 402 29.713846750062 34.168804585085
OEO0538 OEO0021 2019-09-23 07:18:53 36999 402 29.713846750062 34.168804585085
OEO0538 OEO0021 2019-09-23 07:18:38 36999 402 29.713846750062 34.168804585085
OEO0538 OEO0021 2019-09-23 07:18:23 36999 402 29.713846750062 34.168804585085
OEO0538 OEO0021 2019-09-23 07:18:08 36999 402 29.713846750062 34.168804585085
OEO0538 OEO0021 2019-09-23 07:17:53 36999 402 29.713846750062 34.168804585085
OEO0538 OEO0021 2019-09-23 07:17:38 36999 402 29.713846750062 34.168804585085
OEO0538 OEO0021 2019-09-23 07:17:23 36999 402 29.713846750062 34.168804585085
OEO0538 OEO0021 2019-09-23 07:17:08 36999 402 29.713846750062 34.168804585085
OEO0538 OEO0021 2019-09-23 07:16:53 36999 402 29.713846750062 34.168804585085
OEO0538 OEO0021 2019-09-23 07:16:38 36999 402 29.713846750062 34.168804585085
OEO0538 OEO0021 2019-09-23 07:16:23 36999 402 29.713846750062 34.168804585085
OEO0538 OEO0021 2019-09-23 07:16:08 36999 402 29.713846750062 34.168804585085
OEO0538 OEO0021 2019-09-23 07:15:53 36999 402 29.713846750062 34.168804585085
OEO0538 OEO0021 2019-09-23 07:15:38 36999 402 29.713846750062 34.168804585085
OEO0538 OEO0021 2019-09-23 07:15:23 36999 402 29.713846750062 34.168804585085
OEO0538 OEO0021 2019-09-23 07:15:08 36999 402 29.713846750062 34.168804585085
OEO0538 OEO0021 2019-09-23 07:14:53 36999 402 29.713846750062 34.168804585085
OEO0538 OEO0021 2019-09-23 07:14:38 36999 402 29.713846750062 34.168804585085
OEO0538 OEO0021 2019-09-23 07:14:23 36999 402 29.713846750062 34.168804585085
OEO0538 OEO0021 2019-09-23 07:14:08 36999 402 29.713846750062 34.168804585085
OEO0538 OEO0021 2019-09-23 07:13:53 36999 402 29.713846750062 34.168804585085
OEO0538 OEO0021 2019-09-23 07:13:38 36999 402 29.713846750062 34.168804585085
OEO0538 OEO0021 2019-09-23 07:13:23 36999 402 29.713846750062 34.168804585085
OEO0538 OEO0021 2019-09-23 07:13:08 36999 402 29.713846750062 34.168804585085
OEO0538 OEO0021 2019-09-23 07:12:53 36999 402 29.713846750062 34.168804585085
OEO0538 OEO0021 2019-09-23 07:12:38 36999 402 29.713846750062 34.168804585085
OEO0538 OEO0021 2019-09-23 07:12:23 36999 402 29.713846750062 34.168804585085
OEO0538 OEO0021 2019-09-23 07:12:08 36999 402 29.713846750062 34.168804585085
OEO0538 OEO0021 2019-09-23 07:11:53 36999 402 29.713846750062 34.168804585085
OEO0538 OEO0021 2019-09-23 07:11:38 36999 402 29.713846750062 34.168804585085
OEO0538 OEO0021 2019-09-23 07:11:23 36999 402 29.713846750062 34.168804585085
OEO0538 OEO0021 2019-09-23 07:11:08 36999 402 29.713846750062 34.168804585085
OEO0538 OEO0021 2019-09-23 07:10:53 36999 402 29.713846750062 34.168804585085
OEO0538 OEO0021 2019-09-23 07:10:38 36999 402 29.713846750062 34.168804585085
OEO0538 OEO0021 2019-09-23 07:10:23 36999 402 29.713846750062 34.168804585085
OEO0538 OEO0021 2019-09-23 07:10:08 36999 402 29.713846750062 34.168804585085
OEO0538 OEO0021 2019-09-23 07:09:53 36999 402 29.713846750062 34.168804585085
OEO0538 OEO0021 2019-09-23 07:09:38 36999 402 29.713846750062 34.168804585085
OEO0538 OEO0021 2019-09-23 07:09:23 36999 402 29.713846750062 34.168804585085
OEO0538 OEO0021 2019-09-23 07:09:08 36999 402 29.713846750062 34.168804585085
OEO0538 OEO0021 2019-09-23 07:08:53 36999 402 29.713846750062 34.168804585085
OEO0538 OEO0021 2019-09-23 07:08:38 36999 402 29.713846750062 34.168804585085
OEO0538 OEO0021 2019-09-23 07:08:23 36999 402 29.713846750062 34.168804585085
OEO0538 OEO0021 2019-09-23 07:08:08 36999 402 29.713846750062 34.168804585085
OEO0538 OEO0021 2019-09-23 07:07:53 36999 402 29.713846750062 34.168804585085
OEO0538 OEO0021 2019-09-23 07:07:38 36999 402 29.713846750062 34.168804585085
OEO0538 OEO0021 2019-09-23 07:07:23 36999 402 29.713846750062 34.168804585085
OEO0538 OEO0021 2019-09-23 07:07:08 36999 402 29.713846750062 34.168804585085
OEO0538 OEO0021 2019-09-23 07:06:53 36999 402 29.713846750062 34.168804585085
OEO0538 OEO0021 2019-09-23 07:06:38 36999 402 29.713846750062 34.168804585085
OEO0538 OEO0021 2019-09-23 07:06:23 36999 402 29.713846750062 34.168804585085
OEO0538 OEO0021 2019-09-23 07:06:08 36999 402 29.713846750062 34.168804585085
OEO0538 OEO0021 2019-09-23 07:05:53 36999 402 29.713846750062 34.168804585085
OEO0538 OEO0021 2019-09-23 07:05:38 36999 402 29.713846750062 34.168804585085
OEO0538 OEO0021 2019-09-23 07:05:23 36999 402 29.713846750062 34.168804585085
OEO0538 OEO0021 2019-09-23 07:05:08 36999 402 29.713846750062 34.168804585085
OEO0538 OEO0021 2019-09-23 07:04:53 36999 402 29.713846750062 34.168804585085
OEO0538 OEO0021 2019-09-23 07:04:38 36999 402 29.713846750062 34.168804585085
OEO0538 OEO0021 2019-09-23 07:04:23 36999 402 29.713846750062 34.168804585085
OEO0538 OEO0021 2019-09-23 07:04:08 36999 402 29.713846750062 34.168804585085
OEO0538 OEO0021 2019-09-23 07:03:53 36999 402 29.713846750062 34.168804585085
OEO0538 OEO0021 2019-09-23 07:03:38 36999 402 29.713846750062 34.168804585085
OEO0538 OEO0021 2019-09-23 07:03:23 36999 402 29.713846750062 34.168804585085
OEO0538 OEO0021 2019-09-23 07:03:08 36999 402 29.713846750062 34.168804585085
OEO0538 OEO0021 2019-09-23 07:02:53 36999 402 29.713846750062 34.168804585085
OEO0538 OEO0021 2019-09-23 07:02:38 36999 402 29.713846750062 34.168804585085
OEO0538 OEO0021 2019-09-23 07:02:23 36999 402 29.713846750062 34.168804585085
OEO0538 OEO0021 2019-09-23 07:02:08 36999 402 29.713846750062 34.168804585085
OEO0538 OEO0021 2019-09-23 07:01:53 36999 402 29.713846750062 34.168804585085
OEO0538 OEO0021 2019-09-23 07:01:38 36999 402 29.713846750062 34.168804585085
OEO0538 OEO0021 2019-09-23 07:01:23 36999 402 29.713846750062 34.168804585085
OEO0538 OEO0021 2019-09-23 07:01:08 36999 402 29.713846750062 34.168804585085
OEO0538 OEO0021 2019-09-23 07:00:53 36999 402 29.713846750062 34.168804585085
OEO0538 OEO0021 2019-09-23 07:00:38 36999 402 29.713846750062 34.168804585085
OEO0538 OEO0021 2019-09-23 07:00:23 36999 402 29.713846750062 34.168804585085
OEO0538 OEO0021 2019-09-23 07:00:08 36999 402 29.713846750062 34.168804585085
OEO0538 OEO0021 2019-09-23 06:59:53 36999 402 29.713846750062 34.168804585085
OEO0538 OEO0021 2019-09-23 06:59:38 36999 402 29.713846750062 34.168804585085
OEO0538 OEO0021 2019-09-23 06:59:23 36999 402 29.713846750062 34.168804585085
OEO0538 OEO0021 2019-09-23 06:59:08 36999 402 29.713846750062 34.168804585085
OEO0538 OEO0021 2019-09-23 06:58:53 36999 402 29.713846750062 34.168804585085
OEO0538 OEO0021 2019-09-23 06:58:38 36999 402 29.713846750062 34.168804585085
OEO0538 OEO0021 2019-09-23 06:58:23 36999 402 29.713846750062 34.168804585085
OEO0538 OEO0021 2019-09-23 06:58:08 36999 402 29.713846750062 34.168804585085
OEO0538 OEO0021 2019-09-23 06:57:53 36999 402 29.713846750062 34.168804585085
OEO0538 OEO0021 2019-09-23 06:57:38 36999 402 29.713846750062 34.168804585085
OEO0538 OEO0021 2019-09-23 06:57:23 36999 402 29.713846750062 34.168804585085
OEO0538 OEO0021 2019-09-23 06:57:08 36999 402 29.713846750062 34.168804585085
OEO0538 OEO0021 2019-09-23 06:56:53 36999 402 29.713846750062 34.168804585085
OEO0538 OEO0021 2019-09-23 06:56:38 36999 402 29.713846750062 34.168804585085
OEO0538 OEO0021 2019-09-23 06:56:23 36999 402 29.713846750062 34.168804585085
OEO0538 OEO0021 2019-09-23 06:56:08 36999 402 29.713846750062 34.168804585085
OEO0538 OEO0021 2019-09-23 06:55:53 36999 402 29.713846750062 34.168804585085
OEO0538 OEO0021 2019-09-23 06:55:38 36999 402 29.713846750062 34.168804585085
OEO0538 OEO0021 2019-09-23 06:55:23 36999 402 29.713846750062 34.168804585085
OEO0538 OEO0021 2019-09-23 06:55:08 36999 402 29.713846750062 34.168804585085
OEO0538 OEO0021 2019-09-23 06:54:53 36999 402 29.713846750062 34.168804585085
OEO0538 OEO0021 2019-09-23 06:54:38 36999 402 29.713846750062 34.168804585085
OEO0538 OEO0021 2019-09-23 06:54:23 36999 402 29.713846750062 34.168804585085
OEO0538 OEO0021 2019-09-23 06:54:08 36999 402 29.713846750062 34.168804585085
OEO0538 OEO0021 2019-09-23 06:53:53 36999 402 29.713846750062 34.168804585085
OEO0538 OEO0021 2019-09-23 06:53:38 36999 402 29.713846750062 34.168804585085
OEO0538 OEO0021 2019-09-23 06:53:23 36999 402 29.713846750062 34.168804585085
OEO0538 OEO0021 2019-09-23 06:53:08 36999 402 29.713846750062 34.168804585085
OEO0538 OEO0021 2019-09-23 06:52:53 36999 402 29.713846750062 34.168804585085
OEO0538 OEO0021 2019-09-23 06:52:38 36999 402 29.713846750062 34.168804585085
OEO0538 OEO0021 2019-09-23 06:52:23 36999 402 29.713846750062 34.168804585085
OEO0538 OEO0021 2019-09-23 06:52:08 36999 402 29.713846750062 34.168804585085
OEO0538 OEO0021 2019-09-23 06:51:53 36999 402 29.713846750062 34.168804585085
OEO0538 OEO0021 2019-09-23 06:51:38 36999 402 29.713846750062 34.168804585085
OEO0538 OEO0021 2019-09-23 06:51:23 36999 402 29.713846750062 34.168804585085
OEO0538 OEO0021 2019-09-23 06:51:08 36999 402 29.713846750062 34.168804585085
OEO0538 OEO0021 2019-09-23 06:50:53 36999 402 29.713846750062 34.168804585085
OEO0538 OEO0021 2019-09-23 06:50:38 36999 402 29.713846750062 34.168804585085
OEO0538 OEO0021 2019-09-23 06:50:23 36999 402 29.713846750062 34.168804585085
OEO0538 OEO0021 2019-09-23 06:50:08 36999 402 29.713846750062 34.168804585085
OEO0538 OEO0021 2019-09-23 06:49:53 36999 402 29.713846750062 34.168804585085
OEO0538 OEO0021 2019-09-23 06:49:38 36999 402 29.713846750062 34.168804585085
OEO0538 OEO0021 2019-09-23 06:49:23 36999 402 29.713846750062 34.168804585085
OEO0538 OEO0021 2019-09-23 06:49:08 36999 402 29.713846750062 34.168804585085
OEO0538 OEO0021 2019-09-23 06:48:53 36999 402 29.713846750062 34.168804585085
OEO0538 OEO0021 2019-09-23 06:48:38 36999 402 29.713846750062 34.168804585085
OEO0538 OEO0021 2019-09-23 06:48:23 36999 402 29.713846750062 34.168804585085
OEO0538 OEO0021 2019-09-23 06:48:08 36999 402 29.713846750062 34.168804585085
OEO0538 OEO0021 2019-09-23 06:47:53 36999 402 29.713846750062 34.168804585085
OEO0538 OEO0021 2019-09-23 06:47:38 36999 402 29.713846750062 34.168804585085
OEO0538 OEO0021 2019-09-23 06:47:23 36999 402 29.713846750062 34.168804585085
OEO0538 OEO0021 2019-09-23 06:47:08 36999 402 29.713846750062 34.168804585085
OEO0538 OEO0021 2019-09-23 06:46:53 36999 402 29.713846750062 34.168804585085
OEO0538 OEO0021 2019-09-23 06:46:38 36999 402 29.713846750062 34.168804585085
OEO0538 OEO0021 2019-09-23 06:46:23 36999 402 29.713846750062 34.168804585085
OEO0538 OEO0021 2019-09-23 06:46:08 36999 402 29.713846750062 34.168804585085
OEO0538 OEO0021 2019-09-23 06:45:53 36999 402 29.713846750062 34.168804585085
OEO0538 OEO0021 2019-09-23 06:45:38 36999 402 29.713846750062 34.168804585085
OEO0538 OEO0021 2019-09-23 06:45:23 36999 402 29.713846750062 34.168804585085
OEO0538 OEO0021 2019-09-23 06:45:08 36999 402 29.713846750062 34.168804585085
OEO0538 OEO0021 2019-09-23 06:44:53 36999 402 29.713846750062 34.168804585085
OEO0538 OEO0021 2019-09-23 06:44:38 36999 402 29.713846750062 34.168804585085
OEO0538 OEO0021 2019-09-23 06:44:23 36999 402 29.713846750062 34.168804585085
OEO0538 OEO0021 2019-09-23 06:44:08 36999 402 29.713846750062 34.168804585085
OEO0538 OEO0021 2019-09-23 06:43:53 36999 402 29.713846750062 34.168804585085
OEO0538 OEO0021 2019-09-23 06:43:38 36999 402 29.713846750062 34.168804585085
OEO0538 OEO0021 2019-09-23 06:43:24 36999 402 29.713846750062 34.168804585085
OEO0538 OEO0021 2019-09-23 06:43:08 36999 402 29.713846750062 34.168804585085
OEO0538 OEO0021 2019-09-23 06:42:53 36999 402 29.713846750062 34.168804585085
OEO0538 OEO0021 2019-09-23 06:42:38 36999 402 29.713846750062 34.168804585085
OEO0538 OEO0021 2019-09-23 06:42:23 36999 402 29.713846750062 34.168804585085
OEO0538 OEO0021 2019-09-23 06:42:08 36999 402 29.713846750062 34.168804585085
OEO0538 OEO0021 2019-09-23 06:41:53 36999 402 29.713846750062 34.168804585085
OEO0538 OEO0021 2019-09-23 06:41:38 36999 402 29.713846750062 34.168804585085
OEO0538 OEO0021 2019-09-23 06:41:23 36999 402 29.713846750062 34.168804585085
OEO0538 OEO0021 2019-09-23 06:41:08 36999 402 29.713846750062 34.168804585085
OEO0538 OEO0021 2019-09-23 06:40:53 36999 402 29.713846750062 34.168804585085
OEO0538 OEO0021 2019-09-23 06:40:38 36999 402 29.713846750062 34.168804585085
OEO0538 OEO0021 2019-09-23 06:40:23 36999 402 29.713846750062 34.168804585085
OEO0538 OEO0021 2019-09-23 06:40:08 36999 402 29.713846750062 34.168804585085
OEO0538 OEO0021 2019-09-23 06:39:53 36999 402 29.713846750062 34.168804585085
OEO0538 OEO0021 2019-09-23 06:39:38 36999 402 29.713846750062 34.168804585085
OEO0538 OEO0021 2019-09-23 06:39:23 36999 402 29.713846750062 34.168804585085
OEO0538 OEO0021 2019-09-23 06:39:08 36999 402 29.713846750062 34.168804585085
OEO0538 OEO0021 2019-09-23 06:38:53 36999 402 29.713846750062 34.168804585085
OEO0538 OEO0021 2019-09-23 06:38:38 36999 402 29.713846750062 34.168804585085
OEO0538 OEO0021 2019-09-23 06:38:23 36999 402 29.713846750062 34.168804585085
OEO0538 OEO0021 2019-09-23 06:38:08 36999 402 29.713846750062 34.168804585085
OEO0538 OEO0021 2019-09-23 06:37:53 36999 402 29.713846750062 34.168804585085
OEO0538 OEO0021 2019-09-23 06:37:38 36999 402 29.713846750062 34.168804585085
OEO0538 OEO0021 2019-09-23 06:37:23 36999 402 29.713846750062 34.168804585085
OEO0538 OEO0021 2019-09-23 06:37:08 36999 402 29.713846750062 34.168804585085
OEO0538 OEO0021 2019-09-23 06:36:53 36999 402 29.713846750062 34.168804585085
OEO0538 OEO0021 2019-09-23 06:36:38 36999 402 29.713846750062 34.168804585085
OEO0538 OEO0021 2019-09-23 06:36:23 36999 402 29.713846750062 34.168804585085
OEO0538 OEO0021 2019-09-23 06:36:08 36999 402 29.713846750062 34.168804585085
OEO0538 OEO0021 2019-09-23 06:35:53 36999 402 29.713846750062 34.168804585085
OEO0538 OEO0021 2019-09-23 06:35:38 36999 402 29.713846750062 34.168804585085
OEO0538 OEO0021 2019-09-23 06:35:23 36999 402 29.713846750062 34.168804585085
OEO0538 OEO0021 2019-09-23 06:35:08 36999 402 29.713846750062 34.168804585085
OEO0538 OEO0021 2019-09-23 06:34:53 36999 402 29.713846750062 34.168804585085
OEO0538 OEO0021 2019-09-23 06:34:38 36999 402 29.713846750062 34.168804585085
OEO0538 OEO0021 2019-09-23 06:34:23 36999 402 29.713846750062 34.168804585085
OEO0538 OEO0021 2019-09-23 06:34:08 36999 402 29.713846750062 34.168804585085
OEO0538 OEO0021 2019-09-23 06:33:53 36999 402 29.713846750062 34.168804585085
OEO0538 OEO0021 2019-09-23 06:33:38 36999 402 29.713846750062 34.168804585085
OEO0538 OEO0021 2019-09-23 06:33:23 36999 402 29.713846750062 34.168804585085
OEO0538 OEO0021 2019-09-23 06:33:08 36999 402 29.713846750062 34.168804585085
OEO0538 OEO0021 2019-09-23 06:32:53 36999 402 29.713846750062 34.168804585085
OEO0538 OEO0021 2019-09-23 06:32:38 36999 402 29.713846750062 34.168804585085
OEO0538 OEO0021 2019-09-23 06:32:23 36999 402 29.713846750062 34.168804585085
OEO0538 OEO0021 2019-09-23 06:32:08 36999 402 29.713846750062 34.168804585085
OEO0538 OEO0021 2019-09-23 06:31:53 36999 402 29.713846750062 34.168804585085
OEO0538 OEO0021 2019-09-23 06:31:38 36999 402 29.713846750062 34.168804585085
OEO0538 OEO0021 2019-09-23 06:31:23 36999 402 29.713846750062 34.168804585085
OEO0538 OEO0021 2019-09-23 06:31:08 36999 402 29.713846750062 34.168804585085
OEO0538 OEO0021 2019-09-23 06:30:53 36999 402 29.713846750062 34.168804585085
OEO0538 OEO0021 2019-09-23 06:30:38 36999 402 29.713846750062 34.168804585085
OEO0538 OEO0021 2019-09-23 06:30:23 36999 402 29.713846750062 34.168804585085
OEO0538 OEO0021 2019-09-23 06:30:08 36999 402 29.713846750062 34.168804585085
OEO0538 OEO0021 2019-09-23 06:29:53 36999 402 29.713846750062 34.168804585085
OEO0538 OEO0021 2019-09-23 06:29:38 36999 402 29.713846750062 34.168804585085
OEO0538 OEO0021 2019-09-23 06:29:23 36999 402 29.713846750062 34.168804585085
OEO0538 OEO0021 2019-09-23 06:29:08 36999 402 29.713846750062 34.168804585085
OEO0538 OEO0021 2019-09-23 06:28:53 36999 402 29.713846750062 34.168804585085
OEO0538 OEO0021 2019-09-23 06:28:38 36999 402 29.713846750062 34.168804585085
OEO0538 OEO0021 2019-09-23 06:28:23 36999 402 29.713846750062 34.168804585085
OEO0538 OEO0021 2019-09-23 06:28:08 36999 402 29.713846750062 34.168804585085
OEO0538 OEO0021 2019-09-23 06:27:53 36999 402 29.713846750062 34.168804585085
OEO0538 OEO0021 2019-09-23 06:27:38 36999 402 29.713846750062 34.168804585085
OEO0538 OEO0021 2019-09-23 06:27:23 36999 402 29.713846750062 34.168804585085
OEO0538 OEO0021 2019-09-23 06:27:08 36999 402 29.713846750062 34.168804585085
OEO0538 OEO0021 2019-09-23 06:26:53 36999 402 29.713846750062 34.168804585085
OEO0538 OEO0021 2019-09-23 06:26:38 36999 402 29.713846750062 34.168804585085
OEO0538 OEO0021 2019-09-23 06:26:23 36999 402 29.713846750062 34.168804585085
OEO0538 OEO0021 2019-09-23 06:26:08 36999 402 29.713846750062 34.168804585085
OEO0538 OEO0021 2019-09-23 06:25:53 36999 402 29.713846750062 34.168804585085
OEO0538 OEO0021 2019-09-23 06:25:38 36999 402 29.713846750062 34.168804585085
OEO0538 OEO0021 2019-09-23 06:25:23 36999 402 29.713846750062 34.168804585085
OEO0538 OEO0021 2019-09-23 06:25:08 36999 402 29.713846750062 34.168804585085
OEO0538 OEO0021 2019-09-23 06:24:53 36999 402 29.713846750062 34.168804585085
OEO0538 OEO0021 2019-09-23 06:24:38 36999 402 29.713846750062 34.168804585085
OEO0538 OEO0021 2019-09-23 06:24:23 36999 402 29.713846750062 34.168804585085
OEO0538 OEO0021 2019-09-23 06:24:08 36999 402 29.713846750062 34.168804585085
OEO0538 OEO0021 2019-09-23 06:23:53 36999 402 29.713846750062 34.168804585085
OEO0538 OEO0021 2019-09-23 06:23:38 36999 402 29.713846750062 34.168804585085
OEO0538 OEO0021 2019-09-23 06:23:23 36999 402 29.713846750062 34.168804585085
OEO0538 OEO0021 2019-09-23 06:23:08 36999 402 29.713846750062 34.168804585085
OEO0538 OEO0021 2019-09-23 06:22:53 36999 402 29.713846750062 34.168804585085
OEO0538 OEO0021 2019-09-23 06:22:38 36999 402 29.713846750062 34.168804585085
OEO0538 OEO0021 2019-09-23 06:22:23 36999 402 29.713846750062 34.168804585085
OEO0538 OEO0021 2019-09-23 06:22:08 36999 402 29.713846750062 34.168804585085
OEO0538 OEO0021 2019-09-23 06:21:53 36999 402 29.713846750062 34.168804585085
OEO0538 OEO0021 2019-09-23 06:21:38 36999 402 29.713846750062 34.168804585085
OEO0538 OEO0021 2019-09-23 06:21:23 36999 402 29.713846750062 34.168804585085
OEO0538 OEO0021 2019-09-23 06:21:08 36999 402 29.713846750062 34.168804585085
OEO0538 OEO0021 2019-09-23 06:20:53 36999 402 29.713846750062 34.168804585085
OEO0538 OEO0021 2019-09-23 06:20:38 36999 402 29.713846750062 34.168804585085
OEO0538 OEO0021 2019-09-23 06:20:23 36999 402 29.713846750062 34.168804585085
OEO0538 OEO0021 2019-09-23 06:20:08 36999 402 29.713846750062 34.168804585085
OEO0538 OEO0021 2019-09-23 06:19:53 36999 402 29.713846750062 34.168804585085
OEO0538 OEO0021 2019-09-23 06:19:38 36999 402 29.713846750062 34.168804585085
OEO0538 OEO0021 2019-09-23 06:19:23 36999 402 29.713846750062 34.168804585085
OEO0538 OEO0021 2019-09-23 06:19:08 36999 402 29.713846750062 34.168804585085
OEO0538 OEO0021 2019-09-23 06:18:53 36999 402 29.713846750062 34.168804585085
OEO0538 OEO0021 2019-09-23 06:18:38 36999 402 29.713846750062 34.168804585085
OEO0538 OEO0021 2019-09-23 06:18:23 36999 402 29.713846750062 34.168804585085
OEO0538 OEO0021 2019-09-23 06:18:08 36999 402 29.713846750062 34.168804585085
OEO0538 OEO0021 2019-09-23 06:17:53 36999 402 29.713846750062 34.168804585085
OEO0538 OEO0021 2019-09-23 06:17:38 36999 402 29.713846750062 34.168804585085
OEO0538 OEO0021 2019-09-23 06:17:23 36999 402 29.713846750062 34.168804585085
OEO0538 OEO0021 2019-09-23 06:17:08 36999 402 29.713846750062 34.168804585085
OEO0538 OEO0021 2019-09-23 06:16:53 36999 402 29.713846750062 34.168804585085
OEO0538 OEO0021 2019-09-23 06:16:38 36999 402 29.713846750062 34.168804585085
OEO0538 OEO0021 2019-09-23 06:16:23 36999 402 29.713846750062 34.168804585085
OEO0538 OEO0021 2019-09-23 06:16:08 36999 402 29.713846750062 34.168804585085
OEO0538 OEO0021 2019-09-23 06:15:53 36999 402 29.713846750062 34.168804585085
OEO0538 OEO0021 2019-09-23 06:15:38 36999 402 29.713846750062 34.168804585085
OEO0538 OEO0021 2019-09-23 06:15:23 36999 402 29.713846750062 34.168804585085
OEO0538 OEO0021 2019-09-23 06:15:08 36999 402 29.726584241854 34.161048455321
OEO0538 OEO0021 2019-09-23 06:14:53 36999 402 29.751312560884 34.145984205108
OEO0538 OEO0021 2019-09-23 06:14:38 36999 402 29.776022187689 34.130923034887
OEO0538 OEO0021 2019-09-23 06:14:23 36999 402 29.800681943229 34.115883522034
OEO0538 OEO0021 2019-09-23 06:14:08 36999 402 29.825408389985 34.100794900296
OEO0538 OEO0021 2019-09-23 06:13:53 36999 402 29.850133539114 34.085698521489
OEO0538 OEO0021 2019-09-23 06:13:38 36999 402 29.874851051951 34.070598174715
OEO0538 OEO0021 2019-09-23 06:13:23 36999 402 29.899558393452 34.055495315768
OEO0538 OEO0021 2019-09-23 06:13:08 36999 402 29.924276072727 34.0403776242
OEO0538 OEO0021 2019-09-23 06:12:53 36999 402 29.948960587762 34.025271661494
OEO0538 OEO0021 2019-09-23 06:12:38 36999 402 29.973805864192 34.010058534164
OEO0538 OEO0021 2019-09-23 06:12:23 36999 402 29.998472741347 33.994945983073
OEO0538 OEO0021 2019-09-23 06:12:08 36999 402 30.02313177965 33.979829577992
OEO0538 OEO0021 2019-09-23 06:11:53 36999 402 30.047847785082 33.964669572477
OEO0538 OEO0021 2019-09-23 06:11:38 36999 402 30.07255751437 33.949504719935
OEO0538 OEO0021 2019-09-23 06:11:23 36999 402 30.097257417706 33.934336985648
OEO0538 OEO0021 2019-09-23 06:11:08 36999 402 30.121953839724 33.919162887189
OEO0538 OEO0021 2019-09-23 06:10:53 36999 402 30.146678567949 33.903962497195
OEO0538 OEO0021 2019-09-23 06:10:38 36999 402 30.1713607456 33.888779505941
OEO0538 OEO0021 2019-09-23 06:10:23 36999 402 30.196184729933 33.873500434134
OEO0538 OEO0021 2019-09-23 06:10:08 36999 402 30.220891425762 33.858284800667
OEO0538 OEO0021 2019-09-23 06:09:53 36999 402 30.245582826391 33.84306971691
OEO0538 OEO0021 2019-09-23 06:09:38 36999 402 30.270273755029 33.827846064779
OEO0538 OEO0021 2019-09-23 06:09:23 36999 402 30.29496482398 33.812613383287
OEO0538 OEO0021 2019-09-23 06:09:08 36999 402 30.319621620976 33.797393008656
OEO0538 OEO0021 2019-09-23 06:08:53 36999 402 30.344310309715 33.782144216438
OEO0538 OEO0021 2019-09-23 06:08:38 36999 402 30.368899324488 33.766947938806
OEO0538 OEO0021 2019-09-23 06:08:23 36999 402 30.393576032223 33.751688684413
OEO0538 OEO0021 2019-09-23 06:08:08 36999 402 30.418374432618 33.736345168992
OEO0538 OEO0021 2019-09-23 06:07:53 36999 402 30.44302466423 33.721084155674
OEO0538 OEO0021 2019-09-23 06:07:38 36999 402 30.46764236531 33.705834464387
OEO0538 OEO0021 2019-09-23 06:07:23 36999 402 30.492398673416 33.690489936169
OEO0538 OEO0021 2019-09-23 06:07:08 36999 402 30.517063660467 33.675192886337
OEO0538 OEO0021 2019-09-23 06:06:53 36999 402 30.541787026173 33.659850603589
OEO0538 OEO0021 2019-09-23 06:06:38 36999 402 30.5662823082 33.644640830436
OEO0538 OEO0021 2019-09-23 06:06:23 36999 402 30.591102368912 33.629220244547
OEO0538 OEO0021 2019-09-23 06:06:08 36999 402 30.615660230377 33.613953443444
OEO0538 OEO0021 2019-09-23 06:05:53 36999 402 30.64032729689 33.598609646481
OEO0538 OEO0021 2019-09-23 06:05:38 36999 402 30.66512635511 33.583174494521
OEO0538 OEO0021 2019-09-23 06:05:23 36999 402 30.68974322021 33.567843567873
OEO0538 OEO0021 2019-09-23 06:05:08 36999 402 30.714408468928 33.552473222584
OEO0538 OEO0021 2019-09-23 06:04:53 36999 402 30.738932817933 33.537181599969
OEO0538 OEO0021 2019-09-23 06:04:38 36999 402 30.763720453444 33.521716294141
OEO0538 OEO0021 2019-09-23 06:04:23 36999 402 30.788363088889 33.506332207909
OEO0538 OEO0021 2019-09-23 06:04:08 36999 402 30.813019280441 33.490930225862
OEO0538 OEO0021 2019-09-23 06:03:53 36999 402 30.837657598629 33.475529991065
OEO0538 OEO0021 2019-09-23 06:03:38 36999 402 30.862309968665 33.46011148517
OEO0538 OEO0021 2019-09-23 06:03:23 36999 402 30.886960158363 33.444684740207
OEO0538 OEO0021 2019-09-23 06:03:08 36999 402 30.911553519685 33.429283930469
OEO0538 OEO0021 2019-09-23 06:02:53 36999 402 30.936216195078 33.413830174745
OEO0538 OEO0021 2019-09-23 06:02:38 36999 402 30.960876695603 33.398367859705
OEO0538 OEO0021 2019-09-23 06:02:23 36999 402 30.985524441993 33.382903866784
OEO0538 OEO0021 2019-09-23 06:02:08 36999 402 31.010073007234 33.367492272463
OEO0538 OEO0021 2019-09-23 06:01:53 36999 402 31.034831583582 33.351938731951
OEO0538 OEO0021 2019-09-23 06:01:38 36999 402 31.05938062383 33.33650698716
OEO0538 OEO0021 2019-09-23 06:01:23 36999 402 31.084099902977 33.32095837352
OEO0538 OEO0021 2019-09-23 06:01:08 36999 402 31.108639395912 33.305512858027
OEO0538 OEO0021 2019-09-23 06:00:53 36999 402 31.133252728695 33.29001087412
OEO0538 OEO0021 2019-09-23 06:00:38 36999 402 31.157870350311 33.274495413364
OEO0538 OEO0021 2019-09-23 06:00:23 36999 402 31.182548435349 33.258929859716
OEO0538 OEO0021 2019-09-23 06:00:08 36999 402 31.207123797828 33.243415462467
OEO0538 OEO0021 2019-09-23 05:59:53 36999 402 31.231728190902 33.227866204764
OEO0538 OEO0021 2019-09-23 05:59:38 36999 402 31.256325779577 33.212301125281
OEO0538 OEO0021 2019-09-23 05:59:23 36999 402 31.280930805429 33.19671235796
OEO0538 OEO0021 2019-09-23 05:59:08 37000 402 31.305505257055 33.181165121174
OEO0538 OEO0021 2019-09-23 05:58:53 37000 402 31.330294081356 33.165773562943
OEO0538 OEO0021 2019-09-23 05:58:38 36998 402 31.35573379353 33.152579351197
OEO0538 OEO0021 2019-09-23 05:58:23 36997 402 31.382766583059 33.144178531386
OEO0538 OEO0021 2019-09-23 05:58:08 36998 402 31.410640313768 33.140623866378
OEO0538 OEO0021 2019-09-23 05:57:53 36999 402 31.438613694248 33.139209637825
OEO0538 OEO0021 2019-09-23 05:57:38 36999 402 31.466626966019 33.13780823885
OEO0538 OEO0021 2019-09-23 05:57:23 36999 402 31.494479826283 33.136414005412
OEO0538 OEO0021 2019-09-23 05:57:08 36999 402 31.522396048191 33.135015666518
OEO0538 OEO0021 2019-09-23 05:56:53 36999 402 31.550537468782 33.133605065171
OEO0538 OEO0021 2019-09-23 05:56:38 36999 402 31.578454174039 33.132204775265
OEO0538 OEO0021 2019-09-23 05:56:23 36999 402 31.606324423433 33.130805819827
OEO0538 OEO0021 2019-09-23 05:56:08 36999 402 31.63429464292 33.129400754595
OEO0538 OEO0021 2019-09-23 05:55:53 36999 402 31.662247411903 33.127995437802
OEO0538 OEO0021 2019-09-23 05:55:38 36999 402 31.690197339674 33.126589002879
OEO0538 OEO0021 2019-09-23 05:55:23 36999 402 31.718279138278 33.12517462934
OEO0538 OEO0021 2019-09-23 05:55:08 36999 402 31.746223599199 33.123765667776
OEO0538 OEO0021 2019-09-23 05:54:53 36999 402 31.774080083936 33.122359547245
OEO0538 OEO0021 2019-09-23 05:54:38 36999 402 31.80220087433 33.120938152194
OEO0538 OEO0021 2019-09-23 05:54:23 36999 402 31.830119407695 33.11952476494
OEO0538 OEO0021 2019-09-23 05:54:08 36999 402 31.85801075033 33.118110155577
OEO0538 OEO0021 2019-09-23 05:53:53 36999 402 31.886037903385 33.11668554699
OEO0538 OEO0021 2019-09-23 05:53:38 36999 402 31.914009679958 33.115259941573
OEO0538 OEO0021 2019-09-23 05:53:23 36999 402 31.941961100317 33.113830694738
OEO0538 OEO0021 2019-09-23 05:53:08 36999 402 31.96992069551 33.11239522523
OEO0538 OEO0021 2019-09-23 05:52:53 36999 402 31.99781134885 33.110956101358
OEO0538 OEO0021 2019-09-23 05:52:38 36999 402 32.025833750378 33.109501186076
OEO0538 OEO0021 2019-09-23 05:52:23 36999 402 32.053799470772 33.108038868766
OEO0538 OEO0021 2019-09-23 05:52:08 36999 402 32.081643286696 33.106577373041
OEO0538 OEO0021 2019-09-23 05:51:53 37001 402 32.109618503132 33.105142744359
OEO0538 OEO0021 2019-09-23 05:51:38 37007 402 32.137631215842 33.104024032306
OEO0538 OEO0021 2019-09-23 05:51:23 36998 402 32.165356545466 33.107238776705
OEO0538 OEO0021 2019-09-23 05:51:08 36998 402 32.190950997804 33.120698278125
OEO0538 OEO0021 2019-09-23 05:50:53 36996 402 32.211263322543 33.142913760367
OEO0538 OEO0021 2019-09-23 05:50:38 36992 402 32.224596106738 33.171737836591
OEO0538 OEO0021 2019-09-23 05:50:23 36999 402 32.230523168573 33.2039859355
OEO0538 OEO0021 2019-09-23 05:50:08 36999 402 32.234627120143 33.236599606883
OEO0538 OEO0021 2019-09-23 05:49:53 36999 402 32.238751436575 33.269445907359
OEO0538 OEO0021 2019-09-23 05:49:38 36999 402 32.242838718687 33.302067819415
OEO0538 OEO0021 2019-09-23 05:49:23 36999 402 32.246938585505 33.33486121139
OEO0538 OEO0021 2019-09-23 05:49:08 36999 402 32.251007716952 33.367479836922
OEO0538 OEO0021 2019-09-23 05:48:53 36999 402 32.255062603447 33.400055715965
OEO0538 OEO0021 2019-09-23 05:48:38 36999 402 32.259144220832 33.432918710619
OEO0538 OEO0021 2019-09-23 05:48:23 36999 402 32.263186151011 33.465534687643
OEO0538 OEO0021 2019-09-23 05:48:08 36999 402 32.267224520987 33.498195413168
OEO0538 OEO0021 2019-09-23 05:47:53 36999 402 32.271257783049 33.530888858931
OEO0538 OEO0021 2019-09-23 05:47:38 36999 402 32.275275983648 33.563535421226
OEO0538 OEO0021 2019-09-23 05:47:23 36999 402 32.279305803148 33.596353596692
OEO0538 OEO0021 2019-09-23 05:47:08 36999 402 32.28331076086 33.629047839831
OEO0538 OEO0021 2019-09-23 05:46:53 36999 402 32.287302125887 33.661711455044
OEO0538 OEO0021 2019-09-23 05:46:38 36999 402 32.291293354645 33.694457490622
OEO0538 OEO0021 2019-09-23 05:46:23 36999 402 32.295267428648 33.727149553211
OEO0538 OEO0021 2019-09-23 05:46:08 36999 402 32.299230042571 33.759838385654
OEO0538 OEO0021 2019-09-23 05:45:53 36999 402 32.303201422054 33.792696857672
OEO0538 OEO0021 2019-09-23 05:45:38 36999 402 32.307145579755 33.825433838321
OEO0538 OEO0021 2019-09-23 05:45:23 36999 402 32.311060517286 33.858034976489
OEO0538 OEO0021 2019-09-23 05:45:08 36999 402 32.314991049728 33.890851452042
OEO0538 OEO0021 2019-09-23 05:44:53 37000 402 32.318928308387 33.923629304862
OEO0538 OEO0021 2019-09-23 05:44:38 37006 402 32.32298316172 33.956272372159
OEO0538 OEO0021 2019-09-23 05:44:23 36998 402 32.328787000836 33.988516574262
OEO0538 OEO0021 2019-09-23 05:44:08 36998 402 32.342034572662 34.017455723698
OEO0538 OEO0021 2019-09-23 05:43:53 36997 402 32.362518975315 34.039750274878
OEO0538 OEO0021 2019-09-23 05:43:38 36993 402 32.388089842919 34.053050467313
OEO0538 OEO0021 2019-09-23 05:43:23 36999 402 32.415825714304 34.056757010032
OEO0538 OEO0021 2019-09-23 05:43:08 36999 402 32.443722094751 34.057278277457
OEO0538 OEO0021 2019-09-23 05:42:53 36999 402 32.471793996812 34.057802935192
OEO0538 OEO0021 2019-09-23 05:42:38 36999 402 32.499776471612 34.058326007112
OEO0538 OEO0021 2019-09-23 05:42:23 36999 402 32.527653617542 34.058847683892
OEO0538 OEO0021 2019-09-23 05:42:08 36999 402 32.555626739393 34.059371478013
OEO0538 OEO0021 2019-09-23 05:41:53 36999 402 32.583599837198 34.059895640663
OEO0538 OEO0021 2019-09-23 05:41:38 36999 402 32.611682800497 34.060422135301
OEO0538 OEO0021 2019-09-23 05:41:23 36999 402 32.639748981246 34.060948497428
OEO0538 OEO0021 2019-09-23 05:41:08 36999 402 32.667587469541 34.061470958381
OEO0538 OEO0021 2019-09-23 05:40:53 36999 402 32.695696870284 34.061999073844
OEO0538 OEO0021 2019-09-23 05:40:38 36999 402 32.723660456948 34.062524589573
OEO0538 OEO0021 2019-09-23 05:40:23 36999 402 32.75161964245 34.0630504578
OEO0538 OEO0021 2019-09-23 05:40:08 36999 402 32.779573036971 34.063576347613
OEO0538 OEO0021 2019-09-23 05:39:53 36999 402 32.80763697431 34.064104777121
OEO0538 OEO0021 2019-09-23 05:39:38 36999 402 32.835515295299 34.064630149854
OEO0538 OEO0021 2019-09-23 05:39:23 36999 402 32.8635012193 34.06515785395
OEO0538 OEO0021 2019-09-23 05:39:08 36999 402 32.89156513769 34.065687203603
OEO0538 OEO0021 2019-09-23 05:38:53 36999 402 32.919526754522 34.06621482854
OEO0538 OEO0021 2019-09-23 05:38:38 36999 402 32.947400130091 34.06674156151
OEO0538 OEO0021 2019-09-23 05:38:23 36999 402 32.975371564779 34.067270287432
OEO0538 OEO0021 2019-09-23 05:38:08 36999 402 33.003420187246 34.067800789475
OEO0538 OEO0021 2019-09-23 05:37:53 36999 402 33.031508509774 34.068332396334
OEO0538 OEO0021 2019-09-23 05:37:38 36999 402 33.059303872461 34.068858637029
OEO0538 OEO0021 2019-09-23 05:37:23 36999 402 33.087456067153 34.069392182958
OEO0538 OEO0021 2019-09-23 05:37:08 36999 402 33.115308091949 34.069920478185
OEO0538 OEO0021 2019-09-23 05:36:53 36999 402 33.143293120288 34.070451493503
OEO0538 OEO0021 2019-09-23 05:36:38 36999 402 33.171386555653 34.070985075565
OEO0538 OEO0021 2019-09-23 05:36:23 36999 402 33.199359463653 34.071516629554
OEO0538 OEO0021 2019-09-23 05:36:08 36999 402 33.227298334097 34.072048053214
OEO0538 OEO0021 2019-09-23 05:35:53 36999 402 33.255264926131 34.072580421849
OEO0538 OEO0021 2019-09-23 05:35:38 36999 402 33.283356991227 34.073115626152
OEO0538 OEO0021 2019-09-23 05:35:23 36999 402 33.311337308199 34.073649215132
OEO0538 OEO0021 2019-09-23 05:35:08 36999 402 33.339311621033 34.074183260764
OEO0538 OEO0021 2019-09-23 05:34:53 36999 402 33.367307484312 34.074718493366
OEO0538 OEO0021 2019-09-23 05:34:38 36999 402 33.39528907183 34.075254014719
OEO0538 OEO0021 2019-09-23 05:34:23 36999 402 33.423117654553 34.075787588434
OEO0538 OEO0021 2019-09-23 05:34:08 36999 402 33.451103936649 34.076325429232
OEO0538 OEO0021 2019-09-23 05:33:53 36999 402 33.479088345223 34.076864666897
OEO0538 OEO0021 2019-09-23 05:33:38 36999 402 33.507073814645 34.077405773584
OEO0538 OEO0021 2019-09-23 05:33:23 36999 402 33.535103430016 34.077950206598
OEO0538 OEO0021 2019-09-23 05:33:08 36999 402 33.563087507308 34.078496897064
OEO0538 OEO0021 2019-09-23 05:32:53 36999 402 33.591070119687 34.079047756468
OEO0538 OEO0021 2019-09-23 05:32:38 36999 402 33.61909939295 34.079605186916
OEO0538 OEO0021 2019-09-23 05:32:23 36999 402 33.647089609236 34.080169358027
OEO0538 OEO0021 2019-09-23 05:32:08 36999 402 33.675067772145 34.080743238635
OEO0538 OEO0021 2019-09-23 05:31:53 36999 402 33.70305610252 34.081329291966
OEO0538 OEO0021 2019-09-23 05:31:38 36999 402 33.730945932029 34.081920495768
OEO0538 OEO0021 2019-09-23 05:31:23 37000 402 33.758923239437 34.082469603779
OEO0538 OEO0021 2019-09-23 05:31:08 36998 402 33.787169715897 34.082497716189
OEO0538 OEO0021 2019-09-23 05:30:53 36998 402 33.814735114713 34.079413631548
OEO0538 OEO0021 2019-09-23 05:30:38 36998 402 33.842222557634 34.072192894708
OEO0538 OEO0021 2019-09-23 05:30:23 36999 402 33.868680272456 34.061800822595
OEO0538 OEO0021 2019-09-23 05:30:08 36999 402 33.895100500573 34.050736740592
OEO0538 OEO0021 2019-09-23 05:29:53 36999 402 33.921535439297 34.039659419479
OEO0538 OEO0021 2019-09-23 05:29:38 36999 402 33.947969998142 34.028574927504
OEO0538 OEO0021 2019-09-23 05:29:23 36999 402 33.974532026086 34.017429791518
OEO0538 OEO0021 2019-09-23 05:29:08 36999 402 34.000962341994 34.00633254206
OEO0538 OEO0021 2019-09-23 05:28:53 36999 402 34.027221682761 33.995299824253
OEO0538 OEO0021 2019-09-23 05:28:38 36999 402 34.05367273751 33.984179262464
OEO0538 OEO0021 2019-09-23 05:28:23 36999 402 34.080086505058 33.973067250881
OEO0538 OEO0021 2019-09-23 05:28:08 36999 402 34.106522182501 33.961938876875
OEO0538 OEO0021 2019-09-23 05:27:53 36999 402 34.133074673561 33.950754248691
OEO0538 OEO0021 2019-09-23 05:27:38 36999 402 34.15947831938 33.939625418337
OEO0538 OEO0021 2019-09-23 05:27:23 36999 402 34.185772248793 33.928536142195
OEO0538 OEO0021 2019-09-23 05:27:08 36999 402 34.21219522334 33.917385987665
OEO0538 OEO0021 2019-09-23 05:26:53 36999 402 34.238617673199 33.906229955073
OEO0538 OEO0021 2019-09-23 05:26:38 36999 402 34.265011632229 33.895080242405
OEO0538 OEO0021 2019-09-23 05:26:23 36999 402 34.291514208627 33.883879776672
OEO0538 OEO0021 2019-09-23 05:26:08 36999 402 34.317958934121 33.872699993917
OEO0538 OEO0021 2019-09-23 05:25:53 36999 402 34.344283601161 33.861568554266
OEO0538 OEO0021 2019-09-23 05:25:38 36999 402 34.370703508641 33.85039627866
OEO0538 OEO0021 2019-09-23 05:25:23 36999 402 34.3971176891 33.839228169654
OEO0538 OEO0021 2019-09-23 05:25:08 36999 402 34.423558585312 33.828051470611
OEO0538 OEO0021 2019-09-23 05:24:53 36999 402 34.450059124792 33.816839292131
OEO0538 OEO0021 2019-09-23 05:24:38 36998 402 34.476465616261 33.805552152965
OEO0538 OEO0021 2019-09-23 05:24:23 36999 402 34.502743315908 33.793905187114
OEO0538 OEO0021 2019-09-23 05:24:08 36999 402 34.529001476226 33.782179579703
OEO0538 OEO0021 2019-09-23 05:23:53 36999 402 34.555259669198 33.770451909208
OEO0538 OEO0021 2019-09-23 05:23:38 36999 402 34.581408816765 33.758769475005
OEO0538 OEO0021 2019-09-23 05:23:23 36999 402 34.60766376256 33.747015634986
OEO0538 OEO0021 2019-09-23 05:23:08 36999 402 34.633891679636 33.735123380801
OEO0538 OEO0021 2019-09-23 05:22:53 36999 402 34.660150024946 33.723076912514
OEO0538 OEO0021 2019-09-23 05:22:38 36999 402 34.686337144415 33.711046868857
OEO0538 OEO0021 2019-09-23 05:22:23 36999 402 34.712510249876 33.699003958749
OEO0538 OEO0021 2019-09-23 05:22:08 36999 402 34.738589583113 33.686980851275
OEO0538 OEO0021 2019-09-23 05:21:53 36999 402 34.764824671616 33.674857075099
OEO0538 OEO0021 2019-09-23 05:21:38 36999 402 34.790986535671 33.662733471217
OEO0538 OEO0021 2019-09-23 05:21:23 36999 402 34.817129446681 33.650594260241
OEO0538 OEO0021 2019-09-23 05:21:08 36999 402 34.843299255973 33.638527259731
OEO0538 OEO0021 2019-09-23 05:20:53 36997 402 34.869747279726 33.627223423208
OEO0538 OEO0021 2019-09-23 05:20:38 36999 402 34.896595324978 33.618321086921
OEO0538 OEO0021 2019-09-23 05:20:23 36999 402 34.92365971615 33.609661874983
OEO0538 OEO0021 2019-09-23 05:20:08 36999 402 34.95088140032 33.600946375426
OEO0538 OEO0021 2019-09-23 05:19:53 36999 402 34.977902412668 33.592289155673
OEO0538 OEO0021 2019-09-23 05:19:38 36999 402 35.004838311145 33.583653312381
OEO0538 OEO0021 2019-09-23 05:19:23 36999 402 35.032105435634 33.574905239228
OEO0538 OEO0021 2019-09-23 05:19:08 36999 402 35.059024485614 33.566262920803
OEO0538 OEO0021 2019-09-23 05:18:53 36999 402 35.086060278024 33.55757721748
OEO0538 OEO0021 2019-09-23 05:18:38 36999 402 35.113123387821 33.548876734219
OEO0538 OEO0021 2019-09-23 05:18:23 36999 402 35.140284796472 33.540138605686
OEO0538 OEO0021 2019-09-23 05:18:08 36999 402 35.167325621285 33.531433163938
OEO0538 OEO0021 2019-09-23 05:17:53 36999 402 35.194405785267 33.522709101583
OEO0538 OEO0021 2019-09-23 05:17:38 36999 402 35.221400962192 33.51400638536
OEO0538 OEO0021 2019-09-23 05:17:23 36999 402 35.248529809359 33.505254532113
OEO0538 OEO0021 2019-09-23 05:17:08 36999 402 35.275589469009 33.496518930327
OEO0538 OEO0021 2019-09-23 05:16:53 36999 402 35.302546858632 33.487810253655
OEO0538 OEO0021 2019-09-23 05:16:38 36999 402 35.329667757874 33.479042691935
OEO0538 OEO0021 2019-09-23 05:16:23 36999 402 35.35664078691 33.470316843154
OEO0538 OEO0021 2019-09-23 05:16:08 36999 402 35.383685375835 33.461561756062
OEO0538 OEO0021 2019-09-23 05:15:52 36999 402 35.410925096708 33.45273730048
OEO0538 OEO0021 2019-09-23 05:15:38 36999 402 35.437825055036 33.44401670264
OEO0538 OEO0021 2019-09-23 05:15:23 36999 402 35.464927505267 33.435224181888
OEO0538 OEO0021 2019-09-23 05:15:08 36999 402 35.492038277167 33.426422768296
OEO0538 OEO0021 2019-09-23 05:14:53 36999 402 35.519081562124 33.417636949369
OEO0538 OEO0021 2019-09-23 05:14:38 36999 402 35.546192890905 33.408822396796
OEO0538 OEO0021 2019-09-23 05:14:23 36999 402 35.573304259034 33.400001146057
OEO0538 OEO0021 2019-09-23 05:14:08 36999 402 35.600153086833 33.391258712332
OEO0538 OEO0021 2019-09-23 05:13:53 36999 402 35.627242977096 33.382431100606
OEO0538 OEO0021 2019-09-23 05:13:38 36999 402 35.654327859516 33.373597849439
OEO0538 OEO0021 2019-09-23 05:13:23 36999 402 35.681387386045 33.36476516976
OEO0538 OEO0021 2019-09-23 05:13:08 36999 402 35.708347341749 33.355956816703
OEO0538 OEO0021 2019-09-23 05:12:53 36999 402 35.735397088024 33.347110213244
OEO0538 OEO0021 2019-09-23 05:12:38 36999 402 35.762507964532 33.338233784879
OEO0538 OEO0021 2019-09-23 05:12:22 36999 402 35.789463367717 33.329397236523
OEO0538 OEO0021 2019-09-23 05:12:08 36999 402 35.816568322281 33.320499727052
OEO0538 OEO0021 2019-09-23 05:11:52 36999 402 35.843665448993 33.311596694895
OEO0538 OEO0021 2019-09-23 05:11:38 36999 402 35.870652292102 33.302757399025
OEO0538 OEO0021 2019-09-23 05:11:23 36999 402 35.897815789762 33.294153596451
OEO0538 OEO0021 2019-09-23 05:11:08 36998 402 35.925352038683 33.287706000667
OEO0538 OEO0021 2019-09-23 05:10:53 36998 402 35.953172651546 33.284811911412
OEO0538 OEO0021 2019-09-23 05:10:38 36999 402 35.981172543291 33.285038046686
OEO0538 OEO0021 2019-09-23 05:10:23 36999 402 36.009176503001 33.286174903204
OEO0538 OEO0021 2019-09-23 05:10:08 36998 402 36.037133633856 33.286779892806
OEO0538 OEO0021 2019-09-23 05:09:52 36999 402 36.064988285151 33.286278778526
OEO0538 OEO0021 2019-09-23 05:09:37 36999 402 36.093149094971 33.28570195447
OEO0538 OEO0021 2019-09-23 05:09:23 36999 402 36.120948329985 33.285145762473
OEO0538 OEO0021 2019-09-23 05:09:08 36998 402 36.148915837229 33.284763124133
OEO0538 OEO0021 2019-09-23 05:08:53 36999 402 36.177019553481 33.284945438195
OEO0538 OEO0021 2019-09-23 05:08:37 36999 402 36.204921228016 33.285215918427
OEO0538 OEO0021 2019-09-23 05:08:23 36999 402 36.23297580681 33.285488000141
OEO0538 OEO0021 2019-09-23 05:08:07 36999 402 36.260982710953 33.285759831978
OEO0538 OEO0021 2019-09-23 05:07:52 36999 402 36.288972428053 33.286031666427
OEO0538 OEO0021 2019-09-23 05:07:38 36999 402 36.316902378764 33.286303025398
OEO0538 OEO0021 2019-09-23 05:07:23 36999 402 36.345038175161 33.286576833598
OEO0538 OEO0021 2019-09-23 05:07:08 36999 402 36.372832600171 33.286849797037
OEO0538 OEO0021 2019-09-23 05:06:52 36999 402 36.400866945048 33.28713431936
OEO0538 OEO0021 2019-09-23 05:06:37 36999 402 36.428850411083 33.287422306155
OEO0538 OEO0021 2019-09-23 05:06:22 36999 402 36.456787233804 33.287711571925
OEO0538 OEO0021 2019-09-23 05:06:07 36999 402 36.484750125185 33.288003642071
OEO0538 OEO0021 2019-09-23 05:05:52 36999 402 36.512855685368 33.288300355651
OEO0538 OEO0021 2019-09-23 05:05:37 36999 402 36.540742261438 33.288599025359
OEO0538 OEO0021 2019-09-23 05:05:22 36999 402 36.568885928233 33.28890631687
OEO0538 OEO0021 2019-09-23 05:05:07 36999 402 36.596768141021 33.289218519539
OEO0538 OEO0021 2019-09-23 05:04:52 36999 402 36.624788618164 33.289542846508
OEO0538 OEO0021 2019-09-23 05:04:37 36999 402 36.652791317144 33.289881374283
OEO0538 OEO0021 2019-09-23 05:04:23 36999 402 36.680668002781 33.290237806597
OEO0538 OEO0021 2019-09-23 05:04:07 36999 402 36.708655201112 33.290622192572
OEO0538 OEO0021 2019-09-23 05:03:53 36999 402 36.736740841803 33.291044095874
OEO0538 OEO0021 2019-09-23 05:03:38 36999 402 36.764605361622 33.291509816292
OEO0538 OEO0021 2019-09-23 05:03:23 36999 402 36.792609440473 33.2920314738
OEO0538 OEO0021 2019-09-23 05:03:08 36999 402 36.820693842161 33.292560820155
OEO0538 OEO0021 2019-09-23 05:02:53 36998 402 36.848687985244 33.292651365091
OEO0538 OEO0021 2019-09-23 05:02:48 36999 402 36.904271514429 33.285954790196
OEO0538 OEO0021 2019-09-23 05:02:48 36999 402 37.043353386152 33.265467523921
OEO0538 OEO0021 2019-09-23 05:00:52 36999 402 37.071163659433 33.261361852842
OEO0538 OEO0021 2019-09-23 05:00:38 36999 402 37.098833245524 33.257273922786
OEO0538 OEO0021 2019-09-23 05:00:22 36999 402 37.1267309527 33.253149232496
OEO0538 OEO0021 2019-09-23 05:00:07 36999 402 37.154519724597 33.249037631153
OEO0538 OEO0021 2019-09-23 04:59:52 36999 402 37.182262536937 33.244929822996
OEO0538 OEO0021 2019-09-23 04:59:37 36999 402 37.210064819408 33.240810134083
OEO0538 OEO0021 2019-09-23 04:59:22 36999 402 37.237849315313 33.236689979553
OEO0538 OEO0021 2019-09-23 04:59:07 36999 402 37.265644657282 33.23256518225
OEO0538 OEO0021 2019-09-23 04:58:52 36999 402 37.293428682711 33.22843899316
OEO0538 OEO0021 2019-09-23 04:58:37 36999 402 37.321167820285 33.224316415528
OEO0538 OEO0021 2019-09-23 04:58:22 36999 402 37.349032782793 33.220172124462
OEO0538 OEO0021 2019-09-23 04:58:07 36999 402 37.376729090877 33.216049818118
OEO0538 OEO0021 2019-09-23 04:57:52 36999 402 37.404552739498 33.211905473968
OEO0538 OEO0021 2019-09-23 04:57:37 36999 402 37.432492939375 33.20774064063
OEO0538 OEO0021 2019-09-23 04:57:22 36999 402 37.460121192772 33.203619228719
OEO0538 OEO0021 2019-09-23 04:57:07 36999 402 37.488004797673 33.19945666999
OEO0538 OEO0021 2019-09-23 04:56:52 36999 402 37.515711023578 33.195317560233
OEO0538 OEO0021 2019-09-23 04:56:37 36999 402 37.54351658293 33.191160592176
OEO0538 OEO0021 2019-09-23 04:56:22 36999 402 37.57133544736 33.186998649087
OEO0538 OEO0021 2019-09-23 04:56:07 36999 402 37.599143419199 33.182835295354
OEO0538 OEO0021 2019-09-23 04:55:52 36999 402 37.626944601612 33.178670018415
OEO0538 OEO0021 2019-09-23 04:55:37 36999 402 37.654837447101 33.174488130695
OEO0538 OEO0021 2019-09-23 04:55:22 36999 402 37.682533399752 33.170333038721
OEO0538 OEO0021 2019-09-23 04:55:07 36999 402 37.710341926898 33.166158350268
OEO0538 OEO0021 2019-09-23 04:54:52 36999 402 37.738101017087 33.16198855796
OEO0538 OEO0021 2019-09-23 04:54:37 36999 402 37.765851011936 33.157817891197
OEO0538 OEO0021 2019-09-23 04:54:22 36999 402 37.793684025996 33.153632767066
OEO0538 OEO0021 2019-09-23 04:54:07 36999 402 37.821520475069 33.149445467445
OEO0538 OEO0021 2019-09-23 04:53:52 36999 402 37.849255369214 33.145272248788
OEO0538 OEO0021 2019-09-23 04:53:37 36999 402 37.877010237393 33.141095856259
OEO0538 OEO0021 2019-09-23 04:53:22 36999 402 37.904902399829 33.136899584038
OEO0538 OEO0021 2019-09-23 04:53:07 36999 402 37.932732868455 33.132714743284
OEO0538 OEO0021 2019-09-23 04:52:52 36999 402 37.960448620494 33.128551538519
OEO0538 OEO0021 2019-09-23 04:52:37 36999 402 37.988176855892 33.124395980489
OEO0538 OEO0021 2019-09-23 04:52:22 36999 402 38.015959065666 33.120261472102
OEO0538 OEO0021 2019-09-23 04:52:07 36999 402 38.043809611778 33.116192828817
OEO0538 OEO0021 2019-09-23 04:51:52 36999 402 38.071661348058 33.112138737278
OEO0538 OEO0021 2019-09-23 04:51:37 36999 402 38.099438316612 33.108092400513
OEO0538 OEO0021 2019-09-23 04:51:22 36999 402 38.127230573594 33.104040735651
OEO0538 OEO0021 2019-09-23 04:51:07 36999 402 38.155035740245 33.099984091772
OEO0538 OEO0021 2019-09-23 04:50:52 36999 402 38.182893583796 33.095916617088
OEO0538 OEO0021 2019-09-23 04:50:37 36999 402 38.210665757765 33.091858534881
OEO0538 OEO0021 2019-09-23 04:50:22 36999 402 38.238413292494 33.087800931765
OEO0538 OEO0021 2019-09-23 04:50:07 36999 402 38.266209687597 33.08373305557
OEO0538 OEO0021 2019-09-23 04:49:52 36999 402 38.294026808367 33.079658995925
OEO0538 OEO0021 2019-09-23 04:49:37 36999 402 38.321932208355 33.0755688457
OEO0538 OEO0021 2019-09-23 04:49:22 36999 402 38.349617958981 33.071507744309
OEO0538 OEO0021 2019-09-23 04:49:07 36999 402 38.377421244265 33.067426222406
OEO0538 OEO0021 2019-09-23 04:48:52 36999 402 38.405176615582 33.063348576937
OEO0538 OEO0021 2019-09-23 04:48:37 36999 402 38.432992511636 33.059258901612
OEO0538 OEO0021 2019-09-23 04:48:22 36999 402 38.46097924824 33.055140895671
OEO0538 OEO0021 2019-09-23 04:48:07 36999 402 38.488673391167 33.051062751332
OEO0538 OEO0021 2019-09-23 04:47:52 36999 402 38.516476554091 33.046965367506
OEO0538 OEO0021 2019-09-23 04:47:37 36999 402 38.544295283217 33.042862487825
OEO0538 OEO0021 2019-09-23 04:47:22 36999 402 38.572176879256 33.038747094426
OEO0538 OEO0021 2019-09-23 04:47:07 36999 402 38.599813488251 33.034664721212
OEO0538 OEO0021 2019-09-23 04:46:52 36999 402 38.627691222898 33.030543502576
OEO0538 OEO0021 2019-09-23 04:46:37 36999 402 38.655498900187 33.026429411582
OEO0538 OEO0021 2019-09-23 04:46:22 36999 402 38.683231189503 33.022323276706
OEO0538 OEO0021 2019-09-23 04:46:07 36999 402 38.711122118853 33.018190380491
OEO0538 OEO0021 2019-09-23 04:45:52 36999 402 38.738839647483 33.014079953044
OEO0538 OEO0021 2019-09-23 04:45:37 36999 402 38.76664119524 33.009953807586
OEO0538 OEO0021 2019-09-23 04:45:22 36999 402 38.794434372454 33.005825601603
OEO0538 OEO0021 2019-09-23 04:45:07 36999 402 38.822243537381 33.001691711683
OEO0538 OEO0021 2019-09-23 04:44:52 36999 402 38.850043034714 32.99755598091
OEO0538 OEO0021 2019-09-23 04:44:37 36999 402 38.877890694126 32.993409709256
OEO0538 OEO0021 2019-09-23 04:44:22 36999 402 38.905683915522 32.989268159262
OEO0538 OEO0021 2019-09-23 04:44:07 36999 402 38.933441632369 32.985128442044
OEO0538 OEO0021 2019-09-23 04:43:52 36999 402 38.961434462636 32.980950065628
OEO0538 OEO0021 2019-09-23 04:43:37 36999 402 38.98918334131 32.976804449445
OEO0538 OEO0021 2019-09-23 04:43:22 36999 402 39.01682625409 32.972670902776
OEO0538 OEO0021 2019-09-23 04:43:07 36999 402 39.044786664186 32.968485877575
OEO0538 OEO0021 2019-09-23 04:42:52 36999 402 39.072532756107 32.964328643206
OEO0538 OEO0021 2019-09-23 04:42:37 36999 402 39.100311177726 32.960161719293
OEO0538 OEO0021 2019-09-23 04:42:22 36999 402 39.128026520951 32.955999373503
OEO0538 OEO0021 2019-09-23 04:42:07 36999 402 39.155829551548 32.951820487594
OEO0538 OEO0021 2019-09-23 04:41:52 36999 402 39.183780127362 32.947629341536
OEO0538 OEO0021 2019-09-23 04:41:37 36999 402 39.211451958958 32.943575334897
OEO0538 OEO0021 2019-09-23 04:41:22 36999 402 39.239257924024 32.939767506204
OEO0538 OEO0021 2019-09-23 04:41:07 36999 402 39.267204197324 32.935981198535
OEO0538 OEO0021 2019-09-23 04:40:52 36999 402 39.295043889087 32.932218573163
OEO0538 OEO0021 2019-09-23 04:40:37 36999 402 39.322877961769 32.928463712596
OEO0538 OEO0021 2019-09-23 04:40:22 36999 402 39.350680864526 32.924680435249
OEO0538 OEO0021 2019-09-23 04:40:07 36999 402 39.378403206645 32.920629240281
OEO0538 OEO0021 2019-09-23 04:39:52 36999 402 39.406345605677 32.91621892412
OEO0538 OEO0021 2019-09-23 04:39:37 36999 402 39.434075944906 32.911837819414
OEO0538 OEO0021 2019-09-23 04:39:22 36999 402 39.461733273215 32.907464905715
OEO0538 OEO0021 2019-09-23 04:39:07 36999 402 39.489675565695 32.903043610575
OEO0538 OEO0021 2019-09-23 04:38:52 36999 402 39.517465283643 32.898643239884
OEO0538 OEO0021 2019-09-23 04:38:37 36999 402 39.545241296197 32.894241931055
OEO0538 OEO0021 2019-09-23 04:38:22 36999 402 39.572974540729 32.889844464383
OEO0538 OEO0021 2019-09-23 04:38:07 36999 402 39.600753571087 32.885436978502
OEO0538 OEO0021 2019-09-23 04:37:52 36999 402 39.628527142919 32.881027915822
OEO0538 OEO0021 2019-09-23 04:37:37 36999 402 39.656355435557 32.876608029627
OEO0538 OEO0021 2019-09-23 04:37:22 36999 402 39.684098634747 32.872200067113
OEO0538 OEO0021 2019-09-23 04:37:07 36999 402 39.711870144038 32.867786914938
OEO0538 OEO0021 2019-09-23 04:36:52 36999 402 39.739637971638 32.863374599229
OEO0538 OEO0021 2019-09-23 04:36:37 36999 402 39.767429369697 32.858960206476
OEO0538 OEO0021 2019-09-23 04:36:22 36999 402 39.79520582026 32.854551713927
OEO0538 OEO0021 2019-09-23 04:36:07 36999 402 39.822983770744 32.850149108572
OEO0538 OEO0021 2019-09-23 04:35:52 36999 402 39.850757727529 32.845756836674
OEO0538 OEO0021 2019-09-23 04:35:37 36999 402 39.878519683392 32.841381001366
OEO0538 OEO0021 2019-09-23 04:35:22 36999 402 39.906420371001 32.83700466628
OEO0538 OEO0021 2019-09-23 04:35:07 36999 402 39.934158374094 32.832684074573
OEO0538 OEO0021 2019-09-23 04:34:52 36999 402 39.961781721246 32.828422821862
OEO0538 OEO0021 2019-09-23 04:34:37 36999 402 39.989633261988 32.824180051785
OEO0538 OEO0021 2019-09-23 04:34:22 36999 402 40.017396383135 32.819995084981
OEO0538 OEO0021 2019-09-23 04:34:07 36999 402 40.045268932343 32.81566598573
OEO0538 OEO0021 2019-09-23 04:33:52 36998 402 40.072921376882 32.809943788906
OEO0538 OEO0021 2019-09-23 04:33:37 36999 402 40.100145938869 32.801784152333
OEO0538 OEO0021 2019-09-23 04:33:22 36999 402 40.127543363517 32.793494877348
OEO0538 OEO0021 2019-09-23 04:33:07 36999 402 40.154800668253 32.785241292506
OEO0538 OEO0021 2019-09-23 04:32:52 36999 402 40.182077236988 32.776975013383
OEO0538 OEO0021 2019-09-23 04:32:37 36999 402 40.209185218757 32.768752823162
OEO0538 OEO0021 2019-09-23 04:32:22 36999 402 40.236543351829 32.760448031209
OEO0538 OEO0021 2019-09-23 04:32:07 36999 402 40.26374625044 32.752183393582
OEO0538 OEO0021 2019-09-23 04:31:52 36999 402 40.291049343845 32.743881351477
OEO0538 OEO0021 2019-09-23 04:31:37 36999 402 40.318364144496 32.735568794131
OEO0538 OEO0021 2019-09-23 04:31:22 36999 402 40.345570438183 32.727282365435
OEO0538 OEO0021 2019-09-23 04:31:07 36999 402 40.372827101883 32.718973669135
OEO0538 OEO0021 2019-09-23 04:30:52 36999 402 40.400007206446 32.71068130527
OEO0538 OEO0021 2019-09-23 04:30:37 36999 402 40.427243926265 32.702364769748
OEO0538 OEO0021 2019-09-23 04:30:22 36999 402 40.454565184612 32.694015307361
OEO0538 OEO0021 2019-09-23 04:30:07 36999 402 40.481926454748 32.685646573885
OEO0538 OEO0021 2019-09-23 04:29:52 36999 402 40.50917528293 32.677305262466
OEO0538 OEO0021 2019-09-23 04:29:37 36999 402 40.536420824764 32.668957742645
OEO0538 OEO0021 2019-09-23 04:29:22 36999 402 40.563727135315 32.66058466112
OEO0538 OEO0021 2019-09-23 04:29:07 36999 402 40.590787449024 32.652279992596
OEO0538 OEO0021 2019-09-23 04:28:52 36999 402 40.618046980065 32.643907205129
OEO0538 OEO0021 2019-09-23 04:28:37 36999 402 40.645440630355 32.635485971746
OEO0538 OEO0021 2019-09-23 04:28:22 36999 402 40.672694600455 32.627100363803
OEO0538 OEO0021 2019-09-23 04:28:07 36999 402 40.699756886505 32.618766864746
OEO0538 OEO0021 2019-09-23 04:27:52 36999 402 40.727050153622 32.610355069975
OEO0538 OEO0021 2019-09-23 04:27:37 36999 402 40.754435672685 32.601907634749
OEO0538 OEO0021 2019-09-23 04:27:22 36999 402 40.781696253913 32.59349139327
OEO0538 OEO0021 2019-09-23 04:27:07 36999 402 40.808905240634 32.58508405015
OEO0538 OEO0021 2019-09-23 04:26:52 36999 402 40.836116213559 32.576668703542
OEO0538 OEO0021 2019-09-23 04:26:37 36999 402 40.863424308539 32.568216097338
OEO0538 OEO0021 2019-09-23 04:26:22 36999 402 40.89055686759 32.559810742071
OEO0538 OEO0021 2019-09-23 04:26:07 36999 402 40.917886927936 32.551336754443
OEO0538 OEO0021 2019-09-23 04:25:52 36999 402 40.945021891487 32.542916069452
OEO0538 OEO0021 2019-09-23 04:25:37 36999 402 40.972405863636 32.53441064732
OEO0538 OEO0021 2019-09-23 04:25:22 36999 402 40.999597681169 32.52595758492
OEO0538 OEO0021 2019-09-23 04:25:07 36999 402 41.026765364231 32.517504864393
OEO0538 OEO0021 2019-09-23 04:24:52 36999 402 41.0540914405 32.508995440018
OEO0538 OEO0021 2019-09-23 04:24:37 36999 402 41.081317068082 32.50050980047
OEO0538 OEO0021 2019-09-23 04:24:22 36999 402 41.108635074179 32.491987860218
OEO0538 OEO0021 2019-09-23 04:24:07 36999 402 41.135732759473 32.483527523704
OEO0538 OEO0021 2019-09-23 04:23:52 36999 402 41.162962043484 32.475018630223
OEO0538 OEO0021 2019-09-23 04:23:37 36999 402 41.19033930565 32.466455747436
OEO0538 OEO0021 2019-09-23 04:23:22 36999 402 41.217493898963 32.457955357803
OEO0538 OEO0021 2019-09-23 04:23:07 36999 402 41.244737184871 32.449419768884
OEO0538 OEO0021 2019-09-23 04:22:52 36999 402 41.271926308973 32.44089376816
OEO0538 OEO0021 2019-09-23 04:22:37 36999 402 41.29928547955 32.432306990436
OEO0538 OEO0021 2019-09-23 04:22:22 36999 402 41.326501915633 32.423757688387
OEO0538 OEO0021 2019-09-23 04:22:07 36999 402 41.353734758086 32.415196321908
OEO0538 OEO0021 2019-09-23 04:21:52 36999 402 41.380968017504 32.406627834479
OEO0538 OEO0021 2019-09-23 04:21:37 36999 402 41.408111335128 32.398081070094
OEO0538 OEO0021 2019-09-23 04:21:22 36999 402 41.435384868823 32.389487095006
OEO0538 OEO0021 2019-09-23 04:21:07 36999 402 41.462683421003 32.38087950649
OEO0538 OEO0021 2019-09-23 04:20:52 36999 402 41.489811614498 32.372320633349
OEO0538 OEO0021 2019-09-23 04:20:37 36999 402 41.517031318406 32.363728726702
OEO0538 OEO0021 2019-09-23 04:20:22 36999 402 41.544416335078 32.355082177074
OEO0538 OEO0021 2019-09-23 04:20:07 36999 402 41.571657558463 32.346480682105
OEO0538 OEO0021 2019-09-23 04:19:52 36999 402 41.598892004721 32.337884251657
OEO0538 OEO0021 2019-09-23 04:19:37 36999 402 41.626069483209 32.329314365202
OEO0538 OEO0021 2019-09-23 04:19:22 36999 402 41.653289321686 32.320749151866
OEO0538 OEO0021 2019-09-23 04:19:07 36999 402 41.680505778533 32.312215803684
OEO0538 OEO0021 2019-09-23 04:18:52 36999 402 41.707826443952 32.303672545137
OEO0538 OEO0021 2019-09-23 04:18:37 36999 402 41.735030420545 32.295045343567
OEO0538 OEO0021 2019-09-23 04:18:22 36999 402 41.762250359672 32.286306366678
OEO0538 OEO0021 2019-09-23 04:18:07 36999 402 41.789374678136 32.277590355691
OEO0538 OEO0021 2019-09-23 04:17:52 36999 402 41.816653543065 32.268817121629
OEO0538 OEO0021 2019-09-23 04:17:37 36999 402 41.843915727187 32.260041522209
OEO0538 OEO0021 2019-09-23 04:17:22 36999 402 41.871045771051 32.251300789067
OEO0538 OEO0021 2019-09-23 04:17:07 36999 402 41.898380608882 32.2424863697
OEO0538 OEO0021 2019-09-23 04:16:52 36999 402 41.925555066871 32.233715861515
OEO0538 OEO0021 2019-09-23 04:16:37 36999 402 41.952757266641 32.224928652258
OEO0538 OEO0021 2019-09-23 04:16:22 36999 402 41.979965564942 32.216131826685
OEO0538 OEO0021 2019-09-23 04:16:07 36999 402 42.007123277478 32.207343795014
OEO0538 OEO0021 2019-09-23 04:15:52 36999 402 42.034391419986 32.198512001591
OEO0538 OEO0021 2019-09-23 04:15:37 36999 402 42.061581854123 32.189697631887
OEO0538 OEO0021 2019-09-23 04:15:22 36999 402 42.088692164501 32.180901609836
OEO0538 OEO0021 2019-09-23 04:15:07 36999 402 42.115899940386 32.172065979771
OEO0538 OEO0021 2019-09-23 04:14:52 36999 402 42.14310649055 32.163223076332
OEO0538 OEO0021 2019-09-23 04:14:37 36999 402 42.17029559763 32.154377980558
OEO0538 OEO0021 2019-09-23 04:14:22 36999 402 42.197616958317 32.14548190281
OEO0538 OEO0021 2019-09-23 04:14:07 36999 402 42.224831176131 32.136613062052
OEO0538 OEO0021 2019-09-23 04:13:52 36999 402 42.252023998767 32.127743213555
OEO0538 OEO0021 2019-09-23 04:13:37 36999 402 42.279137195027 32.118891579134
OEO0538 OEO0021 2019-09-23 04:13:22 36999 402 42.306340246017 32.110002804002
OEO0538 OEO0021 2019-09-23 04:13:07 36999 402 42.333567701839 32.101098221808
OEO0538 OEO0021 2019-09-23 04:12:52 36999 402 42.36083942083 32.092171395563
OEO0538 OEO0021 2019-09-23 04:12:37 36999 402 42.387976293464 32.083281116884
OEO0538 OEO0021 2019-09-23 04:12:22 36999 402 42.415270769828 32.074331450537
OEO0538 OEO0021 2019-09-23 04:12:07 36999 402 42.442465231403 32.065406926408
OEO0538 OEO0021 2019-09-23 04:11:52 36999 402 42.469565172557 32.056505885407
OEO0538 OEO0021 2019-09-23 04:11:37 36999 402 42.496722150281 32.047578990578
OEO0538 OEO0021 2019-09-23 04:11:22 36999 402 42.523888846626 32.038641905332
OEO0538 OEO0021 2019-09-23 04:11:07 36999 402 42.551108879992 32.029680560319
OEO0538 OEO0021 2019-09-23 04:10:52 36999 402 42.578397771918 32.020690277005
OEO0538 OEO0021 2019-09-23 04:10:37 36999 402 42.605608450477 32.01172009731
OEO0538 OEO0021 2019-09-23 04:10:22 36999 402 42.632808749564 32.002748445021
OEO0538 OEO0021 2019-09-23 04:10:07 36999 402 42.660009679623 31.993772702315
OEO0538 OEO0021 2019-09-23 04:09:52 36999 402 42.687194050696 31.984800295634
OEO0538 OEO0021 2019-09-23 04:09:37 36999 402 42.714263414349 31.975865893424
OEO0538 OEO0021 2019-09-23 04:09:22 36999 402 42.741495506979 31.966881585646
OEO0538 OEO0021 2019-09-23 04:09:07 36999 402 42.768696071728 31.957921770426
OEO0538 OEO0021 2019-09-23 04:08:52 36999 402 42.796037476319 31.948974822512
OEO0538 OEO0021 2019-09-23 04:08:37 36999 402 42.823072761427 31.940247284499
OEO0538 OEO0021 2019-09-23 04:08:22 36999 402 42.850424122846 31.931421989908
OEO0538 OEO0021 2019-09-23 04:08:07 36999 402 42.87755366781 31.922660293861
OEO0538 OEO0021 2019-09-23 04:07:52 36999 402 42.904855246941 31.913835153234
OEO0538 OEO0021 2019-09-23 04:07:37 36999 402 42.932100455447 31.905020213098
OEO0538 OEO0021 2019-09-23 04:07:22 36999 402 42.959298744486 31.896212628453
OEO0538 OEO0021 2019-09-23 04:07:07 36999 402 42.986499185744 31.887396420216
OEO0538 OEO0021 2019-09-23 04:06:52 36999 402 43.013866587422 31.878518151466
OEO0538 OEO0021 2019-09-23 04:06:37 36999 402 43.040947668697 31.869725273228
OEO0538 OEO0021 2019-09-23 04:06:22 36999 402 43.06821256733 31.86086504809
OEO0538 OEO0021 2019-09-23 04:06:07 36999 402 43.095407726768 31.852019763806
OEO0538 OEO0021 2019-09-23 04:05:52 36999 402 43.122737199553 31.843123684581
OEO0538 OEO0021 2019-09-23 04:05:37 36999 402 43.149859550565 31.834288105893
OEO0538 OEO0021 2019-09-23 04:05:22 36999 402 43.17705822507 31.825421156885
OEO0538 OEO0021 2019-09-23 04:05:07 36999 402 43.204430195657 31.816491674756
OEO0538 OEO0021 2019-09-23 04:04:52 36999 402 43.231555871105 31.807637243291
OEO0538 OEO0021 2019-09-23 04:04:37 36999 402 43.25876537695 31.798751004704
OEO0538 OEO0021 2019-09-23 04:04:22 36999 402 43.285973831111 31.789862297772
OEO0538 OEO0021 2019-09-23 04:04:07 36999 402 43.313330309805 31.780924551465
OEO0538 OEO0021 2019-09-23 04:03:52 36999 402 43.340405382059 31.772080423004
OEO0538 OEO0021 2019-09-23 04:03:37 36999 402 43.367763076549 31.763149297312
OEO0538 OEO0021 2019-09-23 04:03:22 36999 402 43.39489367828 31.754302084865
OEO0538 OEO0021 2019-09-23 04:03:07 36999 402 43.422246359493 31.745396079434
OEO0538 OEO0021 2019-09-23 04:02:52 36999 402 43.449459538844 31.736539019977
OEO0538 OEO0021 2019-09-23 04:02:37 36999 402 43.476622851629 31.727600987116
OEO0538 OEO0021 2019-09-23 04:02:22 36999 402 43.503725969132 31.718485243283
OEO0538 OEO0021 2019-09-23 04:02:07 36999 402 43.531009971961 31.709294751401
OEO0538 OEO0021 2019-09-23 04:01:52 36999 402 43.558186678639 31.700131924591
OEO0538 OEO0021 2019-09-23 04:01:37 36999 402 43.585287617294 31.690986137016
OEO0538 OEO0021 2019-09-23 04:01:22 36999 402 43.612612675657 31.681756159994
OEO0538 OEO0021 2019-09-23 04:01:07 36999 402 43.639781658011 31.672570424486
OEO0538 OEO0021 2019-09-23 04:00:52 36999 402 43.66696031389 31.663372783527
OEO0538 OEO0021 2019-09-23 04:00:37 36999 402 43.694174128674 31.654154711399
OEO0538 OEO0021 2019-09-23 04:00:22 36999 402 43.721338463597 31.644944788527
OEO0538 OEO0021 2019-09-23 04:00:07 36999 402 43.748480460406 31.635733871177
OEO0538 OEO0021 2019-09-23 03:59:52 36999 402 43.775584386578 31.626527423298
OEO0538 OEO0021 2019-09-23 03:59:37 36999 402 43.802876863391 31.617248340958
OEO0538 OEO0021 2019-09-23 03:59:22 36999 402 43.830076750905 31.607992372366
OEO0538 OEO0021 2019-09-23 03:59:07 36999 402 43.85715593042 31.598768833642
OEO0538 OEO0021 2019-09-23 03:58:52 36999 402 43.884439348155 31.589467621657
OEO0538 OEO0021 2019-09-23 03:58:37 36999 402 43.911583561411 31.580205414372
OEO0538 OEO0021 2019-09-23 03:58:22 36999 402 43.938746698309 31.570928891373
OEO0538 OEO0021 2019-09-23 03:58:07 36999 402 43.965925404963 31.561639322233
OEO0538 OEO0021 2019-09-23 03:57:52 36999 402 43.993086689821 31.552348069704
OEO0538 OEO0021 2019-09-23 03:57:37 36999 402 44.020219825977 31.543059585189
OEO0538 OEO0021 2019-09-23 03:57:22 36999 402 44.047386344439 31.533753306936
OEO0538 OEO0021 2019-09-23 03:57:07 36999 402 44.074518687508 31.524453088085
OEO0538 OEO0021 2019-09-23 03:56:52 36999 402 44.101671309291 31.515141287601
OEO0538 OEO0021 2019-09-23 03:56:37 36999 402 44.128955302438 31.505781639511
OEO0538 OEO0021 2019-09-23 03:56:22 36999 402 44.156148571932 31.496452294894
OEO0538 OEO0021 2019-09-23 03:56:07 36999 402 44.183192976108 31.487176139976
OEO0538 OEO0021 2019-09-23 03:55:52 36999 402 44.210367663072 31.477861222774
OEO0538 OEO0021 2019-09-23 03:55:37 36999 402 44.237654114321 31.468519108861
OEO0538 OEO0021 2019-09-23 03:55:22 36999 402 44.2648802245 31.459214218112
OEO0538 OEO0021 2019-09-23 03:55:07 36999 402 44.292063548947 31.449938383984
OEO0538 OEO0021 2019-09-23 03:54:52 36999 402 44.319097932124 31.440675281229
OEO0538 OEO0021 2019-09-23 03:54:37 36999 402 44.346366983622 31.431273767012
OEO0538 OEO0021 2019-09-23 03:54:22 36999 402 44.37353200562 31.421899217548
OEO0538 OEO0021 2019-09-23 03:54:07 36999 402 44.400703505689 31.412513424399
OEO0538 OEO0021 2019-09-23 03:53:52 36999 402 44.427778224814 31.403152062742
OEO0538 OEO0021 2019-09-23 03:53:37 36999 402 44.455077692104 31.393703955089
OEO0538 OEO0021 2019-09-23 03:53:22 36999 402 44.482157518221 31.384322916927
OEO0538 OEO0021 2019-09-23 03:53:07 36999 402 44.509278995472 31.37491832727
OEO0538 OEO0021 2019-09-23 03:52:52 36999 402 44.536568439952 31.36544642814
OEO0538 OEO0021 2019-09-23 03:52:37 36999 402 44.563654056991 31.356036280941
OEO0538 OEO0021 2019-09-23 03:52:22 36999 402 44.590808406313 31.346592945036
OEO0538 OEO0021 2019-09-23 03:52:07 36999 402 44.617880918507 31.337169175166
OEO0538 OEO0021 2019-09-23 03:51:52 36999 402 44.645135952848 31.327672814308
OEO0538 OEO0021 2019-09-23 03:51:37 36999 402 44.672208605218 31.318230757973
OEO0538 OEO0021 2019-09-23 03:51:22 36999 402 44.699451337523 31.30872014672
OEO0538 OEO0021 2019-09-23 03:51:07 36999 402 44.726543577119 31.299253076128
OEO0538 OEO0021 2019-09-23 03:50:52 36999 402 44.753854779318 31.289700344016
OEO0538 OEO0021 2019-09-23 03:50:37 36999 402 44.780896769259 31.280232728291
OEO0538 OEO0021 2019-09-23 03:50:22 36999 402 44.808103518144 31.270698380487
OEO0538 OEO0021 2019-09-23 03:50:07 36999 402 44.835313751886 31.261153671487
OEO0538 OEO0021 2019-09-23 03:49:52 36999 402 44.862393294001 31.251646120958
OEO0538 OEO0021 2019-09-23 03:49:37 36999 402 44.889657501786 31.242064781702
OEO0538 OEO0021 2019-09-23 03:49:22 36999 402 44.91680466451 31.232515661345
OEO0538 OEO0021 2019-09-23 03:49:07 36999 402 44.943786201554 31.223016664731
OEO0538 OEO0021 2019-09-23 03:48:52 36999 402 44.971108054102 31.213389796514
OEO0538 OEO0021 2019-09-23 03:48:37 36999 402 44.998187654995 31.203840747982
OEO0538 OEO0021 2019-09-23 03:48:22 36999 402 45.025290885966 31.19427645208
OEO0538 OEO0021 2019-09-23 03:48:07 36999 402 45.052514755888 31.184663316356
OEO0538 OEO0021 2019-09-23 03:47:52 36999 402 45.079685821847 31.175063761596
OEO0538 OEO0021 2019-09-23 03:47:37 36999 402 45.106829827795 31.165470516392
OEO0538 OEO0021 2019-09-23 03:47:22 36999 402 45.133988656818 31.155870951302
OEO0538 OEO0021 2019-09-23 03:47:07 36999 402 45.161107607416 31.146287313256
OEO0538 OEO0021 2019-09-23 03:46:52 36999 402 45.188285863729 31.136687772212
OEO0538 OEO0021 2019-09-23 03:46:37 36999 402 45.215309418224 31.127147705145
OEO0538 OEO0021 2019-09-23 03:46:22 36999 402 45.242625695006 31.117478427918
OEO0538 OEO0021 2019-09-23 03:46:07 36999 402 45.269754943203 31.107664213205
OEO0538 OEO0021 2019-09-23 03:45:52 36999 402 45.296803381409 31.097713103846
OEO0538 OEO0021 2019-09-23 03:45:37 36999 402 45.323823162553 31.087762911278
OEO0538 OEO0021 2019-09-23 03:45:22 36999 402 45.350897412352 31.077782958043
OEO0538 OEO0021 2019-09-23 03:45:07 36999 402 45.378012030501 31.067778452644
OEO0538 OEO0021 2019-09-23 03:44:52 36999 402 45.405176010406 31.057746141329
OEO0538 OEO0021 2019-09-23 03:44:37 36999 402 45.43220237455 31.04775513575
OEO0538 OEO0021 2019-09-23 03:44:22 36999 402 45.459211569376 31.037761262565
OEO0538 OEO0021 2019-09-23 03:44:07 36999 402 45.486386846223 31.027696533991
OEO0538 OEO0021 2019-09-23 03:43:52 36999 402 45.513408742716 31.017679708135
OEO0538 OEO0021 2019-09-23 03:43:37 36999 402 45.540502737514 31.007627697505
OEO0538 OEO0021 2019-09-23 03:43:22 36999 402 45.567656564901 30.99754556031
OEO0538 OEO0021 2019-09-23 03:43:07 36999 402 45.594624287582 30.987525343327
OEO0538 OEO0021 2019-09-23 03:42:52 36999 402 45.62179912185 30.977421824254
OEO0538 OEO0021 2019-09-23 03:42:37 36999 402 45.648956718043 30.967319560118
OEO0538 OEO0021 2019-09-23 03:42:22 36999 402 45.676013044211 30.957251848045
OEO0538 OEO0021 2019-09-23 03:42:07 36999 402 45.703143118933 30.947156097404
OEO0538 OEO0021 2019-09-23 03:41:52 36999 402 45.730158152401 30.937103990955
OEO0538 OEO0021 2019-09-23 03:41:37 36999 402 45.757170103736 30.927023753178
OEO0538 OEO0021 2019-09-23 03:41:22 36999 402 45.784274427314 30.916900461557
OEO0538 OEO0021 2019-09-23 03:41:07 36999 402 45.811300273942 30.90680456542
OEO0538 OEO0021 2019-09-23 03:40:52 36999 402 45.838490556622 30.896648084173
OEO0538 OEO0021 2019-09-23 03:40:37 36999 402 45.865559361584 30.886541239598
OEO0538 OEO0021 2019-09-23 03:40:22 36999 402 45.892658684783 30.876428064755
OEO0538 OEO0021 2019-09-23 03:40:07 36999 402 45.919742849693 30.866303489101
OEO0538 OEO0021 2019-09-23 03:39:52 36999 402 45.946801531516 30.856067318021
OEO0538 OEO0021 2019-09-23 03:39:37 36999 402 45.973867420597 30.845778798804
OEO0538 OEO0021 2019-09-23 03:39:22 36999 402 46.000920628047 30.835484771998
OEO0538 OEO0021 2019-09-23 03:39:07 36999 402 46.027874037204 30.825218369226
OEO0538 OEO0021 2019-09-23 03:38:52 36999 402 46.054911480836 30.814909533151
OEO0538 OEO0021 2019-09-23 03:38:37 36999 402 46.081975035355 30.804580233813
OEO0538 OEO0021 2019-09-23 03:38:22 36999 402 46.10902081025 30.794247175416
OEO0538 OEO0021 2019-09-23 03:38:07 36999 402 46.136073468288 30.783900807116
OEO0538 OEO0021 2019-09-23 03:37:52 36999 402 46.163111961304 30.773548999963
OEO0538 OEO0021 2019-09-23 03:37:37 36999 402 46.190267822185 30.7631411574
OEO0538 OEO0021 2019-09-23 03:37:22 36999 402 46.217316731032 30.752762845614
OEO0538 OEO0021 2019-09-23 03:37:07 36999 402 46.24435866455 30.742375270635
OEO0538 OEO0021 2019-09-23 03:36:52 36999 402 46.27140344271 30.731973904165
OEO0538 OEO0021 2019-09-23 03:36:37 36999 402 46.298419401711 30.721569891166
OEO0538 OEO0021 2019-09-23 03:36:22 36999 402 46.325376536666 30.711173576593
OEO0538 OEO0021 2019-09-23 03:36:07 36999 402 46.35241597717 30.700730386997
OEO0538 OEO0021 2019-09-23 03:35:52 36999 402 46.37946607106 30.690278394775
OEO0538 OEO0021 2019-09-23 03:35:37 36999 402 46.406636907291 30.679859365231
OEO0538 OEO0021 2019-09-23 03:35:22 36998 402 46.433658715933 30.67009622717
OEO0538 OEO0021 2019-09-23 03:35:07 36999 402 46.461119103468 30.661126637533
OEO0538 OEO0021 2019-09-23 03:34:52 36999 402 46.488356003011 30.652243344302
OEO0538 OEO0021 2019-09-23 03:34:37 36999 402 46.515562295773 30.643360909865
OEO0538 OEO0021 2019-09-23 03:34:22 36999 402 46.542984623027 30.634398810324
OEO0538 OEO0021 2019-09-23 03:34:07 36999 402 46.570231521468 30.625484913351
OEO0538 OEO0021 2019-09-23 03:33:52 36999 402 46.597479851461 30.616561389163
OEO0538 OEO0021 2019-09-23 03:33:37 36999 402 46.624821882858 30.607598001885
OEO0538 OEO0021 2019-09-23 03:33:22 36999 402 46.652176072639 30.598621545553
OEO0538 OEO0021 2019-09-23 03:33:07 36999 402 46.679378373481 30.589685767467
OEO0538 OEO0021 2019-09-23 03:32:52 36999 402 46.706784674323 30.580674236565
OEO0538 OEO0021 2019-09-23 03:32:37 36999 402 46.734101238585 30.571683327958
OEO0538 OEO0021 2019-09-23 03:32:22 36999 402 46.761276388588 30.562730114633
OEO0538 OEO0021 2019-09-23 03:32:07 36999 402 46.788629357917 30.553709688986
OEO0538 OEO0021 2019-09-23 03:31:52 36999 402 46.815928003141 30.544699174522
OEO0538 OEO0021 2019-09-23 03:31:37 36999 402 46.843318071343 30.535650501999
OEO0538 OEO0021 2019-09-23 03:31:22 36999 402 46.870582128217 30.526636327917
OEO0538 OEO0021 2019-09-23 03:31:07 36999 402 46.897800487755 30.517630793648
OEO0538 OEO0021 2019-09-23 03:30:52 36999 402 46.925202707075 30.50855880575
OEO0538 OEO0021 2019-09-23 03:30:37 36999 402 46.952363725758 30.499562301648
OEO0538 OEO0021 2019-09-23 03:30:22 36999 402 46.979765544405 30.490484115446
OEO0538 OEO0021 2019-09-23 03:30:07 36999 402 47.006999934562 30.481461644841
OEO0538 OEO0021 2019-09-23 03:29:52 36999 402 47.034289717362 30.47242468724
OEO0538 OEO0021 2019-09-23 03:29:37 36999 402 47.06154884452 30.4634064673
OEO0538 OEO0021 2019-09-23 03:29:22 36999 402 47.088891834909 30.454375100002
OEO0538 OEO0021 2019-09-23 03:29:07 36999 402 47.116164847943 30.44538673817
OEO0538 OEO0021 2019-09-23 03:28:52 36999 402 47.143453770942 30.436402284507
OEO0538 OEO0021 2019-09-23 03:28:37 36999 402 47.170761279069 30.42732801212
OEO0538 OEO0021 2019-09-23 03:28:22 36999 402 47.198180991667 30.418151507469
OEO0538 OEO0021 2019-09-23 03:28:07 36999 402 47.22528813608 30.409069920951
OEO0538 OEO0021 2019-09-23 03:27:52 36999 402 47.252769275999 30.399853311675
OEO0538 OEO0021 2019-09-23 03:27:37 36999 402 47.279911199452 30.39074091036
OEO0538 OEO0021 2019-09-23 03:27:22 36999 402 47.30728409645 30.381541107788
OEO0538 OEO0021 2019-09-23 03:27:07 36999 402 47.334481538133 30.372390579589
OEO0538 OEO0021 2019-09-23 03:26:52 36999 402 47.361760141592 30.363203014076
OEO0538 OEO0021 2019-09-23 03:26:37 36999 402 47.38903931299 30.354005475394
OEO0538 OEO0021 2019-09-23 03:26:22 36999 402 47.416319907255 30.34479758184
OEO0538 OEO0021 2019-09-23 03:26:07 36999 402 47.443605954477 30.335578118763
OEO0538 OEO0021 2019-09-23 03:25:52 36999 402 47.470978008942 30.326319741141
OEO0538 OEO0021 2019-09-23 03:25:37 36999 402 47.498266669806 30.317079625243
OEO0538 OEO0021 2019-09-23 03:25:22 36999 402 47.525556542082 30.307829149373
OEO0538 OEO0021 2019-09-23 03:25:07 36999 402 47.552723739194 30.298610298624
OEO0538 OEO0021 2019-09-23 03:24:52 36999 402 47.579996828138 30.289345575466
OEO0538 OEO0021 2019-09-23 03:24:37 36999 402 47.607272514582 30.280070141514
OEO0538 OEO0021 2019-09-23 03:24:22 36999 402 47.634695875845 30.270734323203
OEO0538 OEO0021 2019-09-23 03:24:07 36999 402 47.66190585857 30.261461092472
OEO0538 OEO0021 2019-09-23 03:23:52 36999 402 47.689150153523 30.25216597333
OEO0538 OEO0021 2019-09-23 03:23:37 36999 402 47.716410742879 30.242855090117
OEO0538 OEO0021 2019-09-23 03:23:22 36999 402 47.743681290847 30.233530358489
OEO0538 OEO0021 2019-09-23 03:23:07 36999 402 47.770910177676 30.224209383774
OEO0538 OEO0021 2019-09-23 03:22:52 36999 402 47.798187660421 30.214861003006
OEO0538 OEO0021 2019-09-23 03:22:37 36999 402 47.825458188669 30.205503913799
OEO0538 OEO0021 2019-09-23 03:22:22 36999 402 47.852714838612 30.196140088147
OEO0538 OEO0021 2019-09-23 03:22:07 36999 402 47.880144222009 30.18670472482
OEO0538 OEO0021 2019-09-23 03:21:52 36999 402 47.907361637779 30.177329392886
OEO0538 OEO0021 2019-09-23 03:21:37 36999 402 47.93463233806 30.167921720299
OEO0538 OEO0021 2019-09-23 03:21:22 36999 402 47.961917675249 30.158493368409
OEO0538 OEO0021 2019-09-23 03:21:07 36999 402 47.989200717117 30.149048060812
OEO0538 OEO0021 2019-09-23 03:20:52 36999 402 48.016306591338 30.139643537713
OEO0538 OEO0021 2019-09-23 03:20:37 36999 402 48.043566525662 30.130160933074
OEO0538 OEO0021 2019-09-23 03:20:22 36999 402 48.070970433111 30.120598735565
OEO0538 OEO0021 2019-09-23 03:20:07 36999 402 48.098112950148 30.111098454949
OEO0538 OEO0021 2019-09-23 03:19:52 36999 402 48.125319056225 30.101585519284
OEO0538 OEO0021 2019-09-23 03:19:37 36998 402 48.152667023531 30.092341499876
OEO0538 OEO0021 2019-09-23 03:19:22 36999 402 48.180241427439 30.08472149186
OEO0538 OEO0021 2019-09-23 03:19:07 36999 402 48.207853444856 30.07782995489
OEO0538 OEO0021 2019-09-23 03:18:52 36999 402 48.235400357788 30.070947335077
OEO0538 OEO0021 2019-09-23 03:18:37 36999 402 48.263057274144 30.064029656948
OEO0538 OEO0021 2019-09-23 03:18:22 36999 402 48.290665191633 30.057117111514
OEO0538 OEO0021 2019-09-23 03:18:07 36999 402 48.318313721647 30.050187011143
OEO0538 OEO0021 2019-09-23 03:17:52 36999 402 48.345902159932 30.043264640732
OEO0538 OEO0021 2019-09-23 03:17:37 36999 402 48.37348529181 30.036336735937
OEO0538 OEO0021 2019-09-23 03:17:22 36999 402 48.401058555793 30.029404502373
OEO0538 OEO0021 2019-09-23 03:17:07 36999 402 48.42862996203 30.022466238016
OEO0538 OEO0021 2019-09-23 03:16:52 36999 402 48.45627255311 30.015503953356
OEO0538 OEO0021 2019-09-23 03:16:37 36999 402 48.483758404457 30.008575631682
OEO0538 OEO0021 2019-09-23 03:16:22 36999 402 48.511348835826 30.001616052084
OEO0538 OEO0021 2019-09-23 03:16:07 36999 402 48.538947330554 29.994650347062
OEO0538 OEO0021 2019-09-23 03:15:52 36999 402 48.566596760923 29.987669092126
OEO0538 OEO0021 2019-09-23 03:15:37 36999 402 48.594197913542 29.980699499911
OEO0538 OEO0021 2019-09-23 03:15:22 36999 402 48.621800737724 29.973731199769
OEO0538 OEO0021 2019-09-23 03:15:07 36999 402 48.649499986256 29.966743607714
OEO0538 OEO0021 2019-09-23 03:14:52 36999 402 48.677120310392 29.959784429954
OEO0538 OEO0021 2019-09-23 03:14:37 36999 402 48.704668290309 29.952850508199
OEO0538 OEO0021 2019-09-23 03:14:22 36999 402 48.732264833929 29.945873084082
OEO0538 OEO0021 2019-09-23 03:14:07 36999 402 48.759825114233 29.938835584174
OEO0538 OEO0021 2019-09-23 03:13:52 36999 402 48.787513254133 29.93175700565
OEO0538 OEO0021 2019-09-23 03:13:37 36999 402 48.815120611955 29.924691261806
OEO0538 OEO0021 2019-09-23 03:13:22 36999 402 48.842623458643 29.917644194174
OEO0538 OEO0021 2019-09-23 03:13:07 36999 402 48.870353485023 29.910531147007
OEO0538 OEO0021 2019-09-23 03:12:52 36999 402 48.897951303337 29.903444065116
OEO0538 OEO0021 2019-09-23 03:12:37 36999 402 48.925453867135 29.896373529565
OEO0538 OEO0021 2019-09-23 03:12:22 36999 402 48.953144851259 29.889246767442
OEO0538 OEO0021 2019-09-23 03:12:07 36999 402 48.980690846023 29.88214946278
OEO0538 OEO0021 2019-09-23 03:11:52 36999 402 49.008282214274 29.875032557995
OEO0538 OEO0021 2019-09-23 03:11:37 36999 402 49.035784114023 29.867931133355
OEO0538 OEO0021 2019-09-23 03:11:22 36999 402 49.063471242541 29.860774383437
OEO0538 OEO0021 2019-09-23 03:11:07 36999 402 49.091102493469 29.8536247521
OEO0538 OEO0021 2019-09-23 03:10:52 36999 402 49.118599208837 29.846502979779
OEO0538 OEO0021 2019-09-23 03:10:37 36999 402 49.146248310834 29.839335124688
OEO0538 OEO0021 2019-09-23 03:10:22 36999 402 49.173707450938 29.832210493075
OEO0538 OEO0021 2019-09-23 03:10:07 36999 402 49.201321720625 29.825040093793
OEO0538 OEO0021 2019-09-23 03:09:52 36999 402 49.229060722606 29.817833402776
OEO0538 OEO0021 2019-09-23 03:09:37 36999 402 49.256549214448 29.810689381634
OEO0538 OEO0021 2019-09-23 03:09:22 36999 402 49.284192059885 29.803504996624
OEO0538 OEO0021 2019-09-23 03:09:07 36999 402 49.311782793809 29.796337140892
OEO0538 OEO0021 2019-09-23 03:08:52 36999 402 49.339276760194 29.789201623582
OEO0538 OEO0021 2019-09-23 03:08:37 36999 402 49.367021007089 29.78201342873
OEO0538 OEO0021 2019-09-23 03:08:22 36999 402 49.394460423066 29.774917144951
OEO0538 OEO0021 2019-09-23 03:08:07 36999 402 49.422067262723 29.76775293007
OEO0538 OEO0021 2019-09-23 03:07:52 36998 402 49.449619408061 29.760282062906
OEO0538 OEO0021 2019-09-23 03:07:37 36999 402 49.477082144598 29.751597958165
OEO0538 OEO0021 2019-09-23 03:07:22 36999 402 49.504504031198 29.742621367183
OEO0538 OEO0021 2019-09-23 03:07:07 36999 402 49.531874905709 29.733636203655
OEO0538 OEO0021 2019-09-23 03:06:52 36999 402 49.55924352042 29.724621998031
OEO0538 OEO0021 2019-09-23 03:06:37 36999 402 49.586553623302 29.715598983803
OEO0538 OEO0021 2019-09-23 03:06:22 36999 402 49.614032361894 29.706544427253
OEO0538 OEO0021 2019-09-23 03:06:07 36998 402 49.641295423943 29.69797848179
OEO0538 OEO0021 2019-09-23 03:05:52 36999 402 49.668973118533 29.691078093917
OEO0538 OEO0021 2019-09-23 03:05:37 36999 402 49.69655989365 29.684698991244
OEO0538 OEO0021 2019-09-23 03:05:22 36999 402 49.724275060857 29.678283494936
OEO0538 OEO0021 2019-09-23 03:05:07 36999 402 49.751960846585 29.671868526257
OEO0538 OEO0021 2019-09-23 03:04:52 36999 402 49.779638069952 29.665449632924
OEO0538 OEO0021 2019-09-23 03:04:37 36999 402 49.807314978019 29.659025363655
OEO0538 OEO0021 2019-09-23 03:04:22 36999 402 49.834990689303 29.652596634847
OEO0538 OEO0021 2019-09-23 03:04:07 36999 402 49.862663672011 29.646164603039
OEO0538 OEO0021 2019-09-23 03:03:52 36999 402 49.890494598009 29.639693633166
OEO0538 OEO0021 2019-09-23 03:03:37 36999 402 49.91817306034 29.63325758424
OEO0538 OEO0021 2019-09-23 03:03:22 36999 402 49.945693067062 29.626860415037
OEO0538 OEO0021 2019-09-23 03:03:07 36999 402 49.973407018123 29.620423734435
OEO0538 OEO0021 2019-09-23 03:02:52 36999 402 50.001154841611 29.613989588274
OEO0538 OEO0021 2019-09-23 03:02:37 36999 402 50.028882522344 29.607577206963
OEO0538 OEO0021 2019-09-23 03:02:22 36999 402 50.056419032037 29.601234772679
OEO0538 OEO0021 2019-09-23 03:02:07 36999 402 50.084203046156 29.594872639313
OEO0538 OEO0021 2019-09-23 03:01:52 36999 402 50.111947526947 29.588566572311
OEO0538 OEO0021 2019-09-23 03:01:37 36999 402 50.139639298482 29.582295042341
OEO0538 OEO0021 2019-09-23 03:01:22 36999 402 50.167276444328 29.575784843728
OEO0538 OEO0021 2019-09-23 03:01:07 36999 402 50.194749250295 29.567254028343
OEO0538 OEO0021 2019-09-23 03:00:52 36999 402 50.221814472674 29.556723868341
OEO0538 OEO0021 2019-09-23 03:00:37 36999 402 50.24892543627 29.546162940485
OEO0538 OEO0021 2019-09-23 03:00:22 36999 402 50.276069702112 29.535578173354
OEO0538 OEO0021 2019-09-23 03:00:07 36999 402 50.303288763213 29.524953771839
OEO0538 OEO0021 2019-09-23 02:59:52 36999 402 50.330479073636 29.514330967325
OEO0538 OEO0021 2019-09-23 02:59:37 36999 402 50.357628354355 29.503715937283
OEO0538 OEO0021 2019-09-23 02:59:22 36999 402 50.384697710531 29.493124965399
OEO0538 OEO0021 2019-09-23 02:59:07 36999 402 50.411796745051 29.482516745194
OEO0538 OEO0021 2019-09-23 02:58:52 36999 402 50.439036948351 29.471850331799
OEO0538 OEO0021 2019-09-23 02:58:37 36999 402 50.466187055006 29.461219608288
OEO0538 OEO0021 2019-09-23 02:58:22 36999 402 50.493290364442 29.450612309811
OEO0538 OEO0021 2019-09-23 02:58:07 36999 402 50.520501222375 29.439975525069
OEO0538 OEO0021 2019-09-23 02:57:52 36999 402 50.547717157697 29.429366780421
OEO0538 OEO0021 2019-09-23 02:57:37 36999 402 50.574795407437 29.418908945719
OEO0538 OEO0021 2019-09-23 02:57:22 36999 402 50.602000215007 29.408697006187
OEO0538 OEO0021 2019-09-23 02:57:07 36999 402 50.629247304423 29.398547330358
OEO0538 OEO0021 2019-09-23 02:56:52 36999 402 50.656544978644 29.388366627407
OEO0538 OEO0021 2019-09-23 02:56:37 36999 402 50.683717477647 29.378220393266
OEO0538 OEO0021 2019-09-23 02:56:22 36999 402 50.711050192857 29.368002181859
OEO0538 OEO0021 2019-09-23 02:56:07 36999 402 50.738325386648 29.357793202039
OEO0538 OEO0021 2019-09-23 02:55:52 36999 402 50.765434758666 29.347634107902
OEO0538 OEO0021 2019-09-23 02:55:37 36999 402 50.792782558699 29.337373465523
OEO0538 OEO0021 2019-09-23 02:55:22 36999 402 50.819903777625 29.327185585339
OEO0538 OEO0021 2019-09-23 02:55:07 36999 402 50.847095277791 29.316959005771
OEO0538 OEO0021 2019-09-23 02:54:52 36999 402 50.874359675145 29.306692754357
OEO0538 OEO0021 2019-09-23 02:54:37 36999 402 50.901641070165 29.296407649285
OEO0538 OEO0021 2019-09-23 02:54:22 36999 402 50.928866484492 29.286131309065
OEO0538 OEO0021 2019-09-23 02:54:07 36999 402 50.956091646262 29.275842700833
OEO0538 OEO0021 2019-09-23 02:53:52 36999 402 50.983260834662 29.265562912886
OEO0538 OEO0021 2019-09-23 02:53:37 36999 402 51.010526331588 29.255234244845
OEO0538 OEO0021 2019-09-23 02:53:22 36999 402 51.037649059543 29.244947345721
OEO0538 OEO0021 2019-09-23 02:53:07 36999 402 51.064881936829 29.234606291419
OEO0538 OEO0021 2019-09-23 02:52:52 36999 402 51.092190297983 29.224224174302
OEO0538 OEO0021 2019-09-23 02:52:37 36999 402 51.119313410975 29.213900290227
OEO0538 OEO0021 2019-09-23 02:52:22 36999 402 51.146571280642 29.203512949175
OEO0538 OEO0021 2019-09-23 02:52:07 36999 402 51.173849381005 29.193105722922
OEO0538 OEO0021 2019-09-23 02:51:52 36999 402 51.200995443355 29.182736998811
OEO0538 OEO0021 2019-09-23 02:51:37 36999 402 51.228257723002 29.17231212582
OEO0538 OEO0021 2019-09-23 02:51:22 36999 402 51.255491512707 29.161886788658
OEO0538 OEO0021 2019-09-23 02:51:07 36999 402 51.282648583853 29.15148033437
OEO0538 OEO0021 2019-09-23 02:50:52 36999 402 51.309960575468 29.141004549942
OEO0538 OEO0021 2019-09-23 02:50:37 36999 402 51.337082701672 29.130592612238
OEO0538 OEO0021 2019-09-23 02:50:22 36999 402 51.364251058109 29.120155053411
OEO0538 OEO0021 2019-09-23 02:50:07 36999 402 51.39153755721 29.109666557468
OEO0538 OEO0021 2019-09-23 02:49:52 36999 402 51.418664407635 29.099236479443
OEO0538 OEO0021 2019-09-23 02:49:37 36999 402 51.445976829762 29.088735715515
OEO0538 OEO0021 2019-09-23 02:49:22 36999 402 51.473237509389 29.078260537383
OEO0538 OEO0021 2019-09-23 02:49:07 36999 402 51.500442255119 29.067819095575
OEO0538 OEO0021 2019-09-23 02:48:52 36999 402 51.527635374635 29.057400486174
OEO0538 OEO0021 2019-09-23 02:48:37 36999 402 51.554900803815 29.046963623586
OEO0538 OEO0021 2019-09-23 02:48:22 36998 402 51.581961003846 29.03649202117
OEO0538 OEO0021 2019-09-23 02:48:07 36999 402 51.609120144453 29.025330593439
OEO0538 OEO0021 2019-09-23 02:47:52 36999 402 51.636255637847 29.013900726311
OEO0538 OEO0021 2019-09-23 02:47:37 36999 402 51.66330291284 29.002494238422
OEO0538 OEO0021 2019-09-23 02:47:22 36999 402 51.690434303348 28.991038446066
OEO0538 OEO0021 2019-09-23 02:47:07 36999 402 51.717508702735 28.979592961827
OEO0538 OEO0021 2019-09-23 02:46:52 36999 402 51.744545011255 28.968150119035
OEO0538 OEO0021 2019-09-23 02:46:37 36999 402 51.771586635192 28.95669172976
OEO0538 OEO0021 2019-09-23 02:46:22 36999 402 51.798672765989 28.945201305233
OEO0538 OEO0021 2019-09-23 02:46:07 36999 402 51.825782167124 28.933688249674
OEO0538 OEO0021 2019-09-23 02:45:52 36999 402 51.852846077197 28.922182155358
OEO0538 OEO0021 2019-09-23 02:45:37 36999 402 51.879913373239 28.910663379696
OEO0538 OEO0021 2019-09-23 02:45:22 36999 402 51.906892057044 28.899172153661
OEO0538 OEO0021 2019-09-23 02:45:07 36999 402 51.93404290578 28.887598546185
OEO0538 OEO0021 2019-09-23 02:44:52 36999 402 51.96104834685 28.876079627704
OEO0538 OEO0021 2019-09-23 02:44:37 36999 402 51.988006344478 28.864576615826
OEO0538 OEO0021 2019-09-23 02:44:22 36999 402 52.015106181315 28.853012130352
OEO0538 OEO0021 2019-09-23 02:44:07 36999 402 52.042237826143 28.841437926367
OEO0538 OEO0021 2019-09-23 02:43:52 36999 402 52.069268333113 28.829917286591
OEO0538 OEO0021 2019-09-23 02:43:37 36999 402 52.096396538997 28.818374218526
OEO0538 OEO0021 2019-09-23 02:43:22 36999 402 52.123506725287 28.806868503409
OEO0538 OEO0021 2019-09-23 02:43:07 36999 402 52.150469885142 28.795459197781
OEO0538 OEO0021 2019-09-23 02:42:52 36999 402 52.177634118773 28.783946277798
OEO0538 OEO0021 2019-09-23 02:42:37 36999 402 52.204597865455 28.77234508474
OEO0538 OEO0021 2019-09-23 02:42:22 36999 402 52.2316518293 28.760666589406
OEO0538 OEO0021 2019-09-23 02:42:07 36999 402 52.258761674368 28.74894915053
OEO0538 OEO0021 2019-09-23 02:41:52 36999 402 52.285858281301 28.737222542569
OEO0538 OEO0021 2019-09-23 02:41:37 36999 402 52.312813913257 28.725542239901
OEO0538 OEO0021 2019-09-23 02:41:22 36999 402 52.339954490421 28.713766869958
OEO0538 OEO0021 2019-09-23 02:41:07 36999 402 52.366915271615 28.70205464095
OEO0538 OEO0021 2019-09-23 02:40:52 36999 402 52.393959031973 28.690291438544
OEO0538 OEO0021 2019-09-23 02:40:37 36999 402 52.421000353943 28.678514270148
OEO0538 OEO0021 2019-09-23 02:40:22 36999 402 52.448130291797 28.66668349342
OEO0538 OEO0021 2019-09-23 02:40:07 36999 402 52.475239487861 28.654846641378
OEO0538 OEO0021 2019-09-23 02:39:52 36999 402 52.502277009176 28.643025956387
OEO0538 OEO0021 2019-09-23 02:39:37 36999 402 52.529318407348 28.631188567487
OEO0538 OEO0021 2019-09-23 02:39:22 36999 402 52.556223389046 28.61939578571
OEO0538 OEO0021 2019-09-23 02:39:07 36999 402 52.583301470464 28.607512047914
OEO0538 OEO0021 2019-09-23 02:38:52 36999 402 52.610430250739 28.595590757758
OEO0538 OEO0021 2019-09-23 02:38:37 36999 402 52.637471816603 28.583692630636
OEO0538 OEO0021 2019-09-23 02:38:22 36999 402 52.664444881733 28.571809428148
OEO0538 OEO0021 2019-09-23 02:38:07 36999 402 52.691490983886 28.559878761119
OEO0538 OEO0021 2019-09-23 02:37:52 36999 402 52.718423098059 28.54798328442
OEO0538 OEO0021 2019-09-23 02:37:37 36999 402 52.745581051379 28.535972796412
OEO0538 OEO0021 2019-09-23 02:37:22 36999 402 52.772521727988 28.524043304847
OEO0538 OEO0021 2019-09-23 02:37:07 36999 402 52.799619954417 28.512028897742
OEO0538 OEO0021 2019-09-23 02:36:52 36999 402 52.826618866653 28.500043473208
OEO0538 OEO0021 2019-09-23 02:36:37 36999 402 52.853664382057 28.488022440178
OEO0538 OEO0021 2019-09-23 02:36:22 36999 402 52.880640082167 28.476017714016
OEO0538 OEO0021 2019-09-23 02:36:07 36999 402 52.90775305594 28.4639373157
OEO0538 OEO0021 2019-09-23 02:35:52 36999 402 52.934637802114 28.451944542419
OEO0538 OEO0021 2019-09-23 02:35:37 36999 402 52.961695432445 28.439860967402
OEO0538 OEO0021 2019-09-23 02:35:22 36999 402 52.988813534247 28.427737036625
OEO0538 OEO0021 2019-09-23 02:35:07 36999 402 53.015845235245 28.41563975815
OEO0538 OEO0021 2019-09-23 02:34:52 36999 402 53.042865842163 28.403536774576
OEO0538 OEO0021 2019-09-23 02:34:37 36999 402 53.069850819598 28.391440466179
OEO0538 OEO0021 2019-09-23 02:34:22 36999 402 53.096863302417 28.379324861452
OEO0538 OEO0021 2019-09-23 02:34:07 36999 402 53.123838323361 28.36722254094
OEO0538 OEO0021 2019-09-23 02:33:52 36999 402 53.15088990004 28.355086504898
OEO0538 OEO0021 2019-09-23 02:33:37 36999 402 53.177810515532 28.343015520127
OEO0538 OEO0021 2019-09-23 02:33:22 36999 402 53.204907312701 28.330878687858
OEO0538 OEO0021 2019-09-23 02:33:07 36999 402 53.231942696988 28.318784978122
OEO0538 OEO0021 2019-09-23 02:32:52 36999 402 53.259032040458 28.306645456105
OEO0538 OEO0021 2019-09-23 02:32:37 36999 402 53.286048064213 28.294464044284
OEO0538 OEO0021 2019-09-23 02:32:22 36999 402 53.312957881809 28.282313428175
OEO0538 OEO0021 2019-09-23 02:32:07 36999 402 53.340123460072 28.270031084493
OEO0538 OEO0021 2019-09-23 02:31:52 36999 402 53.367137974943 28.257800998702
OEO0538 OEO0021 2019-09-23 02:31:37 36999 402 53.394106958009 28.245575405982
OEO0538 OEO0021 2019-09-23 02:31:22 36999 402 53.421194463102 28.233279766879
OEO0538 OEO0021 2019-09-23 02:31:07 36999 402 53.448065628417 28.221066205327
OEO0538 OEO0021 2019-09-23 02:30:52 36999 402 53.47507432063 28.208773883285
OEO0538 OEO0021 2019-09-23 02:30:37 36999 402 53.502092166319 28.196460969103
OEO0538 OEO0021 2019-09-23 02:30:22 36999 402 53.529198561495 28.184090917438
OEO0538 OEO0021 2019-09-23 02:30:07 36999 402 53.55620056643 28.171751787076
OEO0538 OEO0021 2019-09-23 02:29:52 36999 402 53.583175848411 28.159407878709
OEO0538 OEO0021 2019-09-23 02:29:37 36999 402 53.610215653849 28.147017053754
OEO0538 OEO0021 2019-09-23 02:29:22 36999 402 53.637051975738 28.13470180678
OEO0538 OEO0021 2019-09-23 02:29:07 36999 402 53.664073215562 28.122283120573
OEO0538 OEO0021 2019-09-23 02:28:52 36999 402 53.691058281292 28.109861533106
OEO0538 OEO0021 2019-09-23 02:28:37 36999 402 53.718118031613 28.09738456712
OEO0538 OEO0021 2019-09-23 02:28:22 36999 402 53.745182657104 28.08488234576
OEO0538 OEO0021 2019-09-23 02:28:07 36999 402 53.772147782784 28.07240065357
OEO0538 OEO0021 2019-09-23 02:27:52 36999 402 53.79911800315 28.059888847804
OEO0538 OEO0021 2019-09-23 02:27:37 36999 402 53.8260246113 28.047383872329
OEO0538 OEO0021 2019-09-23 02:27:22 36999 402 53.853096687865 28.034839481364
OEO0538 OEO0021 2019-09-23 02:27:07 36998 402 53.880125194715 28.022776658284
OEO0538 OEO0021 2019-09-23 02:26:52 36999 402 53.907482155127 28.012006257357
OEO0538 OEO0021 2019-09-23 02:26:37 36999 402 53.934724998793 28.001484241563
OEO0538 OEO0021 2019-09-23 02:26:22 36999 402 53.961889680173 27.990982303994
OEO0538 OEO0021 2019-09-23 02:26:07 36999 402 53.989305332304 27.980374161952
OEO0538 OEO0021 2019-09-23 02:25:52 36999 402 54.016478662013 27.969852563007
OEO0538 OEO0021 2019-09-23 02:25:37 36999 402 54.043819674316 27.959261685551
OEO0538 OEO0021 2019-09-23 02:25:22 36999 402 54.07113788846 27.948678612169
OEO0538 OEO0021 2019-09-23 02:25:07 36999 402 54.098450264174 27.938101803981
OEO0538 OEO0021 2019-09-23 02:24:52 36999 402 54.125756774925 27.927538003395
OEO0538 OEO0021 2019-09-23 02:24:37 36999 402 54.15303986833 27.917003146393
OEO0538 OEO0021 2019-09-23 02:24:22 36999 402 54.180210076242 27.906543554353
OEO0538 OEO0021 2019-09-23 02:24:07 36999 402 54.207633624184 27.896031525134
OEO0538 OEO0021 2019-09-23 02:23:52 36999 402 54.23486112566 27.885634846316
OEO0538 OEO0021 2019-09-23 02:23:37 36999 402 54.262133998332 27.875112508307
OEO0538 OEO0021 2019-09-23 02:23:22 36997 402 54.289423315596 27.863275411532
OEO0538 OEO0021 2019-09-23 02:23:07 36999 402 54.31591800324 27.848646292624
OEO0538 OEO0021 2019-09-23 02:22:52 36999 402 54.342603273189 27.833668833481
OEO0538 OEO0021 2019-09-23 02:22:37 36999 402 54.3691898221 27.818738085784
OEO0538 OEO0021 2019-09-23 02:22:22 36999 402 54.395773795613 27.803804908122
OEO0538 OEO0021 2019-09-23 02:22:07 36999 402 54.42234240822 27.788881993555
OEO0538 OEO0021 2019-09-23 02:21:52 36999 402 54.448888908264 27.773981091051
OEO0538 OEO0021 2019-09-23 02:21:37 36999 402 54.475645147753 27.758983002399
OEO0538 OEO0021 2019-09-23 02:21:22 36999 402 54.502280277244 27.744087726925
OEO0538 OEO0021 2019-09-23 02:21:07 36999 402 54.528734913158 27.729345158106
OEO0538 OEO0021 2019-09-23 02:20:52 36999 402 54.555462675585 27.714512844926
OEO0538 OEO0021 2019-09-23 02:20:37 36999 402 54.582114478187 27.699712524063
OEO0538 OEO0021 2019-09-23 02:20:22 36999 402 54.60874514969 27.684639280822
OEO0538 OEO0021 2019-09-23 02:20:07 36999 402 54.635179794099 27.669598373864
OEO0538 OEO0021 2019-09-23 02:19:52 36999 402 54.661749854381 27.654459527498
OEO0538 OEO0021 2019-09-23 02:19:37 36999 402 54.688348106828 27.639283646213
OEO0538 OEO0021 2019-09-23 02:19:22 36999 402 54.714882573928 27.624123125724
OEO0538 OEO0021 2019-09-23 02:19:07 36999 402 54.741605964327 27.608833470051
OEO0538 OEO0021 2019-09-23 02:18:52 36999 402 54.768129171159 27.593637240358
OEO0538 OEO0021 2019-09-23 02:18:37 36999 402 54.794605169823 27.578447022197
OEO0538 OEO0021 2019-09-23 02:18:22 36999 402 54.821255562095 27.563135432683
OEO0538 OEO0021 2019-09-23 02:18:07 36999 402 54.847776963699 27.547876727984
OEO0538 OEO0021 2019-09-23 02:17:52 36999 402 54.874290789141 27.532601195957
OEO0538 OEO0021 2019-09-23 02:17:37 36999 402 54.900829039407 27.517290282086
OEO0538 OEO0021 2019-09-23 02:17:22 36999 402 54.927480711162 27.50189239896
OEO0538 OEO0021 2019-09-23 02:17:07 36999 402 54.954024550486 27.486535368556
OEO0538 OEO0021 2019-09-23 02:16:52 36999 402 54.98064933157 27.471109871022
OEO0538 OEO0021 2019-09-23 02:16:37 36999 402 55.007020370448 27.455809986917
OEO0538 OEO0021 2019-09-23 02:16:22 36999 402 55.033690251675 27.440315107058
OEO0538 OEO0021 2019-09-23 02:16:07 36999 402 55.060221231917 27.42487922247
OEO0538 OEO0021 2019-09-23 02:15:52 36999 402 55.086693502553 27.409455889448
OEO0538 OEO0021 2019-09-23 02:15:37 36999 402 55.113330711548 27.393914628651
OEO0538 OEO0021 2019-09-23 02:15:22 36999 402 55.139824483942 27.378435322088
OEO0538 OEO0021 2019-09-23 02:15:07 36999 402 55.166382512952 27.362896634903
OEO0538 OEO0021 2019-09-23 02:14:52 36999 402 55.192951803346 27.34732942878
OEO0538 OEO0021 2019-09-23 02:14:37 36999 402 55.219482805591 27.331762715433
OEO0538 OEO0021 2019-09-23 02:14:22 36999 402 55.246069252634 27.316141465361
OEO0538 OEO0021 2019-09-23 02:14:07 36999 402 55.272525215382 27.300574904961
OEO0538 OEO0021 2019-09-23 02:13:52 36999 402 55.299076169981 27.284930422818
OEO0538 OEO0021 2019-09-23 02:13:37 36999 402 55.325514180838 27.269330493262
OEO0538 OEO0021 2019-09-23 02:13:22 36999 402 55.352014522174 27.253671647508
OEO0538 OEO0021 2019-09-23 02:13:07 36999 402 55.378550060846 27.237969842148
OEO0538 OEO0021 2019-09-23 02:12:52 36999 402 55.405182639717 27.222188276541
OEO0538 OEO0021 2019-09-23 02:12:37 36999 402 55.431645430532 27.206485096315
OEO0538 OEO0021 2019-09-23 02:12:22 36999 402 55.458201811357 27.19070394509
OEO0538 OEO0021 2019-09-23 02:12:07 36999 402 55.484668053355 27.174953994612
OEO0538 OEO0021 2019-09-23 02:11:52 36999 402 55.51128032302 27.159094492236
OEO0538 OEO0021 2019-09-23 02:11:37 36999 402 55.537796303692 27.143269588294
OEO0538 OEO0021 2019-09-23 02:11:22 36999 402 55.564157439511 27.127514372574
OEO0538 OEO0021 2019-09-23 02:11:07 36999 402 55.590784803877 27.111576598344
OEO0538 OEO0021 2019-09-23 02:10:52 36999 402 55.617261311424 27.095705410288
OEO0538 OEO0021 2019-09-23 02:10:37 36999 402 55.643648598462 27.079863410814
OEO0538 OEO0021 2019-09-23 02:10:22 36999 402 55.670167433261 27.063916920168
OEO0538 OEO0021 2019-09-23 02:10:07 36999 402 55.696683205643 27.047945433702
OEO0538 OEO0021 2019-09-23 02:09:52 36999 402 55.723159808885 27.031969906762
OEO0538 OEO0021 2019-09-23 02:09:37 36999 402 55.749737503133 27.01591151811
OEO0538 OEO0021 2019-09-23 02:09:22 36999 402 55.776247512241 26.999927370412
OEO0538 OEO0021 2019-09-23 02:09:07 36998 402 55.802823165588 26.984320707204
OEO0538 OEO0021 2019-09-23 02:08:52 36999 402 55.829678831852 26.970428639415
OEO0538 OEO0021 2019-09-23 02:08:37 36999 402 55.856596775859 26.957131339465
OEO0538 OEO0021 2019-09-23 02:08:22 36999 402 55.883674476359 26.943735780248
OEO0538 OEO0021 2019-09-23 02:08:07 36999 402 55.910543889378 26.930424027607
OEO0538 OEO0021 2019-09-23 02:07:52 36999 402 55.93751747822 26.917041372477
OEO0538 OEO0021 2019-09-23 02:07:37 36999 402 55.964404003279 26.903682570368
OEO0538 OEO0021 2019-09-23 02:07:22 36999 402 55.991335619212 26.890282158148
OEO0538 OEO0021 2019-09-23 02:07:07 36999 402 56.018313983564 26.876839143718
OEO0538 OEO0021 2019-09-23 02:06:52 36999 402 56.045363229895 26.863341315475
OEO0538 OEO0021 2019-09-23 02:06:37 36999 402 56.07223317096 26.849913645466
OEO0538 OEO0021 2019-09-23 02:06:22 36999 402 56.099206672096 26.836414860551
OEO0538 OEO0021 2019-09-23 02:06:07 36999 402 56.126212629083 26.822880512953
OEO0538 OEO0021 2019-09-23 02:05:52 36999 402 56.15306751762 26.809402766061
OEO0538 OEO0021 2019-09-23 02:05:37 36999 402 56.180074314014 26.795829844383
OEO0538 OEO0021 2019-09-23 02:05:22 36999 402 56.207109598485 26.782223821167
OEO0538 OEO0021 2019-09-23 02:05:07 36999 402 56.233918588135 26.768713281439
OEO0538 OEO0021 2019-09-23 02:04:52 36999 402 56.260859980646 26.755118144282
OEO0538 OEO0021 2019-09-23 02:04:37 36999 402 56.287950037595 26.741430651812
OEO0538 OEO0021 2019-09-23 02:04:22 36999 402 56.314902866026 26.727795898837
OEO0538 OEO0021 2019-09-23 02:04:07 36999 402 56.34180890497 26.714169701218
OEO0538 OEO0021 2019-09-23 02:03:52 36999 402 56.368634227938 26.700571462426
OEO0538 OEO0021 2019-09-23 02:03:37 36999 402 56.395687079698 26.686846746461
OEO0538 OEO0021 2019-09-23 02:03:22 36999 402 56.422623908392 26.673172585069
OEO0538 OEO0021 2019-09-23 02:03:07 36999 402 56.449417767349 26.659566768363
OEO0538 OEO0021 2019-09-23 02:02:52 36999 402 56.476539684404 26.645787747684
OEO0538 OEO0021 2019-09-23 02:02:37 36999 402 56.503434683985 26.63207876614
OEO0538 OEO0021 2019-09-23 02:02:22 36999 402 56.530346351075 26.618332807451
OEO0538 OEO0021 2019-09-23 02:02:07 36999 402 56.557286057567 26.604562373135
OEO0538 OEO0021 2019-09-23 02:01:52 36999 402 56.584251146895 26.590772806746
OEO0538 OEO0021 2019-09-23 02:01:37 36999 402 56.611177225809 26.577001922037
OEO0538 OEO0021 2019-09-23 02:01:22 36999 402 56.638105343913 26.563234409814
OEO0538 OEO0021 2019-09-23 02:01:07 36999 402 56.665054292405 26.549462527455
OEO0538 OEO0021 2019-09-23 02:00:52 36999 402 56.691894639226 26.535722382392
OEO0538 OEO0021 2019-09-23 02:00:37 36999 402 56.71887706744 26.521904654913
OEO0538 OEO0021 2019-09-23 02:00:22 36999 402 56.745900038799 26.508099018695
OEO0538 OEO0021 2019-09-23 02:00:07 36999 402 56.772832950751 26.494385645934
OEO0538 OEO0021 2019-09-23 01:59:52 36999 402 56.799830731299 26.480672425567
OEO0538 OEO0021 2019-09-23 01:59:37 36999 402 56.826757594142 26.466843010282
OEO0538 OEO0021 2019-09-23 01:59:22 36999 402 56.853542530499 26.452877669579
OEO0538 OEO0021 2019-09-23 01:59:07 36999 402 56.880534083421 26.438783285372
OEO0538 OEO0021 2019-09-23 01:58:52 36999 402 56.907388536454 26.424739422833
OEO0538 OEO0021 2019-09-23 01:58:37 36999 402 56.934362006216 26.410611984769
OEO0538 OEO0021 2019-09-23 01:58:22 36999 402 56.961236478024 26.396515183444
OEO0538 OEO0021 2019-09-23 01:58:07 36999 402 56.988213725104 26.38234318702
OEO0538 OEO0021 2019-09-23 01:57:52 36999 402 57.015105352899 26.368194716612
OEO0538 OEO0021 2019-09-23 01:57:37 36999 402 57.041905895693 26.354073010152
OEO0538 OEO0021 2019-09-23 01:57:22 36999 402 57.068844961727 26.339856797719
OEO0538 OEO0021 2019-09-23 01:57:07 36999 402 57.095767687925 26.325627677681
OEO0538 OEO0021 2019-09-23 01:56:52 36999 402 57.122553403301 26.311449583754
OEO0538 OEO0021 2019-09-23 01:56:37 36999 402 57.149580822276 26.29712190022
OEO0538 OEO0021 2019-09-23 01:56:22 36999 402 57.176377270297 26.282895119283
OEO0538 OEO0021 2019-09-23 01:56:07 36999 402 57.203232377588 26.268615643108
OEO0538 OEO0021 2019-09-23 01:55:52 36999 402 57.230209083265 26.254249931543
OEO0538 OEO0021 2019-09-23 01:55:37 36999 402 57.257053033142 26.239933220566
OEO0538 OEO0021 2019-09-23 01:55:22 36999 402 57.283927287528 26.225578910118
OEO0538 OEO0021 2019-09-23 01:55:07 36999 402 57.310887614144 26.211156988975
OEO0538 OEO0021 2019-09-23 01:54:52 36999 402 57.337753380566 26.196764180597
OEO0538 OEO0021 2019-09-23 01:54:37 36999 402 57.364669865134 26.182322954823
OEO0538 OEO0021 2019-09-23 01:54:22 36999 402 57.391401801261 26.167959705124
OEO0538 OEO0021 2019-09-23 01:54:07 36999 402 57.418290272022 26.153491735535
OEO0538 OEO0021 2019-09-23 01:53:52 36999 402 57.44521323769 26.13898504987
OEO0538 OEO0021 2019-09-23 01:53:37 36999 402 57.472087629201 26.124484873509
OEO0538 OEO0021 2019-09-23 01:53:22 36999 402 57.49894369035 26.109975839819
OEO0538 OEO0021 2019-09-23 01:53:07 36999 402 57.525827662509 26.095434207347
OEO0538 OEO0021 2019-09-23 01:52:52 36999 402 57.55270839022 26.080878944655
OEO0538 OEO0021 2019-09-23 01:52:37 36999 402 57.579628919922 26.066288920203
OEO0538 OEO0021 2019-09-23 01:52:22 36999 402 57.606386287147 26.051777262766
OEO0538 OEO0021 2019-09-23 01:52:07 36999 402 57.633311869145 26.037169297146
OEO0538 OEO0021 2019-09-23 01:51:52 36999 402 57.660245958955 26.022557679056
OEO0538 OEO0021 2019-09-23 01:51:37 36999 402 57.687034591892 26.008034603055
OEO0538 OEO0021 2019-09-23 01:51:22 36999 402 57.714043144131 25.993413891722
OEO0538 OEO0021 2019-09-23 01:51:07 36999 402 57.740768361752 25.978983527768
OEO0538 OEO0021 2019-09-23 01:50:52 36999 402 57.767686813919 25.964505119971
OEO0538 OEO0021 2019-09-23 01:50:37 36999 402 57.794597744167 25.950097800814
OEO0538 OEO0021 2019-09-23 01:50:22 36999 402 57.821624520021 25.935608466239
OEO0538 OEO0021 2019-09-23 01:50:07 36997 402 57.848444880912 25.920392819897
OEO0538 OEO0021 2019-09-23 01:49:52 36999 402 57.874608411193 25.902398034938
OEO0538 OEO0021 2019-09-23 01:49:37 36999 402 57.900733082137 25.88379917426
OEO0538 OEO0021 2019-09-23 01:49:22 36999 402 57.926969073933 25.865092339893
OEO0538 OEO0021 2019-09-23 01:49:07 36999 402 57.953112550644 25.846422995908
OEO0538 OEO0021 2019-09-23 01:48:52 36999 402 57.979371957176 25.827642292207
OEO0538 OEO0021 2019-09-23 01:48:37 36999 402 58.005530342783 25.808905669458
OEO0538 OEO0021 2019-09-23 01:48:22 36999 402 58.031672994584 25.790152698359
OEO0538 OEO0021 2019-09-23 01:48:07 36999 402 58.057793152834 25.771388724428
OEO0538 OEO0021 2019-09-23 01:47:52 36999 402 58.08402006121 25.752521510646
OEO0538 OEO0021 2019-09-23 01:47:37 36999 402 58.110102738276 25.733732848422
OEO0538 OEO0021 2019-09-23 01:47:22 36999 402 58.136293340638 25.714842453575
OEO0538 OEO0021 2019-09-23 01:47:07 36999 402 58.162391048079 25.695997018594
OEO0538 OEO0021 2019-09-23 01:46:52 36999 402 58.188482665243 25.677137239654
OEO0538 OEO0021 2019-09-23 01:46:37 36999 402 58.214676349769 25.658188165858
OEO0538 OEO0021 2019-09-23 01:46:22 36999 402 58.240831059028 25.639256833374
OEO0538 OEO0021 2019-09-23 01:46:07 36999 402 58.266959310168 25.620341494292
OEO0538 OEO0021 2019-09-23 01:45:52 36999 402 58.293037849178 25.601468334538
OEO0538 OEO0021 2019-09-23 01:45:37 36999 402 58.319224074963 25.582536493653
OEO0538 OEO0021 2019-09-23 01:45:22 36999 402 58.345350106256 25.563685001454
OEO0538 OEO0021 2019-09-23 01:45:07 36999 402 58.371670810671 25.544754063657
OEO0538 OEO0021 2019-09-23 01:44:52 36999 402 58.397741493975 25.526092391354
OEO0538 OEO0021 2019-09-23 01:44:37 36999 402 58.423922780496 25.50746121036
OEO0538 OEO0021 2019-09-23 01:44:22 36999 402 58.450197306047 25.488775954715
OEO0538 OEO0021 2019-09-23 01:44:07 36999 402 58.476361072034 25.469667418253
OEO0538 OEO0021 2019-09-23 01:43:52 36999 402 58.502520119254 25.450354972201
OEO0538 OEO0021 2019-09-23 01:43:37 36999 402 58.528518955981 25.431130047435
OEO0538 OEO0021 2019-09-23 01:43:22 36999 402 58.55475509586 25.411698508293
OEO0538 OEO0021 2019-09-23 01:43:07 36999 402 58.580817798842 25.39236424366
OEO0538 OEO0021 2019-09-23 01:42:52 36999 402 58.606931917669 25.372960679989
OEO0538 OEO0021 2019-09-23 01:42:37 36999 402 58.632938716646 25.353605794036
OEO0538 OEO0021 2019-09-23 01:42:22 36999 402 58.659127235271 25.334084222064
OEO0538 OEO0021 2019-09-23 01:42:07 36999 402 58.685075844015 25.314710267294
OEO0538 OEO0021 2019-09-23 01:41:52 36999 402 58.71126285629 25.295126700671
OEO0538 OEO0021 2019-09-23 01:41:37 36999 402 58.737392856619 25.275554051028
OEO0538 OEO0021 2019-09-23 01:41:22 36999 402 58.763401934499 25.256040480896
OEO0538 OEO0021 2019-09-23 01:41:07 36999 402 58.789527049761 25.236408077175
OEO0538 OEO0021 2019-09-23 01:40:52 36999 402 58.815452897351 25.21689381132
OEO0538 OEO0021 2019-09-23 01:40:37 36999 402 58.841554762694 25.197215233743
OEO0538 OEO0021 2019-09-23 01:40:22 36999 402 58.867624817545 25.177528612181
OEO0538 OEO0021 2019-09-23 01:40:07 36999 402 58.893784749363 25.157741914459
OEO0538 OEO0021 2019-09-23 01:39:52 36999 402 58.919841457521 25.13800107176
OEO0538 OEO0021 2019-09-23 01:39:37 36999 402 58.945896729079 25.118229107888
OEO0538 OEO0021 2019-09-23 01:39:22 36999 402 58.971941761438 25.098432677161
OEO0538 OEO0021 2019-09-23 01:39:07 36999 402 58.997919795878 25.078654910183
OEO0538 OEO0021 2019-09-23 01:38:52 36999 402 59.02389839108 25.058844364347
OEO0538 OEO0021 2019-09-23 01:38:37 36999 402 59.049930176251 25.038960836258
OEO0538 OEO0021 2019-09-23 01:38:22 36999 402 59.076059453139 25.018969995482
OEO0538 OEO0021 2019-09-23 01:38:07 36999 402 59.102142277732 24.99898181122
OEO0538 OEO0021 2019-09-23 01:37:52 36999 402 59.128195825706 24.978983214157
OEO0538 OEO0021 2019-09-23 01:37:37 36999 402 59.1541184153 24.959052300093
OEO0538 OEO0021 2019-09-23 01:37:22 36999 402 59.180183848513 24.938978625818
OEO0538 OEO0021 2019-09-23 01:37:07 36999 402 59.206130551132 24.918963354117
OEO0538 OEO0021 2019-09-23 01:36:52 36999 402 59.232298755806 24.898743694264
OEO0538 OEO0021 2019-09-23 01:36:37 36999 402 59.258165668853 24.878723635079
OEO0538 OEO0021 2019-09-23 01:36:22 36999 402 59.284333114632 24.85843726039
OEO0538 OEO0021 2019-09-23 01:36:07 36999 402 59.310179658454 24.838366157662
OEO0538 OEO0021 2019-09-23 01:35:52 36999 402 59.336291379602 24.818055154992
OEO0538 OEO0021 2019-09-23 01:35:37 36999 402 59.36227884411 24.797806520672
OEO0538 OEO0021 2019-09-23 01:35:22 36999 402 59.388366580299 24.777445105467
OEO0538 OEO0021 2019-09-23 01:35:07 36999 402 59.414362978219 24.757120037376
OEO0538 OEO0021 2019-09-23 01:34:52 36999 402 59.440331861571 24.736781149513
OEO0538 OEO0021 2019-09-23 01:34:37 36999 402 59.466275413169 24.716426156013
OEO0538 OEO0021 2019-09-23 01:34:22 36999 402 59.492246058066 24.696013021701
OEO0538 OEO0021 2019-09-23 01:34:07 36999 402 59.518142819105 24.675620085867
OEO0538 OEO0021 2019-09-23 01:33:52 36999 402 59.544124331707 24.655120770565
OEO0538 OEO0021 2019-09-23 01:33:37 36999 402 59.570221654792 24.634487946504
OEO0538 OEO0021 2019-09-23 01:33:22 36999 402 59.596271773046 24.613847506222
OEO0538 OEO0021 2019-09-23 01:33:07 36999 402 59.622093908581 24.593339460024
OEO0538 OEO0021 2019-09-23 01:32:52 36999 402 59.648047932018 24.572672994092
OEO0538 OEO0021 2019-09-23 01:32:37 36999 402 59.674030587555 24.551922823783
OEO0538 OEO0021 2019-09-23 01:32:22 36999 402 59.699868722264 24.531219613354
OEO0538 OEO0021 2019-09-23 01:32:07 36999 402 59.725905164485 24.510286829455
OEO0538 OEO0021 2019-09-23 01:31:52 36999 402 59.751893175427 24.48938087746
OEO0538 OEO0021 2019-09-23 01:31:37 37000 402 59.777876445791 24.468960483564
OEO0538 OEO0021 2019-09-23 01:31:22 36998 402 59.804362041904 24.45203800797
OEO0538 OEO0021 2019-09-23 01:31:07 36999 402 59.831699434966 24.439696760414
OEO0538 OEO0021 2019-09-23 01:30:52 36999 402 59.858961352606 24.427418066467
OEO0538 OEO0021 2019-09-23 01:30:37 36999 402 59.886296330094 24.415085558252
OEO0538 OEO0021 2019-09-23 01:30:22 36999 402 59.91363852806 24.402728926429
OEO0538 OEO0021 2019-09-23 01:30:07 36999 402 59.940887430915 24.390393542936
OEO0538 OEO0021 2019-09-23 01:29:52 36999 402 59.968271966643 24.377975780943
OEO0538 OEO0021 2019-09-23 01:29:37 36999 402 59.995495556066 24.365610038011
OEO0538 OEO0021 2019-09-23 01:29:22 36999 402 60.022847171584 24.353165062239
OEO0538 OEO0021 2019-09-23 01:29:07 36999 402 60.050080357343 24.340752802007
OEO0538 OEO0021 2019-09-23 01:28:52 36999 402 60.077343690874 24.328305671101
OEO0538 OEO0021 2019-09-23 01:28:37 36999 402 60.104580424171 24.315849556825
OEO0538 OEO0021 2019-09-23 01:28:22 36999 402 60.131946721253 24.303312777356
OEO0538 OEO0021 2019-09-23 01:28:07 36999 402 60.159222416401 24.290796122923
OEO0538 OEO0021 2019-09-23 01:27:52 36999 402 60.186452569505 24.278278942482
OEO0538 OEO0021 2019-09-23 01:27:37 36999 402 60.213709208952 24.265728296997
OEO0538 OEO0021 2019-09-23 01:27:22 36999 402 60.240948261867 24.253164305631
OEO0538 OEO0021 2019-09-23 01:27:07 36999 402 60.268224989965 24.240561377772
OEO0538 OEO0021 2019-09-23 01:26:52 36999 402 60.295667594898 24.227859962151
OEO0538 OEO0021 2019-09-23 01:26:37 36999 402 60.322938300594 24.21521640467
OEO0538 OEO0021 2019-09-23 01:26:22 36999 402 60.350088719399 24.202606925209
OEO0538 OEO0021 2019-09-23 01:26:07 36999 402 60.37734800779 24.189925268387
OEO0538 OEO0021 2019-09-23 01:25:52 36999 402 60.404572531837 24.177238180607
OEO0538 OEO0021 2019-09-23 01:25:37 36999 402 60.431908734224 24.164477129158
OEO0538 OEO0021 2019-09-23 01:25:22 36999 402 60.459291039761 24.151672562675
OEO0538 OEO0021 2019-09-23 01:25:07 36999 402 60.486539813129 24.138908656571
OEO0538 OEO0021 2019-09-23 01:24:52 36999 402 60.513705772929 24.126161869422
OEO0538 OEO0021 2019-09-23 01:24:37 36999 402 60.541047742931 24.113310945025
OEO0538 OEO0021 2019-09-23 01:24:22 36999 402 60.568250455984 24.100503938553
OEO0538 OEO0021 2019-09-23 01:24:07 36999 402 60.59558869987 24.087611828559
OEO0538 OEO0021 2019-09-23 01:23:52 36999 402 60.622829024047 24.074745053996
OEO0538 OEO0021 2019-09-23 01:23:37 36999 402 60.649976045065 24.061901900364
OEO0538 OEO0021 2019-09-23 01:23:22 36999 402 60.677329573054 24.048941086915
OEO0538 OEO0021 2019-09-23 01:23:07 36999 402 60.70451211472 24.03604227886
OEO0538 OEO0021 2019-09-23 01:22:52 36999 402 60.731775174283 24.023087136214
OEO0538 OEO0021 2019-09-23 01:22:36 36999 402 60.759062870125 24.010104335112
OEO0538 OEO0021 2019-09-23 01:22:22 36999 402 60.786432901735 23.997068392851
OEO0538 OEO0021 2019-09-23 01:22:07 36999 402 60.813588089469 23.984123957771
OEO0538 OEO0021 2019-09-23 01:21:52 36999 402 60.841002994658 23.971049397402
OEO0538 OEO0021 2019-09-23 01:21:37 36999 402 60.868204271558 23.958076062016
OEO0538 OEO0021 2019-09-23 01:21:22 36999 402 60.895406423592 23.945109820548
OEO0538 OEO0021 2019-09-23 01:21:07 36999 402 60.922746704287 23.932096265744
OEO0538 OEO0021 2019-09-23 01:20:52 36999 402 60.949974856143 23.919169502038
OEO0538 OEO0021 2019-09-23 01:20:37 36999 402 60.977129039086 23.906330832922
OEO0538 OEO0021 2019-09-23 01:20:22 36999 402 61.004413084146 23.893507722832
OEO0538 OEO0021 2019-09-23 01:20:07 36999 402 61.031880175062 23.880687316556
OEO0538 OEO0021 2019-09-23 01:19:52 36999 402 61.059169726937 23.867910215609
OEO0538 OEO0021 2019-09-23 01:19:37 36996 402 61.086221503962 23.854008054886
OEO0538 OEO0021 2019-09-23 01:19:22 36999 402 61.112765130656 23.835447769638
OEO0538 OEO0021 2019-09-23 01:19:07 36999 402 61.139111188195 23.815955764526
OEO0538 OEO0021 2019-09-23 01:18:52 36999 402 61.165436088665 23.796444274613
OEO0538 OEO0021 2019-09-23 01:18:37 36999 402 61.191802737637 23.776866467353
OEO0538 OEO0021 2019-09-23 01:18:22 36999 402 61.218034631144 23.757353340835
OEO0538 OEO0021 2019-09-23 01:18:07 36999 402 61.244479330816 23.737645831759
OEO0538 OEO0021 2019-09-23 01:17:52 36999 402 61.270719968669 23.718054147256
OEO0538 OEO0021 2019-09-23 01:17:37 36999 402 61.297097764643 23.698323163698
OEO0538 OEO0021 2019-09-23 01:17:22 36999 402 61.323389428385 23.678619042413
OEO0538 OEO0021 2019-09-23 01:17:07 36999 402 61.349772931652 23.658807512924
OEO0538 OEO0021 2019-09-23 01:16:52 36999 402 61.376171400737 23.638944805383
OEO0538 OEO0021 2019-09-23 01:16:37 36999 402 61.402446845157 23.619133430484
OEO0538 OEO0021 2019-09-23 01:16:22 36999 402 61.428782311448 23.599233327508
OEO0538 OEO0021 2019-09-23 01:16:07 36999 402 61.454971213528 23.579397995945
OEO0538 OEO0021 2019-09-23 01:15:52 36999 402 61.481399059773 23.559331247612
OEO0538 OEO0021 2019-09-23 01:15:37 36999 402 61.507602204963 23.539380004293
OEO0538 OEO0021 2019-09-23 01:15:22 36999 402 61.533989440688 23.519227206271
OEO0538 OEO0021 2019-09-23 01:15:07 36999 402 61.560229394697 23.49912456875
OEO0538 OEO0021 2019-09-23 01:14:52 36999 402 61.586616681986 23.478889080846
OEO0538 OEO0021 2019-09-23 01:14:37 36999 402 61.612918943419 23.459066932274
OEO0538 OEO0021 2019-09-23 01:14:22 36998 402 61.639716897014 23.442311706707
OEO0538 OEO0021 2019-09-23 01:14:06 36998 402 61.667088737353 23.431635440707
OEO0538 OEO0021 2019-09-23 01:13:52 36999 402 61.69497362328 23.426489017379
OEO0538 OEO0021 2019-09-23 01:13:37 36999 402 61.723020167597 23.423566670707
OEO0538 OEO0021 2019-09-23 01:13:21 36999 402 61.750913422588 23.420672493347
OEO0538 OEO0021 2019-09-23 01:13:07 36999 402 61.778926715879 23.417760578128
OEO0538 OEO0021 2019-09-23 01:12:52 36999 402 61.806776693555 23.414860336883
OEO0538 OEO0021 2019-09-23 01:12:36 36999 402 61.834879290641 23.411928493264
OEO0538 OEO0021 2019-09-23 01:12:21 36999 402 61.86282835522 23.40900744817
OEO0538 OEO0021 2019-09-23 01:12:07 36999 402 61.89074090009 23.40608504637
OEO0538 OEO0021 2019-09-23 01:11:51 36999 402 61.918740623757 23.403148309379
OEO0538 OEO0021 2019-09-23 01:11:36 36999 402 61.946542426519 23.400227210791
OEO0538 OEO0021 2019-09-23 01:11:21 36999 402 61.974528196291 23.397281719545
OEO0538 OEO0021 2019-09-23 01:11:07 36999 402 62.002608950233 23.39432122961
OEO0538 OEO0021 2019-09-23 01:10:52 36999 402 62.030413618673 23.391385082551
OEO0538 OEO0021 2019-09-23 01:10:37 36999 402 62.058352838367 23.388430212705
OEO0538 OEO0021 2019-09-23 01:10:22 36999 402 62.086409746174 23.385458587358
OEO0538 OEO0021 2019-09-23 01:10:07 36999 402 62.114244227038 23.382506647242
OEO0538 OEO0021 2019-09-23 01:09:51 36999 402 62.14235819405 23.379521721833
OEO0538 OEO0021 2019-09-23 01:09:36 36999 402 62.170141131852 23.376569291846
OEO0538 OEO0021 2019-09-23 01:09:21 36999 402 62.198154554186 23.373590604318
OEO0538 OEO0021 2019-09-23 01:09:07 36999 402 62.226200041881 23.370608446048
OEO0538 OEO0021 2019-09-23 01:08:51 36999 402 62.254020528437 23.367652098253
OEO0538 OEO0021 2019-09-23 01:08:36 36999 402 62.282079663562 23.364674643837
OEO0538 OEO0021 2019-09-23 01:08:22 36999 402 62.310068726558 23.361712238058
OEO0538 OEO0021 2019-09-23 01:08:06 36999 402 62.337872341546 23.358779032551
OEO0538 OEO0021 2019-09-23 01:07:51 36999 402 62.36596902213 23.355812755685
OEO0538 OEO0021 2019-09-23 01:07:36 36999 402 62.393782102851 23.352805207183
OEO0538 OEO0021 2019-09-23 01:07:21 36999 402 62.42177768455 23.349738820572
OEO0538 OEO0021 2019-09-23 01:07:06 36999 402 62.449777408238 23.346666056371
OEO0538 OEO0021 2019-09-23 01:06:51 36999 402 62.477677256881 23.343598617744
OEO0538 OEO0021 2019-09-23 01:06:36 36999 402 62.505665687826 23.34051566921
OEO0538 OEO0021 2019-09-23 01:06:21 36999 402 62.533531255296 23.337440536691
OEO0538 OEO0021 2019-09-23 01:06:06 36999 402 62.561539816753 23.334343674412
OEO0538 OEO0021 2019-09-23 01:05:51 36999 402 62.589529384516 23.331243099405
OEO0538 OEO0021 2019-09-23 01:05:36 36999 402 62.6174886352 23.32814009101
OEO0538 OEO0021 2019-09-23 01:05:21 36999 402 62.645497759008 23.325025532132
OEO0538 OEO0021 2019-09-23 01:05:06 36999 402 62.6732973376 23.321928485864
OEO0538 OEO0021 2019-09-23 01:04:51 36999 402 62.701333752854 23.318799185425
OEO0538 OEO0021 2019-09-23 01:04:36 36999 402 62.729246650784 23.315677835779
OEO0538 OEO0021 2019-09-23 01:04:21 36999 402 62.757142053159 23.31255249386
OEO0538 OEO0021 2019-09-23 01:04:06 36999 402 62.785089461852 23.309415563186
OEO0538 OEO0021 2019-09-23 01:03:51 36999 402 62.813136520825 23.30626160854
OEO0538 OEO0021 2019-09-23 01:03:36 36999 402 62.841003624646 23.303121884732
OEO0538 OEO0021 2019-09-23 01:03:21 36999 402 62.869032603864 23.299958152341
OEO0538 OEO0021 2019-09-23 01:03:06 36999 402 62.897040368812 23.296791107135
OEO0538 OEO0021 2019-09-23 01:02:52 36999 402 62.924941449885 23.293630573546
OEO0538 OEO0021 2019-09-23 01:02:36 36999 402 62.952881734267 23.29046007519
OEO0538 OEO0021 2019-09-23 01:02:21 36999 402 62.980888018733 23.287276684826
OEO0538 OEO0021 2019-09-23 01:02:06 36999 402 63.0087935868 23.284099626888
OEO0538 OEO0021 2019-09-23 01:01:51 36999 402 63.036784010096 23.280908206032
OEO0538 OEO0021 2019-09-23 01:01:36 36999 402 63.064625686888 23.277729482722
OEO0538 OEO0021 2019-09-23 01:01:22 36999 402 63.092577518461 23.274534598377
OEO0538 OEO0021 2019-09-23 01:01:06 36999 402 63.120548983917 23.271334734913
OEO0538 OEO0021 2019-09-23 01:00:51 36999 402 63.148392985789 23.268147621605
OEO0538 OEO0021 2019-09-23 01:00:37 36999 402 63.176465252184 23.26493430618
OEO0538 OEO0021 2019-09-23 01:00:21 36999 402 63.204374231032 23.261741752461
OEO0538 OEO0021 2019-09-23 01:00:07 36999 402 63.232389127151 23.25854204926
OEO0538 OEO0021 2019-09-23 00:59:51 36999 402 63.260283865371 23.255362737911
OEO0538 OEO0021 2019-09-23 00:59:36 36999 402 63.288306726921 23.252166626941
OEO0538 OEO0021 2019-09-23 00:59:21 36999 402 63.31612520106 23.248972344919
OEO0538 OEO0021 2019-09-23 00:59:06 36999 402 63.34408747538 23.245768960425
OEO0538 OEO0021 2019-09-23 00:58:51 36999 402 63.372125001202 23.242571818036
OEO0538 OEO0021 2019-09-23 00:58:36 36999 402 63.400135877076 23.239400142658
OEO0538 OEO0021 2019-09-23 00:58:21 36999 402 63.42804547213 23.23627236327
OEO0538 OEO0021 2019-09-23 00:58:06 36999 402 63.455938123143 23.233192495392
OEO0538 OEO0021 2019-09-23 00:57:51 36999 402 63.483840881553 23.230176100654
OEO0538 OEO0021 2019-09-23 00:57:36 36999 402 63.511956578072 23.227227597972
OEO0538 OEO0021 2019-09-23 00:57:21 36999 402 63.539860016932 23.224425122163
OEO0538 OEO0021 2019-09-23 00:57:06 36999 402 63.567718205894 23.221789913859
OEO0538 OEO0021 2019-09-23 00:56:51 36999 402 63.595686389335 23.219328432001
OEO0538 OEO0021 2019-09-23 00:56:36 37001 402 63.623753636224 23.21685355201
OEO0538 OEO0021 2019-09-23 00:56:21 36994 402 63.651560302698 23.212434956483
OEO0538 OEO0021 2019-09-23 00:56:06 36999 402 63.679055545539 23.199688081658
OEO0538 OEO0021 2019-09-23 00:55:51 36999 402 63.706221324612 23.185188155325
OEO0538 OEO0021 2019-09-23 00:55:36 36999 402 63.733421035816 23.170641281227
OEO0538 OEO0021 2019-09-23 00:55:21 36999 402 63.760686920298 23.156029905203
OEO0538 OEO0021 2019-09-23 00:55:06 36999 402 63.788045547849 23.141339533316
OEO0538 OEO0021 2019-09-23 00:54:51 36999 402 63.815142188353 23.126760656045
OEO0538 OEO0021 2019-09-23 00:54:36 36999 402 63.842423009764 23.112053475791
OEO0538 OEO0021 2019-09-23 00:54:21 36999 402 63.869628664485 23.097357414748
OEO0538 OEO0021 2019-09-23 00:54:06 36999 402 63.896875678032 23.082609500127
OEO0538 OEO0021 2019-09-23 00:53:51 36999 402 63.924045736962 23.067873647887
OEO0538 OEO0021 2019-09-23 00:53:36 36999 402 63.951337346723 23.053042045416
OEO0538 OEO0021 2019-09-23 00:53:21 36999 402 63.978586382919 23.038203855395
OEO0538 OEO0021 2019-09-23 00:53:06 36999 402 64.005654540145 23.023434436004
OEO0538 OEO0021 2019-09-23 00:52:51 36999 402 64.032869131206 23.008555278191
OEO0538 OEO0021 2019-09-23 00:52:36 36999 402 64.060154246356 22.993607223862
OEO0538 OEO0021 2019-09-23 00:52:21 36999 402 64.087386193169 22.978658141732
OEO0538 OEO0021 2019-09-23 00:52:06 36999 402 64.114606061343 22.963685286225
OEO0538 OEO0021 2019-09-23 00:51:51 36999 402 64.14180748187 22.948692264219
OEO0538 OEO0021 2019-09-23 00:51:36 36999 402 64.168961362834 22.933694997235
OEO0538 OEO0021 2019-09-23 00:51:21 36999 402 64.196227718316 22.918605009658
OEO0538 OEO0021 2019-09-23 00:51:06 36999 402 64.223426863684 22.903521495781
OEO0538 OEO0021 2019-09-23 00:50:51 36999 402 64.250628920827 22.888405515275
OEO0538 OEO0021 2019-09-23 00:50:36 36999 402 64.277872375746 22.873235601136
OEO0538 OEO0021 2019-09-23 00:50:21 36999 402 64.304922290421 22.858142607379
OEO0538 OEO0021 2019-09-23 00:50:06 36999 402 64.332114232107 22.842939362982
OEO0538 OEO0021 2019-09-23 00:49:51 36999 402 64.359321442734 22.827696406081
OEO0538 OEO0021 2019-09-23 00:49:36 36999 402 64.386546029447 22.81241225518
OEO0538 OEO0021 2019-09-23 00:49:21 36999 402 64.413788555025 22.797086431761
OEO0538 OEO0021 2019-09-23 00:49:06 36999 402 64.441052938466 22.781716631894
OEO0538 OEO0021 2019-09-23 00:48:51 36999 402 64.46809277688 22.766441964385
OEO0538 OEO0021 2019-09-23 00:48:36 36999 402 64.495346924349 22.751014399612
OEO0538 OEO0021 2019-09-23 00:48:21 36999 402 64.522568387443 22.735573365761
OEO0538 OEO0021 2019-09-23 00:48:06 36999 402 64.549748189168 22.720123924307
OEO0538 OEO0021 2019-09-23 00:47:51 36999 402 64.5768114561 22.704708820191
OEO0538 OEO0021 2019-09-23 00:47:36 36999 402 64.604004685517 22.689187409761
OEO0538 OEO0021 2019-09-23 00:47:21 36999 402 64.631340261607 22.67355214069
OEO0538 OEO0021 2019-09-23 00:47:06 36999 402 64.658518667354 22.657974100223
OEO0538 OEO0021 2019-09-23 00:46:51 36999 402 64.685569289102 22.642436884565
OEO0538 OEO0021 2019-09-23 00:46:36 36999 402 64.712720880416 22.62680909571
OEO0538 OEO0021 2019-09-23 00:46:21 36999 402 64.739884096072 22.611141802204
OEO0538 OEO0021 2019-09-23 00:46:06 36999 402 64.767064462553 22.595431597772
OEO0538 OEO0021 2019-09-23 00:45:51 36999 402 64.794210300663 22.579708209685
OEO0538 OEO0021 2019-09-23 00:45:36 36999 402 64.821406341149 22.56392243243
OEO0538 OEO0021 2019-09-23 00:45:21 36999 402 64.848602354261 22.548103068427
OEO0538 OEO0021 2019-09-23 00:45:06 36999 402 64.875769878857 22.532266680542
OEO0538 OEO0021 2019-09-23 00:44:51 36999 402 64.902936616021 22.516397038223
OEO0538 OEO0021 2019-09-23 00:44:36 36999 402 64.930033643253 22.500534334979
OEO0538 OEO0021 2019-09-23 00:44:21 36999 402 64.957195031806 22.484599903648
OEO0538 OEO0021 2019-09-23 00:44:06 36999 402 64.984361152568 22.468628522188
OEO0538 OEO0021 2019-09-23 00:43:51 36999 402 65.011493371427 22.452642722266
OEO0538 OEO0021 2019-09-23 00:43:36 36999 402 65.038669611117 22.436596350999
OEO0538 OEO0021 2019-09-23 00:43:21 36999 402 65.065924217 22.420468797206
OEO0538 OEO0021 2019-09-23 00:43:06 36999 402 65.093071156243 22.404369962271
OEO0538 OEO0021 2019-09-23 00:42:51 36999 402 65.120224405497 22.388232304101
OEO0538 OEO0021 2019-09-23 00:42:36 36999 402 65.147414765096 22.372037297251
OEO0538 OEO0021 2019-09-23 00:42:21 36999 402 65.174558083088 22.355835054709
OEO0538 OEO0021 2019-09-23 00:42:06 36999 402 65.201700684416 22.339597916471
OEO0538 OEO0021 2019-09-23 00:41:51 36999 402 65.228667697457 22.323430961729
OEO0538 OEO0021 2019-09-23 00:41:36 36999 402 65.255912949368 22.307062129953
OEO0538 OEO0021 2019-09-23 00:41:21 36999 402 65.283112828839 22.290685740075
OEO0538 OEO0021 2019-09-23 00:41:06 36999 402 65.310087315343 22.274411341413
OEO0538 OEO0021 2019-09-23 00:40:51 36999 402 65.337377343806 22.257913143881
OEO0538 OEO0021 2019-09-23 00:40:36 36999 402 65.364461817813 22.241507021745
OEO0538 OEO0021 2019-09-23 00:40:21 36999 402 65.391638471165 22.225014330252
OEO0538 OEO0021 2019-09-23 00:40:06 36999 402 65.418779879834 22.208514356109
OEO0538 OEO0021 2019-09-23 00:39:51 36999 402 65.445759648565 22.192088912801
OEO0538 OEO0021 2019-09-23 00:39:36 36999 402 65.472871485036 22.17557945708
OEO0538 OEO0021 2019-09-23 00:39:21 36999 402 65.500024886991 22.159155453728
OEO0538 OEO0021 2019-09-23 00:39:06 36998 402 65.527416389907 22.14335584819
OEO0538 OEO0021 2019-09-23 00:38:51 36999 402 65.554794320139 22.130347041039
OEO0538 OEO0021 2019-09-23 00:38:36 36999 402 65.582308068724 22.118424538429
OEO0538 OEO0021 2019-09-23 00:38:21 36999 402 65.609912853732 22.10643670234
OEO0538 OEO0021 2019-09-23 00:38:06 36999 402 65.637299506023 22.094517965585
OEO0538 OEO0021 2019-09-23 00:37:51 36999 402 65.664983830046 22.082443571035
OEO0538 OEO0021 2019-09-23 00:37:36 36999 402 65.692590926263 22.070376612852
OEO0538 OEO0021 2019-09-23 00:37:21 36999 402 65.719999373782 22.058370496345
OEO0538 OEO0021 2019-09-23 00:37:06 36999 402 65.747544914298 22.046278088333
OEO0538 OEO0021 2019-09-23 00:36:51 36999 402 65.775047703453 22.034178236571
OEO0538 OEO0021 2019-09-23 00:36:36 36999 402 65.802727865913 22.021973678342
OEO0538 OEO0021 2019-09-23 00:36:21 36999 402 65.830329213143 22.009777313905
OEO0538 OEO0021 2019-09-23 00:36:06 36999 402 65.857773306474 21.997623763797
OEO0538 OEO0021 2019-09-23 00:35:51 36999 402 65.885297251068 21.985408386802
OEO0538 OEO0021 2019-09-23 00:35:36 36999 402 65.912771689302 21.973188199421
OEO0538 OEO0021 2019-09-23 00:35:21 36999 402 65.940283717742 21.960924472762
OEO0538 OEO0021 2019-09-23 00:35:06 36999 402 65.967901222915 21.948586645996
OEO0538 OEO0021 2019-09-23 00:34:51 36999 402 65.995328870308 21.936306641249
OEO0538 OEO0021 2019-09-23 00:34:36 36999 402 66.022894566986 21.923937621164
OEO0538 OEO0021 2019-09-23 00:34:21 36999 402 66.05047837761 21.911533173581
OEO0538 OEO0021 2019-09-23 00:34:06 36999 402 66.078024085007 21.899118391553
OEO0538 OEO0021 2019-09-23 00:33:51 36999 402 66.105597700119 21.886663525734
OEO0538 OEO0021 2019-09-23 00:33:36 36999 402 66.133060050401 21.874231493295
OEO0538 OEO0021 2019-09-23 00:33:21 36999 402 66.160464605792 21.861798169659
OEO0538 OEO0021 2019-09-23 00:33:06 36999 402 66.188122220419 21.849222117989
OEO0538 OEO0021 2019-09-23 00:32:51 36999 402 66.215642985796 21.836680354693
OEO0538 OEO0021 2019-09-23 00:32:36 36999 402 66.243103547872 21.824138196644
OEO0538 OEO0021 2019-09-23 00:32:21 36999 402 66.270685082593 21.811512665059
OEO0538 OEO0021 2019-09-23 00:32:06 36999 402 66.298222398192 21.798879188189
OEO0538 OEO0021 2019-09-23 00:31:51 36999 402 66.32578293278 21.786206746312
OEO0538 OEO0021 2019-09-23 00:31:36 36999 402 66.353298528246 21.773526598968
OEO0538 OEO0021 2019-09-23 00:31:21 36999 402 66.380670712062 21.760884247554
OEO0538 OEO0021 2019-09-23 00:31:06 36999 402 66.408290702432 21.748098906168
OEO0538 OEO0021 2019-09-23 00:30:51 36999 402 66.435706614316 21.735379375438
OEO0538 OEO0021 2019-09-23 00:30:36 36999 402 66.463246831475 21.722573533968
OEO0538 OEO0021 2019-09-23 00:30:21 36999 402 66.490811912791 21.709727177876
OEO0538 OEO0021 2019-09-23 00:30:06 36999 402 66.518341973996 21.6968680593
OEO0538 OEO0021 2019-09-23 00:29:51 36999 402 66.545754517489 21.684034886643
OEO0538 OEO0021 2019-09-23 00:29:36 36999 402 66.573381200828 21.671072132646
OEO0538 OEO0021 2019-09-23 00:29:21 36999 402 66.600756632361 21.65819820821
OEO0538 OEO0021 2019-09-23 00:29:06 36999 402 66.628333791619 21.645199956956
OEO0538 OEO0021 2019-09-23 00:28:51 36999 402 66.655793169938 21.632227802346
OEO0538 OEO0021 2019-09-23 00:28:36 36999 402 66.683434058734 21.619140054148
OEO0538 OEO0021 2019-09-23 00:28:21 36999 402 66.710941241172 21.606085865555
OEO0538 OEO0021 2019-09-23 00:28:06 36999 402 66.738457682489 21.592997476012
OEO0538 OEO0021 2019-09-23 00:27:51 36999 402 66.765960716872 21.579885407571
OEO0538 OEO0021 2019-09-23 00:27:36 36999 402 66.793353827076 21.566795998436
OEO0538 OEO0021 2019-09-23 00:27:21 36999 402 66.82089132815 21.553607337516
OEO0538 OEO0021 2019-09-23 00:27:06 36999 402 66.848358272159 21.540422306474
OEO0538 OEO0021 2019-09-23 00:26:51 36999 402 66.875782694383 21.527227355407
OEO0538 OEO0021 2019-09-23 00:26:36 36999 402 66.903451985386 21.513883879106
OEO0538 OEO0021 2019-09-23 00:26:21 36999 402 66.930947660941 21.500593564883
OEO0538 OEO0021 2019-09-23 00:26:06 36999 402 66.958382626404 21.487301924523
OEO0538 OEO0021 2019-09-23 00:25:51 36999 402 66.985835045581 21.473970977738
OEO0538 OEO0021 2019-09-23 00:25:36 36999 402 67.013428821258 21.460540359478
OEO0538 OEO0021 2019-09-23 00:25:21 36999 402 67.040933674214 21.447121914328
OEO0538 OEO0021 2019-09-23 00:25:06 36999 402 67.068305672923 21.43373721185
OEO0538 OEO0021 2019-09-23 00:24:51 36999 402 67.095747918212 21.420287053516
OEO0538 OEO0021 2019-09-23 00:24:36 36999 402 67.123374294519 21.406715036291
OEO0538 OEO0021 2019-09-23 00:24:21 36999 402 67.150866541636 21.39317731858
OEO0538 OEO0021 2019-09-23 00:24:06 36999 402 67.178257142997 21.379658040324
OEO0538 OEO0021 2019-09-23 00:23:51 36999 402 67.205829366215 21.36601735974
OEO0538 OEO0021 2019-09-23 00:23:36 36999 402 67.233283551941 21.352403048417
OEO0538 OEO0021 2019-09-23 00:23:21 36999 402 67.260736827075 21.338757276453
OEO0538 OEO0021 2019-09-23 00:23:06 36999 402 67.288143963583 21.325102341201
OEO0538 OEO0021 2019-09-23 00:22:51 36999 402 67.315712751097 21.311334507279
OEO0538 OEO0021 2019-09-23 00:22:36 36999 402 67.343103487516 21.297623477401
OEO0538 OEO0021 2019-09-23 00:22:21 36999 402 67.370567660777 21.283843075092
OEO0538 OEO0021 2019-09-23 00:22:06 36999 402 67.398227636918 21.269931351668
OEO0538 OEO0021 2019-09-23 00:21:51 36999 402 67.425529049863 21.25616747561
OEO0538 OEO0021 2019-09-23 00:21:36 36999 402 67.453005937998 21.242282339726
OEO0538 OEO0021 2019-09-23 00:21:21 36999 402 67.48046853657 21.228371317214
OEO0538 OEO0021 2019-09-23 00:21:06 36999 402 67.507934529965 21.214425415846
OEO0538 OEO0021 2019-09-23 00:20:51 36999 402 67.53555715238 21.20036635576
OEO0538 OEO0021 2019-09-23 00:20:36 36999 402 67.563033146061 21.18634833979
OEO0538 OEO0021 2019-09-23 00:20:21 36999 402 67.590446430647 21.172328845444
OEO0538 OEO0021 2019-09-23 00:20:06 36999 402 67.617823986127 21.158293993181
OEO0538 OEO0021 2019-09-23 00:19:51 36999 402 67.645428820294 21.144108575954
OEO0538 OEO0021 2019-09-23 00:19:36 36999 402 67.672716044713 21.130052565332
OEO0538 OEO0021 2019-09-23 00:19:21 36999 402 67.700314975887 21.115801657873
OEO0538 OEO0021 2019-09-23 00:19:06 36999 402 67.727775910917 21.101587528357
OEO0538 OEO0021 2019-09-23 00:18:51 36999 402 67.755231500404 21.087341657061
OEO0538 OEO0021 2019-09-23 00:18:36 36999 402 67.782718554754 21.073044961658
OEO0538 OEO0021 2019-09-23 00:18:21 36999 402 67.810131995326 21.058751680963
OEO0538 OEO0021 2019-09-23 00:18:06 36999 402 67.837506667666 21.044443862712
OEO0538 OEO0021 2019-09-23 00:17:51 36999 402 67.86496253166 21.030058514208
OEO0538 OEO0021 2019-09-23 00:17:36 36999 402 67.892560890555 21.015562927335
OEO0538 OEO0021 2019-09-23 00:17:21 36999 402 67.919839189988 21.001200245037
OEO0538 OEO0021 2019-09-23 00:17:06 36999 402 67.947408257037 20.986648725864
OEO0538 OEO0021 2019-09-23 00:16:51 36999 402 67.974862121316 20.972122177651
OEO0538 OEO0021 2019-09-23 00:16:36 36999 402 68.002359703157 20.957536528889
OEO0538 OEO0021 2019-09-23 00:16:21 36999 402 68.029798093246 20.942946378905
OEO0538 OEO0021 2019-09-23 00:16:06 36999 402 68.057251663928 20.928312250645
OEO0538 OEO0021 2019-09-23 00:15:51 36999 402 68.08470118086 20.913644465317
OEO0538 OEO0021 2019-09-23 00:15:36 36998 402 68.112131454087 20.898951461573
OEO0538 OEO0021 2019-09-23 00:15:21 36998 402 68.139473036201 20.884271118679
OEO0538 OEO0021 2019-09-23 00:15:06 36998 402 68.166986347725 20.869464910242
OEO0538 OEO0021 2019-09-23 00:14:51 36998 402 68.194304473548 20.854732614614
OEO0538 OEO0021 2019-09-23 00:14:36 36995 402 68.221712508823 20.839921902223
OEO0538 OEO0021 2019-09-23 00:14:21 36984 402 68.249239510604 20.825013653256
OEO0538 OEO0021 2019-09-23 00:14:06 36947 410 68.27695933758 20.809960969482
OEO0538 OEO0021 2019-09-23 00:13:51 36809 417 68.305198652559 20.794582007236
OEO0538 OEO0021 2019-09-23 00:13:36 36405 423 68.333778047475 20.778973888265
OEO0538 OEO0021 2019-09-23 00:13:21 35844 431 68.363105390638 20.762911070853
OEO0538 OEO0021 2019-09-23 00:13:06 35177 443 68.392885101871 20.746568952804
OEO0538 OEO0021 2019-09-23 00:12:51 34858 443 68.422980878697 20.730125465351
OEO0538 OEO0021 2019-09-23 00:12:36 34550 445 68.453489071718 20.714038254768
OEO0538 OEO0021 2019-09-23 00:12:21 34238 445 68.484059195437 20.700436366813
OEO0538 OEO0021 2019-09-23 00:12:06 33912 445 68.514553423638 20.689349284263
OEO0538 OEO0021 2019-09-23 00:11:51 33584 447 68.544553068351 20.666868754928
OEO0538 OEO0021 2019-09-23 00:11:36 33255 447 68.572441192811 20.629912430193
OEO0538 OEO0021 2019-09-23 00:11:21 32915 447 68.600522640575 20.592154883153
OEO0538 OEO0021 2019-09-23 00:11:06 32572 449 68.628526452247 20.554518936331
OEO0538 OEO0021 2019-09-23 00:10:51 32229 449 68.656517792485 20.516937697034
OEO0538 OEO0021 2019-09-23 00:10:36 31887 449 68.684606772209 20.479285587696
OEO0538 OEO0021 2019-09-23 00:10:21 31555 449 68.712631673681 20.441773607222
OEO0538 OEO0021 2019-09-23 00:10:06 31235 447 68.740670170044 20.404062742206
OEO0538 OEO0021 2019-09-23 00:09:51 30936 445 68.767983188289 20.363605724659
OEO0538 OEO0021 2019-09-23 00:09:36 30651 443 68.793198210548 20.314119665066
OEO0538 OEO0021 2019-09-23 00:09:21 30363 441 68.815590281889 20.256165897182
OEO0538 OEO0021 2019-09-23 00:09:06 30073 439 68.835290624625 20.190705823376
OEO0538 OEO0021 2019-09-23 00:08:51 29773 437 68.854260196974 20.124580231478
OEO0538 OEO0021 2019-09-23 00:08:36 29468 435 68.873140703533 20.058626025429
OEO0538 OEO0021 2019-09-23 00:08:21 29159 433 68.891935227523 19.992829729709
OEO0538 OEO0021 2019-09-23 00:08:06 28847 431 68.910514498128 19.927643283878
OEO0538 OEO0021 2019-09-23 00:07:51 28526 429 68.929130360302 19.862180842096
OEO0538 OEO0021 2019-09-23 00:07:36 28198 427 68.94750151848 19.797430727524
OEO0538 OEO0021 2019-09-23 00:07:21 27859 425 68.965837931714 19.732653337518
OEO0538 OEO0021 2019-09-23 00:07:06 27507 421 68.984154073328 19.667795236485
OEO0538 OEO0021 2019-09-23 00:06:51 27147 419 69.002256559193 19.603541437512
OEO0538 OEO0021 2019-09-23 00:06:36 26777 417 69.020200875169 19.539696948866
OEO0538 OEO0021 2019-09-23 00:06:21 26395 415 69.038052293153 19.47603023033
OEO0538 OEO0021 2019-09-23 00:06:06 26001 412 69.055831618146 19.412466824909
OEO0538 OEO0021 2019-09-23 00:05:58 23834 398 69.142505891399 19.100316512588
OEO0538 OEO0021 2019-09-23 00:04:42 22349 390 69.192900787236 18.916989009994
OEO0538 OEO0021 2019-09-23 00:03:51 21815 386 69.209390832264 18.856685312011
OEO0538 OEO0021 2019-09-23 00:03:37 21258 384 69.225708390231 18.796848651171
OEO0538 OEO0021 2019-09-23 00:03:21 20694 380 69.241929584595 18.737195256552
OEO0538 OEO0021 2019-09-23 00:03:06 20116 379 69.257954690254 18.678083158764
OEO0538 OEO0021 2019-09-23 00:02:51 19518 375 69.273923663123 18.618981977508
OEO0538 OEO0021 2019-09-23 00:02:36 18908 371 69.28965003053 18.560561155458
OEO0538 OEO0021 2019-09-23 00:02:21 18285 367 69.305131092314 18.50282317312
OEO0538 OEO0021 2019-09-23 00:02:06 17644 363 69.320529425092 18.445251896446
OEO0538 OEO0021 2019-09-23 00:01:51 16990 359 69.335840609648 18.388456971312
OEO0538 OEO0021 2019-09-23 00:01:37 16300 357 69.351724691461 18.33435797714
OEO0538 OEO0021 2019-09-23 00:01:21 15618 353 69.372112655179 18.294838994958
OEO0538 OEO0021 2019-09-23 00:01:06 14915 349 69.395792557512 18.279667406661
OEO0538 OEO0021 2019-09-23 00:00:51 14195 346 69.419946162138 18.286702000042
OEO0538 OEO0021 2019-09-23 00:00:37 13434 340 69.443535460268 18.298391833426
OEO0538 OEO0021 2019-09-23 00:00:21 12667 336 69.466735835975 18.310171794377
OEO0538 OEO0021 2019-09-23 00:00:06 11901 330 69.489251313196 18.324148818169
OEO0538 OEO0021 2019-09-22 23:59:51 11202 320 69.509191097547 18.355028534236
OEO0538 OEO0021 2019-09-22 23:59:36 10648 307 69.522195272682 18.404522604145
OEO0538 OEO0021 2019-09-22 23:59:21 10246 285 69.52961168661 18.459860351536
OEO0538 OEO0021 2019-09-22 23:59:06 9373 279 69.536399814905 18.512521915065
OEO0538 OEO0021 2019-09-22 23:58:51 8470 276 69.543215652967 18.564362729933
OEO0538 OEO0021 2019-09-22 23:58:36 7539 272 69.550867447777 18.614449069389
OEO0538 OEO0021 2019-09-22 23:58:21 6608 268 69.561365814993 18.658835360049
OEO0538 OEO0021 2019-09-22 23:58:06 5694 262 69.573911876204 18.697709855467
OEO0538 OEO0021 2019-09-22 23:57:51 4865 254 69.586403735329 18.734766776825
OEO0538 OEO0021 2019-09-22 23:57:36 4185 241 69.598495234319 18.770324134171
OEO0538 OEO0021 2019-09-22 23:57:21 3753 219 69.609835960413 18.803259711822
OEO0538 OEO0021 2019-09-22 23:57:06 3467 190 69.619636062013 18.832331186005
OEO0538 OEO0021 2019-09-22 23:56:51 2806 184 69.62885241135 18.858577530479
OEO0538 OEO0021 2019-09-22 23:56:36 2224 176 69.638728033211 18.881394767773
OEO0538 OEO0021 2019-09-22 23:56:21 1495 171 69.649692605914 18.895967379922
OEO0538 OEO0021 2019-09-22 23:56:06 748 167 69.661069951631 18.904324115562
OEO0538 OEO0021 2019-09-22 23:55:51 121 163 69.672313795548 18.911791902092
OEO0538 OEO0021 2019-09-22 23:55:36 46 122 69.68234675795 18.918442060929
OEO0538 OEO0021 2019-09-22 23:55:21 46 54 69.688531980723 18.922525317449
OEO0538 OEO0021 2019-09-22 23:55:06 46 0 69.689999952132 18.923485621484
OEO0538 OEO0021 2019-09-22 23:54:51 46 5 69.690408975935 18.923971503372
OEO0538 OEO0021 2019-09-22 23:54:36 46 15 69.689899523803 18.923564893893
OEO0538 OEO0021 2019-09-22 23:54:21 46 17 69.688683053707 18.922520160154
OEO0538 OEO0021 2019-09-22 23:54:06 46 13 69.687699051891 18.921743410223
OEO0538 OEO0021 2019-09-22 23:53:51 46 19 69.687721756587 18.918068227522
OEO0538 OEO0021 2019-09-22 23:53:36 46 23 69.686274234609 18.916179609279
OEO0538 OEO0021 2019-09-22 23:53:21 46 25 69.684564511111 18.915036563208
OEO0538 OEO0021 2019-09-22 23:53:06 46 25 69.68278763904 18.914590467274
OEO0538 OEO0021 2019-09-22 23:52:51 46 25 69.680998150148 18.913412511278
OEO0538 OEO0021 2019-09-22 23:52:36 46 21 69.679322258143 18.912136940033
OEO0538 OEO0021 2019-09-22 23:52:21 46 21 69.677813593721 18.910881268599
OEO0538 OEO0021 2019-09-22 23:52:06 46 0 69.677200639559 18.910368591569
OEO0538 OEO0021 2019-09-22 23:51:51 46 0 69.67719953092 18.910368050001
OEO0538 OEO0021 2019-09-22 23:51:36 46 0 69.677198468292 18.910367530906
OEO0538 OEO0021 2019-09-22 23:51:21 46 0 69.677197435949 18.910367026607
OEO0538 OEO0021 2019-09-22 23:51:06 46 0 69.677196348859 18.910366495559
OEO0538 OEO0021 2019-09-22 23:50:51 46 0 69.677195226602 18.910365947329
OEO0538 OEO0021 2019-09-22 23:50:36 46 0 69.677194146484 18.910365419681
OEO0538 OEO0021 2019-09-22 23:50:21 46 0 69.677193118395 18.910364917444
OEO0538 OEO0021 2019-09-22 23:50:06 46 0 69.677191998188 18.910364370199
OEO0538 OEO0021 2019-09-22 23:49:51 46 1 69.677363430455 18.91038597006
OEO0538 OEO0021 2019-09-22 23:49:36 46 1 69.677558777929 18.910218481328
OEO0538 OEO0021 2019-09-22 23:49:21 46 1 69.677715564197 18.909844149028
OEO0538 OEO0021 2019-09-22 23:49:06 46 1 69.677803154761 18.909321858428
OEO0538 OEO0021 2019-09-22 23:48:51 46 1 69.677841236422 18.908767578636
OEO0538 OEO0021 2019-09-22 23:48:36 46 1 69.677875947131 18.908255373928
OEO0538 OEO0021 2019-09-22 23:48:21 46 0 69.677894463091 18.907983059827
OEO0538 OEO0021 2019-09-22 23:48:06 46 0 69.677894463176 18.907983058593
OEO0538 OEO0021 2019-09-22 23:47:51 46 0 69.677894463176 18.907983058593